<?xml version='1.0' encoding='UTF-8'?><gpx version="1.1" creator="JPX - https://github.com/jenetics/jpx" xmlns="http://www.topografix.com/GPX/1/1"><trk><trkseg><trkpt lat="43.68659193110978" lon="11.133268076976847"><ele>92.0</ele><time>2026-04-16T16:22:14.685Z</time></trkpt><trkpt lat="43.68660273377748" lon="11.133363647386584"><ele>92.0</ele><time>2026-04-16T16:22:23.234Z</time></trkpt><trkpt lat="43.68663446711188" lon="11.133453890383295"><ele>92.0</ele><time>2026-04-16T16:22:31.001Z</time></trkpt><trkpt lat="43.686688948927824" lon="11.133507437874277"><ele>92.0</ele><time>2026-04-16T16:22:34.001Z</time></trkpt><trkpt lat="43.68676373284769" lon="11.133513735558385"><ele>92.0</ele><time>2026-04-16T16:22:37.001Z</time></trkpt><trkpt lat="43.686832978347354" lon="11.133457229339216"><ele>92.0</ele><time>2026-04-16T16:22:39.001Z</time></trkpt><trkpt lat="43.68689747598132" lon="11.133427655346061"><ele>92.0</ele><time>2026-04-16T16:22:44.001Z</time></trkpt><trkpt lat="43.68689438260199" lon="11.133532497502257"><ele>92.0</ele><time>2026-04-16T16:22:47.001Z</time></trkpt><trkpt lat="43.686824772680076" lon="11.133573980066105"><ele>92.0</ele><time>2026-04-16T16:22:50.001Z</time></trkpt><trkpt lat="43.68675538781215" lon="11.133619083028577"><ele>92.0</ele><time>2026-04-16T16:22:52.001Z</time></trkpt><trkpt lat="43.68668262424925" lon="11.133655204350395"><ele>92.0</ele><time>2026-04-16T16:22:54.001Z</time></trkpt><trkpt lat="43.68661288309915" lon="11.133683747730581"><ele>92.0</ele><time>2026-04-16T16:22:56.001Z</time></trkpt><trkpt lat="43.686546921468754" lon="11.13369712692455"><ele>92.0</ele><time>2026-04-16T16:22:58.001Z</time></trkpt><trkpt lat="43.68645972958326" lon="11.13374478274432"><ele>92.0</ele><time>2026-04-16T16:23:00.001Z</time></trkpt><trkpt lat="43.68640017444173" lon="11.133799259384665"><ele>92.0</ele><time>2026-04-16T16:23:02.001Z</time></trkpt><trkpt lat="43.68631142587479" lon="11.13385011956928"><ele>92.0</ele><time>2026-04-16T16:23:05.001Z</time></trkpt><trkpt lat="43.686224961708824" lon="11.133827434148042"><ele>92.0</ele><time>2026-04-16T16:23:07.001Z</time></trkpt><trkpt lat="43.68617518586004" lon="11.133752202216598"><ele>92.0</ele><time>2026-04-16T16:23:09.001Z</time></trkpt><trkpt lat="43.68612100142985" lon="11.133691301869886"><ele>92.0</ele><time>2026-04-16T16:23:11.001Z</time></trkpt><trkpt lat="43.68607312070091" lon="11.133599188938055"><ele>91.33333333333334</ele><time>2026-04-16T16:23:14.001Z</time></trkpt><trkpt lat="43.68601452121305" lon="11.133524546429769"><ele>90.66666666666667</ele><time>2026-04-16T16:23:17.001Z</time></trkpt><trkpt lat="43.68596368037438" lon="11.133432711597656"><ele>90.0</ele><time>2026-04-16T16:23:20.001Z</time></trkpt><trkpt lat="43.68592428892537" lon="11.133325754764131"><ele>89.33333333333333</ele><time>2026-04-16T16:23:23.001Z</time></trkpt><trkpt lat="43.68584506035124" lon="11.133259430842491"><ele>88.66666666666666</ele><time>2026-04-16T16:23:26.001Z</time></trkpt><trkpt lat="43.68576098367111" lon="11.133237367475182"><ele>88.0</ele><time>2026-04-16T16:23:29.001Z</time></trkpt><trkpt lat="43.68567203129282" lon="11.133211849096499"><ele>88.0</ele><time>2026-04-16T16:23:32.001Z</time></trkpt><trkpt lat="43.68559200201455" lon="11.133187614770605"><ele>88.0</ele><time>2026-04-16T16:23:35.001Z</time></trkpt><trkpt lat="43.68552563595138" lon="11.133185145139386"><ele>88.0</ele><time>2026-04-16T16:23:38.002Z</time></trkpt><trkpt lat="43.68558979010633" lon="11.133198017330132"><ele>88.0</ele><time>2026-04-16T16:23:53.002Z</time></trkpt><trkpt lat="43.6855175126532" lon="11.133170808804657"><ele>88.0</ele><time>2026-04-16T16:24:00.002Z</time></trkpt><trkpt lat="43.68546034010779" lon="11.133133412762088"><ele>88.0</ele><time>2026-04-16T16:24:05.002Z</time></trkpt><trkpt lat="43.68539250560398" lon="11.133173227554622"><ele>88.0</ele><time>2026-04-16T16:24:12.002Z</time></trkpt><trkpt lat="43.68531866439717" lon="11.133128018900464"><ele>87.42857142857143</ele><time>2026-04-16T16:24:18.002Z</time></trkpt><trkpt lat="43.68524330901015" lon="11.133102215880296"><ele>86.85714285714286</ele><time>2026-04-16T16:24:22.002Z</time></trkpt><trkpt lat="43.685177700405326" lon="11.133110461558061"><ele>86.28571428571428</ele><time>2026-04-16T16:24:26.002Z</time></trkpt><trkpt lat="43.68511120740687" lon="11.133075128022996"><ele>85.71428571428572</ele><time>2026-04-16T16:24:31.002Z</time></trkpt><trkpt lat="43.685172978289884" lon="11.133030172781154"><ele>85.14285714285714</ele><time>2026-04-16T16:24:38.002Z</time></trkpt><trkpt lat="43.68513038506461" lon="11.133098710872702"><ele>84.57142857142857</ele><time>2026-04-16T16:24:51.003Z</time></trkpt><trkpt lat="43.68505027698037" lon="11.1330984581014"><ele>84.0</ele><time>2026-04-16T16:24:54.003Z</time></trkpt><trkpt lat="43.68498050280075" lon="11.133069064141287"><ele>84.0</ele><time>2026-04-16T16:24:57.003Z</time></trkpt><trkpt lat="43.68491873342151" lon="11.133041195855977"><ele>84.0</ele><time>2026-04-16T16:25:00.003Z</time></trkpt><trkpt lat="43.68484691932455" lon="11.133028467897066"><ele>84.0</ele><time>2026-04-16T16:25:03.003Z</time></trkpt><trkpt lat="43.6847680426082" lon="11.133025141033022"><ele>84.0</ele><time>2026-04-16T16:25:06.003Z</time></trkpt><trkpt lat="43.68467153548969" lon="11.133023639133222"><ele>84.0</ele><time>2026-04-16T16:25:09.003Z</time></trkpt><trkpt lat="43.68461384604656" lon="11.132985399590883"><ele>84.0</ele><time>2026-04-16T16:25:11.003Z</time></trkpt><trkpt lat="43.684544512034535" lon="11.132917955000014"><ele>84.0</ele><time>2026-04-16T16:25:15.003Z</time></trkpt><trkpt lat="43.684476660386814" lon="11.132894455260043"><ele>84.0</ele><time>2026-04-16T16:25:18.003Z</time></trkpt><trkpt lat="43.68440753373349" lon="11.132831710810384"><ele>84.0</ele><time>2026-04-16T16:25:21.003Z</time></trkpt><trkpt lat="43.68432753382249" lon="11.132775472425033"><ele>84.0</ele><time>2026-04-16T16:25:24.003Z</time></trkpt><trkpt lat="43.68425959131909" lon="11.13270527177766"><ele>84.0</ele><time>2026-04-16T16:25:27.003Z</time></trkpt><trkpt lat="43.68422061126492" lon="11.132634436464459"><ele>84.0</ele><time>2026-04-16T16:25:29.003Z</time></trkpt><trkpt lat="43.68417878577698" lon="11.132566456955482"><ele>84.0</ele><time>2026-04-16T16:25:31.003Z</time></trkpt><trkpt lat="43.68413301817143" lon="11.132496080678285"><ele>84.0</ele><time>2026-04-16T16:25:33.003Z</time></trkpt><trkpt lat="43.68409956830393" lon="11.13241526973328"><ele>84.0</ele><time>2026-04-16T16:25:35.003Z</time></trkpt><trkpt lat="43.68407072661904" lon="11.132321233343344"><ele>84.0</ele><time>2026-04-16T16:25:37.003Z</time></trkpt><trkpt lat="43.684040600386645" lon="11.132225525384026"><ele>84.0</ele><time>2026-04-16T16:25:39.003Z</time></trkpt><trkpt lat="43.68401255487073" lon="11.13213588761068"><ele>84.0</ele><time>2026-04-16T16:25:41.003Z</time></trkpt><trkpt lat="43.683996669789295" lon="11.132004325757961"><ele>84.0</ele><time>2026-04-16T16:25:43.003Z</time></trkpt><trkpt lat="43.68404793076185" lon="11.131900802412376"><ele>84.0</ele><time>2026-04-16T16:25:45.003Z</time></trkpt><trkpt lat="43.68409134058003" lon="11.131817119642573"><ele>84.0</ele><time>2026-04-16T16:25:47.003Z</time></trkpt><trkpt lat="43.684129127631444" lon="11.131732844476605"><ele>84.0</ele><time>2026-04-16T16:25:49.003Z</time></trkpt><trkpt lat="43.6841664984816" lon="11.131660045342977"><ele>84.0</ele><time>2026-04-16T16:25:51.003Z</time></trkpt><trkpt lat="43.684200238505305" lon="11.131545789845644"><ele>84.0</ele><time>2026-04-16T16:25:54.003Z</time></trkpt><trkpt lat="43.68422609802445" lon="11.13145850540148"><ele>84.0</ele><time>2026-04-16T16:25:56.004Z</time></trkpt><trkpt lat="43.68425547869173" lon="11.131376216056292"><ele>84.0</ele><time>2026-04-16T16:25:58.004Z</time></trkpt><trkpt lat="43.68428807553336" lon="11.13127668645122"><ele>84.0</ele><time>2026-04-16T16:26:01.004Z</time></trkpt><trkpt lat="43.6843069734267" lon="11.131164731513287"><ele>84.0</ele><time>2026-04-16T16:26:04.004Z</time></trkpt><trkpt lat="43.68432234418426" lon="11.13107140638258"><ele>84.0</ele><time>2026-04-16T16:26:07.004Z</time></trkpt><trkpt lat="43.684330552778704" lon="11.130970315336551"><ele>84.0</ele><time>2026-04-16T16:26:11.004Z</time></trkpt><trkpt lat="43.684320525491955" lon="11.130852000511757"><ele>84.0</ele><time>2026-04-16T16:26:15.004Z</time></trkpt><trkpt lat="43.68431475828677" lon="11.130744194483807"><ele>84.0</ele><time>2026-04-16T16:26:18.004Z</time></trkpt><trkpt lat="43.68430401007268" lon="11.130631731153366"><ele>84.0</ele><time>2026-04-16T16:26:21.004Z</time></trkpt><trkpt lat="43.684278006985146" lon="11.130511911720646"><ele>84.0</ele><time>2026-04-16T16:26:24.004Z</time></trkpt><trkpt lat="43.68424518892855" lon="11.130423394917521"><ele>84.0</ele><time>2026-04-16T16:26:27.004Z</time></trkpt><trkpt lat="43.684198514759345" lon="11.130332557251837"><ele>84.0</ele><time>2026-04-16T16:26:30.004Z</time></trkpt><trkpt lat="43.6841474323994" lon="11.1302451217533"><ele>83.66666666666667</ele><time>2026-04-16T16:26:32.004Z</time></trkpt><trkpt lat="43.68408705148686" lon="11.130137487423092"><ele>83.33333333333333</ele><time>2026-04-16T16:26:34.004Z</time></trkpt><trkpt lat="43.68404996323461" lon="11.130040050804762"><ele>83.0</ele><time>2026-04-16T16:26:36.004Z</time></trkpt><trkpt lat="43.68401676861352" lon="11.129949428463593"><ele>82.66666666666666</ele><time>2026-04-16T16:26:38.004Z</time></trkpt><trkpt lat="43.683978040004384" lon="11.129843630075582"><ele>82.33333333333333</ele><time>2026-04-16T16:26:41.004Z</time></trkpt><trkpt lat="43.68393700264088" lon="11.129752402294235"><ele>82.0</ele><time>2026-04-16T16:26:44.004Z</time></trkpt><trkpt lat="43.68390299923586" lon="11.129675718845869"><ele>81.99999999999999</ele><time>2026-04-16T16:26:47.004Z</time></trkpt><trkpt lat="43.68386823369362" lon="11.129582652338069"><ele>82.0</ele><time>2026-04-16T16:26:50.004Z</time></trkpt><trkpt lat="43.68383821720324" lon="11.129480213112775"><ele>82.0</ele><time>2026-04-16T16:26:54.004Z</time></trkpt><trkpt lat="43.68380081049987" lon="11.129401388824355"><ele>82.0</ele><time>2026-04-16T16:26:57.004Z</time></trkpt><trkpt lat="43.68377192747759" lon="11.129316926277918"><ele>82.0</ele><time>2026-04-16T16:27:00.004Z</time></trkpt><trkpt lat="43.68373788568204" lon="11.129236721829857"><ele>81.99999999999999</ele><time>2026-04-16T16:27:03.004Z</time></trkpt><trkpt lat="43.683740638467484" lon="11.129142364593314"><ele>82.0</ele><time>2026-04-16T16:27:07.005Z</time></trkpt><trkpt lat="43.683673371411956" lon="11.129176179756428"><ele>81.99999999999999</ele><time>2026-04-16T16:27:25.005Z</time></trkpt><trkpt lat="43.68361750769244" lon="11.129219379419313"><ele>82.0</ele><time>2026-04-16T16:27:29.005Z</time></trkpt><trkpt lat="43.683555595962595" lon="11.129268291972629"><ele>82.0</ele><time>2026-04-16T16:27:33.005Z</time></trkpt><trkpt lat="43.68349890593462" lon="11.129316081943621"><ele>82.0</ele><time>2026-04-16T16:27:37.005Z</time></trkpt><trkpt lat="43.68344510128976" lon="11.129362821969067"><ele>82.0</ele><time>2026-04-16T16:27:41.005Z</time></trkpt><trkpt lat="43.68336624579679" lon="11.129366457715305"><ele>81.99999999999999</ele><time>2026-04-16T16:28:25.006Z</time></trkpt><trkpt lat="43.683292111366" lon="11.12937183831533"><ele>82.0</ele><time>2026-04-16T16:28:29.006Z</time></trkpt><trkpt lat="43.68320913440837" lon="11.129432177669205"><ele>81.99999999999999</ele><time>2026-04-16T16:28:32.006Z</time></trkpt><trkpt lat="43.68314579997532" lon="11.129458106359266"><ele>82.0</ele><time>2026-04-16T16:28:35.006Z</time></trkpt><trkpt lat="43.68309043633734" lon="11.12951858010484"><ele>82.0</ele><time>2026-04-16T16:28:42.006Z</time></trkpt><trkpt lat="43.683037752952224" lon="11.12957030862507"><ele>82.0</ele><time>2026-04-16T16:28:48.006Z</time></trkpt><trkpt lat="43.682986065765306" lon="11.129494880031576"><ele>82.0</ele><time>2026-04-16T16:28:52.006Z</time></trkpt><trkpt lat="43.682945652514704" lon="11.129388576723573"><ele>81.99999999999999</ele><time>2026-04-16T16:28:56.006Z</time></trkpt><trkpt lat="43.68291554134709" lon="11.129306483343136"><ele>82.0</ele><time>2026-04-16T16:28:58.006Z</time></trkpt><trkpt lat="43.68286767856988" lon="11.129204381047904"><ele>82.0</ele><time>2026-04-16T16:29:00.006Z</time></trkpt><trkpt lat="43.682797987285994" lon="11.129110187546434"><ele>82.0</ele><time>2026-04-16T16:29:02.006Z</time></trkpt><trkpt lat="43.68272742304754" lon="11.129029286673045"><ele>82.0</ele><time>2026-04-16T16:29:04.006Z</time></trkpt><trkpt lat="43.682641880680954" lon="11.128910773465465"><ele>82.0</ele><time>2026-04-16T16:29:06.006Z</time></trkpt><trkpt lat="43.682593012355355" lon="11.128757194123269"><ele>82.0</ele><time>2026-04-16T16:29:08.006Z</time></trkpt><trkpt lat="43.68251014931607" lon="11.12866390032639"><ele>81.5</ele><time>2026-04-16T16:29:10.006Z</time></trkpt><trkpt lat="43.68245336988721" lon="11.128555910050888"><ele>81.0</ele><time>2026-04-16T16:29:12.006Z</time></trkpt><trkpt lat="43.68240839025863" lon="11.128446441702984"><ele>80.5</ele><time>2026-04-16T16:29:14.006Z</time></trkpt><trkpt lat="43.68236299874579" lon="11.128354730263693"><ele>80.0</ele><time>2026-04-16T16:29:16.006Z</time></trkpt><trkpt lat="43.68231787236905" lon="11.12825355464645"><ele>79.5</ele><time>2026-04-16T16:29:18.006Z</time></trkpt><trkpt lat="43.682288312675944" lon="11.128162950102473"><ele>79.0</ele><time>2026-04-16T16:29:20.006Z</time></trkpt><trkpt lat="43.682241056074346" lon="11.128091956084496"><ele>79.00000000000001</ele><time>2026-04-16T16:29:22.007Z</time></trkpt><trkpt lat="43.682194388148524" lon="11.128032705247161"><ele>79.0</ele><time>2026-04-16T16:29:24.007Z</time></trkpt><trkpt lat="43.68214778365806" lon="11.127944221176145"><ele>79.0</ele><time>2026-04-16T16:29:27.007Z</time></trkpt><trkpt lat="43.68211236255249" lon="11.127858588550431"><ele>79.0</ele><time>2026-04-16T16:29:30.007Z</time></trkpt><trkpt lat="43.682070525191406" lon="11.127770231954557"><ele>79.0</ele><time>2026-04-16T16:29:34.007Z</time></trkpt><trkpt lat="43.682048486304154" lon="11.127688040528199"><ele>79.00000000000001</ele><time>2026-04-16T16:29:40.007Z</time></trkpt><trkpt lat="43.68203037619703" lon="11.127603230316947"><ele>79.0</ele><time>2026-04-16T16:29:54.007Z</time></trkpt><trkpt lat="43.68196124668665" lon="11.12758133050132"><ele>78.85714285714286</ele><time>2026-04-16T16:29:57.007Z</time></trkpt><trkpt lat="43.68189934058624" lon="11.127598882324474"><ele>78.71428571428572</ele><time>2026-04-16T16:29:59.007Z</time></trkpt><trkpt lat="43.6818235029609" lon="11.127610475642836"><ele>78.57142857142858</ele><time>2026-04-16T16:30:01.007Z</time></trkpt><trkpt lat="43.681759659653615" lon="11.127648188928825"><ele>78.42857142857143</ele><time>2026-04-16T16:30:03.007Z</time></trkpt><trkpt lat="43.68169335620355" lon="11.127687912662397"><ele>78.28571428571428</ele><time>2026-04-16T16:30:05.007Z</time></trkpt><trkpt lat="43.68163663790778" lon="11.127729493935849"><ele>78.14285714285715</ele><time>2026-04-16T16:30:07.007Z</time></trkpt><trkpt lat="43.68157615643325" lon="11.127754859897754"><ele>78.0</ele><time>2026-04-16T16:30:09.007Z</time></trkpt><trkpt lat="43.68149478972884" lon="11.127779199031865"><ele>78.0</ele><time>2026-04-16T16:30:12.007Z</time></trkpt><trkpt lat="43.681441145498205" lon="11.127825141677814"><ele>78.0</ele><time>2026-04-16T16:30:14.007Z</time></trkpt><trkpt lat="43.68137666668575" lon="11.127864999994303"><ele>78.0</ele><time>2026-04-16T16:30:16.007Z</time></trkpt><trkpt lat="43.68128889232289" lon="11.12790151677367"><ele>78.0</ele><time>2026-04-16T16:30:19.007Z</time></trkpt><trkpt lat="43.681205237488584" lon="11.127950908721616"><ele>78.0</ele><time>2026-04-16T16:30:22.007Z</time></trkpt><trkpt lat="43.681142094954225" lon="11.12798351377349"><ele>78.0</ele><time>2026-04-16T16:30:24.007Z</time></trkpt><trkpt lat="43.68107444448538" lon="11.128027232201061"><ele>78.16666666666667</ele><time>2026-04-16T16:30:26.007Z</time></trkpt><trkpt lat="43.68101228611242" lon="11.12806940912147"><ele>78.33333333333333</ele><time>2026-04-16T16:30:28.007Z</time></trkpt><trkpt lat="43.680955495111384" lon="11.128117176675483"><ele>78.5</ele><time>2026-04-16T16:30:30.008Z</time></trkpt><trkpt lat="43.6808694340508" lon="11.128172023524742"><ele>78.66666666666666</ele><time>2026-04-16T16:30:33.008Z</time></trkpt><trkpt lat="43.68081870843883" lon="11.12822420154505"><ele>78.83333333333333</ele><time>2026-04-16T16:30:35.008Z</time></trkpt><trkpt lat="43.68075498867746" lon="11.128273986670099"><ele>79.0</ele><time>2026-04-16T16:30:37.008Z</time></trkpt><trkpt lat="43.68067843968062" lon="11.128336811320061"><ele>79.16666666666666</ele><time>2026-04-16T16:30:40.008Z</time></trkpt><trkpt lat="43.680591526768865" lon="11.128400292292827"><ele>79.33333333333333</ele><time>2026-04-16T16:30:43.008Z</time></trkpt><trkpt lat="43.680534964550546" lon="11.128449198192436"><ele>79.5</ele><time>2026-04-16T16:30:45.008Z</time></trkpt><trkpt lat="43.68047447405864" lon="11.12852555647832"><ele>79.66666666666667</ele><time>2026-04-16T16:30:48.008Z</time></trkpt><trkpt lat="43.68041361239394" lon="11.128571308745062"><ele>79.83333333333334</ele><time>2026-04-16T16:30:50.008Z</time></trkpt><trkpt lat="43.680336064486184" lon="11.128637451331564"><ele>80.0</ele><time>2026-04-16T16:30:53.008Z</time></trkpt><trkpt lat="43.68025854706639" lon="11.128702763166448"><ele>80.16666666666667</ele><time>2026-04-16T16:30:56.008Z</time></trkpt><trkpt lat="43.68018714214861" lon="11.128766926540438"><ele>80.33333333333334</ele><time>2026-04-16T16:30:59.008Z</time></trkpt><trkpt lat="43.680117341614995" lon="11.128842893889422"><ele>80.5</ele><time>2026-04-16T16:31:02.008Z</time></trkpt><trkpt lat="43.680051262742026" lon="11.1288874557732"><ele>80.66666666666667</ele><time>2026-04-16T16:31:04.008Z</time></trkpt><trkpt lat="43.67996283567097" lon="11.128936052253465"><ele>80.83333333333333</ele><time>2026-04-16T16:31:07.008Z</time></trkpt><trkpt lat="43.6799003328572" lon="11.128972203485583"><ele>81.0</ele><time>2026-04-16T16:31:09.008Z</time></trkpt><trkpt lat="43.67981101822057" lon="11.129019780713913"><ele>80.85714285714286</ele><time>2026-04-16T16:31:12.008Z</time></trkpt><trkpt lat="43.679745308900195" lon="11.129080813319773"><ele>80.71428571428571</ele><time>2026-04-16T16:31:15.008Z</time></trkpt><trkpt lat="43.679681902760755" lon="11.12911150334971"><ele>80.57142857142857</ele><time>2026-04-16T16:31:20.008Z</time></trkpt><trkpt lat="43.679627143062845" lon="11.129065275924754"><ele>80.42857142857143</ele><time>2026-04-16T16:37:43.014Z</time></trkpt><trkpt lat="43.67957842119464" lon="11.12912536906673"><ele>80.28571428571429</ele><time>2026-04-16T16:38:05.014Z</time></trkpt><trkpt lat="43.679509833654265" lon="11.129167354602549"><ele>80.14285714285714</ele><time>2026-04-16T16:41:04.017Z</time></trkpt><trkpt lat="43.67943863451454" lon="11.129196127863247"><ele>80.0</ele><time>2026-04-16T16:41:09.017Z</time></trkpt><trkpt lat="43.67951434079474" lon="11.129184963996652"><ele>80.0</ele><time>2026-04-16T16:41:22.017Z</time></trkpt><trkpt lat="43.67956988493646" lon="11.129137902646839"><ele>80.0</ele><time>2026-04-16T16:41:27.017Z</time></trkpt><trkpt lat="43.67962672863107" lon="11.129073105288635"><ele>80.0</ele><time>2026-04-16T16:41:47.017Z</time></trkpt><trkpt lat="43.6795719041572" lon="11.129120794505972"><ele>80.0</ele><time>2026-04-16T16:41:54.017Z</time></trkpt><trkpt lat="43.6795086168585" lon="11.129134258514576"><ele>80.0</ele><time>2026-04-16T16:41:58.018Z</time></trkpt><trkpt lat="43.679442918419596" lon="11.12918259485904"><ele>80.0</ele><time>2026-04-16T16:42:02.018Z</time></trkpt><trkpt lat="43.679371037863646" lon="11.129218023206187"><ele>80.0</ele><time>2026-04-16T16:42:05.018Z</time></trkpt><trkpt lat="43.67930617815873" lon="11.129249027177776"><ele>80.16666666666667</ele><time>2026-04-16T16:42:08.018Z</time></trkpt><trkpt lat="43.679238296098134" lon="11.129283771892297"><ele>80.33333333333334</ele><time>2026-04-16T16:42:11.018Z</time></trkpt><trkpt lat="43.67916640548479" lon="11.129333237440548"><ele>80.5</ele><time>2026-04-16T16:42:14.018Z</time></trkpt><trkpt lat="43.67908165548902" lon="11.129382814497035"><ele>80.66666666666667</ele><time>2026-04-16T16:42:17.018Z</time></trkpt><trkpt lat="43.679006149455404" lon="11.12943183601925"><ele>80.83333333333333</ele><time>2026-04-16T16:42:20.018Z</time></trkpt><trkpt lat="43.678936615342735" lon="11.129485822098525"><ele>81.0</ele><time>2026-04-16T16:42:23.018Z</time></trkpt><trkpt lat="43.678865772217165" lon="11.129540704098458"><ele>81.0</ele><time>2026-04-16T16:42:26.018Z</time></trkpt><trkpt lat="43.67878206860112" lon="11.129585724446894"><ele>81.0</ele><time>2026-04-16T16:42:29.014Z</time></trkpt><trkpt lat="43.678712206863516" lon="11.129631531173796"><ele>81.0</ele><time>2026-04-16T16:42:32.014Z</time></trkpt><trkpt lat="43.67863783810336" lon="11.129680178026494"><ele>81.0</ele><time>2026-04-16T16:42:35.014Z</time></trkpt><trkpt lat="43.67855611384298" lon="11.129726614871926"><ele>81.0</ele><time>2026-04-16T16:42:38.014Z</time></trkpt><trkpt lat="43.678493440645596" lon="11.12975612789594"><ele>81.0</ele><time>2026-04-16T16:42:40.014Z</time></trkpt><trkpt lat="43.678435503365584" lon="11.129807560516538"><ele>81.28571428571429</ele><time>2026-04-16T16:42:42.014Z</time></trkpt><trkpt lat="43.678376071613236" lon="11.12984354670471"><ele>81.57142857142857</ele><time>2026-04-16T16:42:44.014Z</time></trkpt><trkpt lat="43.67830564274203" lon="11.129872454150492"><ele>81.85714285714286</ele><time>2026-04-16T16:42:46.014Z</time></trkpt><trkpt lat="43.67821223545037" lon="11.129896578148303"><ele>82.14285714285714</ele><time>2026-04-16T16:42:49.014Z</time></trkpt><trkpt lat="43.67814377210778" lon="11.12990365256886"><ele>82.42857142857143</ele><time>2026-04-16T16:42:51.014Z</time></trkpt><trkpt lat="43.678069415385906" lon="11.129907765055632"><ele>82.71428571428571</ele><time>2026-04-16T16:42:53.014Z</time></trkpt><trkpt lat="43.67800113331205" lon="11.12992740709999"><ele>83.0</ele><time>2026-04-16T16:42:55.014Z</time></trkpt><trkpt lat="43.67793160661158" lon="11.129938512940944"><ele>83.0</ele><time>2026-04-16T16:42:57.014Z</time></trkpt><trkpt lat="43.67786022824955" lon="11.129960690895244"><ele>83.0</ele><time>2026-04-16T16:42:59.014Z</time></trkpt><trkpt lat="43.67777741150445" lon="11.129997569578721"><ele>83.0</ele><time>2026-04-16T16:43:01.014Z</time></trkpt><trkpt lat="43.67770494783816" lon="11.13003376999927"><ele>83.0</ele><time>2026-04-16T16:43:03.014Z</time></trkpt><trkpt lat="43.67763162828533" lon="11.130059199482243"><ele>83.0</ele><time>2026-04-16T16:43:05.014Z</time></trkpt><trkpt lat="43.67755387604462" lon="11.130096104480849"><ele>83.0</ele><time>2026-04-16T16:43:07.014Z</time></trkpt><trkpt lat="43.677474604672824" lon="11.130142556615834"><ele>83.16666666666667</ele><time>2026-04-16T16:43:09.014Z</time></trkpt><trkpt lat="43.677385001411196" lon="11.130194119973103"><ele>83.33333333333334</ele><time>2026-04-16T16:43:11.014Z</time></trkpt><trkpt lat="43.67730300230141" lon="11.130254342890032"><ele>83.5</ele><time>2026-04-16T16:43:13.014Z</time></trkpt><trkpt lat="43.67723377145427" lon="11.130299635639123"><ele>83.66666666666667</ele><time>2026-04-16T16:43:15.014Z</time></trkpt><trkpt lat="43.677159724797875" lon="11.130347389556677"><ele>83.83333333333333</ele><time>2026-04-16T16:43:17.014Z</time></trkpt><trkpt lat="43.67708147555019" lon="11.130404259396073"><ele>84.0</ele><time>2026-04-16T16:43:19.013Z</time></trkpt><trkpt lat="43.67701298268615" lon="11.130461088500919"><ele>84.0</ele><time>2026-04-16T16:43:21.014Z</time></trkpt><trkpt lat="43.67693653663051" lon="11.130526210512226"><ele>84.0</ele><time>2026-04-16T16:43:23.014Z</time></trkpt><trkpt lat="43.67686097767305" lon="11.130576956115409"><ele>84.0</ele><time>2026-04-16T16:43:25.014Z</time></trkpt><trkpt lat="43.67679769351061" lon="11.130633643469604"><ele>84.0</ele><time>2026-04-16T16:43:27.013Z</time></trkpt><trkpt lat="43.67674346385951" lon="11.130689039142885"><ele>84.0</ele><time>2026-04-16T16:43:29.014Z</time></trkpt><trkpt lat="43.676678887367494" lon="11.130740200061146"><ele>84.0</ele><time>2026-04-16T16:43:31.014Z</time></trkpt><trkpt lat="43.67660202563491" lon="11.130794419509394"><ele>83.5</ele><time>2026-04-16T16:43:33.014Z</time></trkpt><trkpt lat="43.67652421925021" lon="11.13084823999732"><ele>83.0</ele><time>2026-04-16T16:43:35.014Z</time></trkpt><trkpt lat="43.6764601042013" lon="11.130883561016487"><ele>82.5</ele><time>2026-04-16T16:43:37.014Z</time></trkpt><trkpt lat="43.6763950018338" lon="11.130919153713416"><ele>82.0</ele><time>2026-04-16T16:43:39.014Z</time></trkpt><trkpt lat="43.67632974092143" lon="11.130981842242463"><ele>81.5</ele><time>2026-04-16T16:43:41.014Z</time></trkpt><trkpt lat="43.67626985686627" lon="11.131018485944308"><ele>81.0</ele><time>2026-04-16T16:43:43.014Z</time></trkpt><trkpt lat="43.67618403670366" lon="11.131080569026661"><ele>81.0</ele><time>2026-04-16T16:43:46.014Z</time></trkpt><trkpt lat="43.67612933475675" lon="11.131133621677206"><ele>81.0</ele><time>2026-04-16T16:43:48.014Z</time></trkpt><trkpt lat="43.67606948104621" lon="11.13119871976203"><ele>81.0</ele><time>2026-04-16T16:43:50.014Z</time></trkpt><trkpt lat="43.676007802738525" lon="11.13125932366352"><ele>81.0</ele><time>2026-04-16T16:43:52.014Z</time></trkpt><trkpt lat="43.675941658252626" lon="11.131311133173279"><ele>81.0</ele><time>2026-04-16T16:43:54.015Z</time></trkpt><trkpt lat="43.67587362026316" lon="11.13135843146143"><ele>81.0</ele><time>2026-04-16T16:43:56.015Z</time></trkpt><trkpt lat="43.675812624406916" lon="11.13139989429333"><ele>81.0</ele><time>2026-04-16T16:43:58.015Z</time></trkpt><trkpt lat="43.67573838418458" lon="11.131446251351784"><ele>81.0</ele><time>2026-04-16T16:44:00.015Z</time></trkpt><trkpt lat="43.67567338475871" lon="11.131488743446887"><ele>81.0</ele><time>2026-04-16T16:44:02.015Z</time></trkpt><trkpt lat="43.67561074002812" lon="11.131526966772899"><ele>81.0</ele><time>2026-04-16T16:44:04.015Z</time></trkpt><trkpt lat="43.67554211722765" lon="11.1315618281853"><ele>81.0</ele><time>2026-04-16T16:44:06.015Z</time></trkpt><trkpt lat="43.67547847885116" lon="11.131613734649353"><ele>81.0</ele><time>2026-04-16T16:44:08.015Z</time></trkpt><trkpt lat="43.67540375480601" lon="11.131653637713452"><ele>81.0</ele><time>2026-04-16T16:44:10.015Z</time></trkpt><trkpt lat="43.67532725622665" lon="11.131677471901817"><ele>81.0</ele><time>2026-04-16T16:44:12.015Z</time></trkpt><trkpt lat="43.67525662560917" lon="11.13170226024241"><ele>81.0</ele><time>2026-04-16T16:44:14.015Z</time></trkpt><trkpt lat="43.675184361836514" lon="11.131741936813636"><ele>81.0</ele><time>2026-04-16T16:44:16.015Z</time></trkpt><trkpt lat="43.67510138136616" lon="11.131746868410401"><ele>81.0</ele><time>2026-04-16T16:44:18.015Z</time></trkpt><trkpt lat="43.675032339900206" lon="11.131806416016437"><ele>81.0</ele><time>2026-04-16T16:44:20.015Z</time></trkpt><trkpt lat="43.674966293432675" lon="11.131860731519216"><ele>81.0</ele><time>2026-04-16T16:44:22.015Z</time></trkpt><trkpt lat="43.67489366450553" lon="11.131900763023301"><ele>81.0</ele><time>2026-04-16T16:44:24.015Z</time></trkpt><trkpt lat="43.674827342577714" lon="11.131948904695378"><ele>81.0</ele><time>2026-04-16T16:44:26.015Z</time></trkpt><trkpt lat="43.67475083182776" lon="11.131991891698089"><ele>81.0</ele><time>2026-04-16T16:44:28.015Z</time></trkpt><trkpt lat="43.674672994631926" lon="11.132005348018941"><ele>81.0</ele><time>2026-04-16T16:44:30.015Z</time></trkpt><trkpt lat="43.6746068862345" lon="11.132009483095553"><ele>81.0</ele><time>2026-04-16T16:44:32.015Z</time></trkpt><trkpt lat="43.674521944302796" lon="11.131982145300228"><ele>81.0</ele><time>2026-04-16T16:44:34.015Z</time></trkpt><trkpt lat="43.67444387215055" lon="11.131983876068329"><ele>81.0</ele><time>2026-04-16T16:44:36.015Z</time></trkpt><trkpt lat="43.67437704885751" lon="11.132004493543533"><ele>81.0</ele><time>2026-04-16T16:44:38.015Z</time></trkpt><trkpt lat="43.67430686029173" lon="11.132009186545035"><ele>81.0</ele><time>2026-04-16T16:44:40.015Z</time></trkpt><trkpt lat="43.67423314252283" lon="11.132018029460479"><ele>81.0</ele><time>2026-04-16T16:44:42.015Z</time></trkpt><trkpt lat="43.67416147355533" lon="11.132008851893428"><ele>81.0</ele><time>2026-04-16T16:44:44.015Z</time></trkpt><trkpt lat="43.67409254069014" lon="11.132018705051694"><ele>81.0</ele><time>2026-04-16T16:44:46.015Z</time></trkpt><trkpt lat="43.67401564707812" lon="11.132028440969407"><ele>81.0</ele><time>2026-04-16T16:44:48.015Z</time></trkpt><trkpt lat="43.67393268768583" lon="11.132040726092367"><ele>81.0</ele><time>2026-04-16T16:44:50.015Z</time></trkpt><trkpt lat="43.6738467353677" lon="11.13203448686348"><ele>81.0</ele><time>2026-04-16T16:44:52.015Z</time></trkpt><trkpt lat="43.67376921040368" lon="11.132048455322956"><ele>81.0</ele><time>2026-04-16T16:44:54.015Z</time></trkpt><trkpt lat="43.67369080097948" lon="11.132053290092665"><ele>81.0</ele><time>2026-04-16T16:44:56.015Z</time></trkpt><trkpt lat="43.67360637329141" lon="11.132066827407998"><ele>81.0</ele><time>2026-04-16T16:44:58.015Z</time></trkpt><trkpt lat="43.67352371372228" lon="11.132077641163388"><ele>81.0</ele><time>2026-04-16T16:45:00.015Z</time></trkpt><trkpt lat="43.6734428852441" lon="11.132079941669563"><ele>81.0</ele><time>2026-04-16T16:45:02.016Z</time></trkpt><trkpt lat="43.67336138692527" lon="11.13207361815411"><ele>81.16666666666667</ele><time>2026-04-16T16:45:04.016Z</time></trkpt><trkpt lat="43.67327838219246" lon="11.132063234274364"><ele>81.33333333333333</ele><time>2026-04-16T16:45:06.016Z</time></trkpt><trkpt lat="43.67319627992889" lon="11.132052713741801"><ele>81.5</ele><time>2026-04-16T16:45:08.016Z</time></trkpt><trkpt lat="43.67311231286678" lon="11.132036866450862"><ele>81.66666666666666</ele><time>2026-04-16T16:45:10.016Z</time></trkpt><trkpt lat="43.673027526594794" lon="11.132027168150207"><ele>81.83333333333333</ele><time>2026-04-16T16:45:12.016Z</time></trkpt><trkpt lat="43.67295423641914" lon="11.132006227285924"><ele>82.0</ele><time>2026-04-16T16:45:14.016Z</time></trkpt><trkpt lat="43.67287886484075" lon="11.131996442003636"><ele>82.0</ele><time>2026-04-16T16:45:16.016Z</time></trkpt><trkpt lat="43.67279139959538" lon="11.131999085283388"><ele>82.0</ele><time>2026-04-16T16:45:18.016Z</time></trkpt><trkpt lat="43.672710411030785" lon="11.132010095575964"><ele>82.0</ele><time>2026-04-16T16:45:20.016Z</time></trkpt><trkpt lat="43.672630145984876" lon="11.132019086650738"><ele>82.0</ele><time>2026-04-16T16:45:22.015Z</time></trkpt><trkpt lat="43.67255928942899" lon="11.13204398952926"><ele>82.0</ele><time>2026-04-16T16:45:24.015Z</time></trkpt><trkpt lat="43.672488963946705" lon="11.132046802183575"><ele>82.0</ele><time>2026-04-16T16:45:26.015Z</time></trkpt><trkpt lat="43.67241906280959" lon="11.13205346785579"><ele>82.0</ele><time>2026-04-16T16:45:28.015Z</time></trkpt><trkpt lat="43.67235391265083" lon="11.132066393208316"><ele>82.0</ele><time>2026-04-16T16:45:30.015Z</time></trkpt><trkpt lat="43.67226610128574" lon="11.132082128908419"><ele>82.0</ele><time>2026-04-16T16:45:33.015Z</time></trkpt><trkpt lat="43.67216332124497" lon="11.132099822589744"><ele>82.0</ele><time>2026-04-16T16:45:36.015Z</time></trkpt><trkpt lat="43.67209281566287" lon="11.132123823184788"><ele>82.0</ele><time>2026-04-16T16:45:38.015Z</time></trkpt><trkpt lat="43.672028434686496" lon="11.132134176955239"><ele>82.0</ele><time>2026-04-16T16:45:40.015Z</time></trkpt><trkpt lat="43.67194604749843" lon="11.132163581478892"><ele>82.33333333333333</ele><time>2026-04-16T16:45:43.015Z</time></trkpt><trkpt lat="43.67187178307348" lon="11.132179503563686"><ele>82.66666666666666</ele><time>2026-04-16T16:45:45.015Z</time></trkpt><trkpt lat="43.671801897508715" lon="11.132208762572334"><ele>83.0</ele><time>2026-04-16T16:45:47.015Z</time></trkpt><trkpt lat="43.67173220355351" lon="11.132238600433716"><ele>83.33333333333333</ele><time>2026-04-16T16:45:49.015Z</time></trkpt><trkpt lat="43.671653203863336" lon="11.13226971944977"><ele>83.66666666666667</ele><time>2026-04-16T16:45:51.015Z</time></trkpt><trkpt lat="43.67157880961843" lon="11.132303447900023"><ele>84.0</ele><time>2026-04-16T16:45:53.015Z</time></trkpt><trkpt lat="43.671512827493586" lon="11.132345870045903"><ele>84.16666666666667</ele><time>2026-04-16T16:45:55.015Z</time></trkpt><trkpt lat="43.67144653154553" lon="11.13239091570071"><ele>84.33333333333333</ele><time>2026-04-16T16:45:57.015Z</time></trkpt><trkpt lat="43.671380981798414" lon="11.13244892035371"><ele>84.5</ele><time>2026-04-16T16:45:59.016Z</time></trkpt><trkpt lat="43.67130302805817" lon="11.132500795647031"><ele>84.66666666666666</ele><time>2026-04-16T16:46:01.016Z</time></trkpt><trkpt lat="43.67121467202004" lon="11.132545498026662"><ele>84.83333333333333</ele><time>2026-04-16T16:46:03.016Z</time></trkpt><trkpt lat="43.671137552942405" lon="11.132615304404446"><ele>85.0</ele><time>2026-04-16T16:46:05.016Z</time></trkpt><trkpt lat="43.67106484103175" lon="11.132688703851905"><ele>85.0</ele><time>2026-04-16T16:46:07.016Z</time></trkpt><trkpt lat="43.67095303416563" lon="11.132799336057971"><ele>85.0</ele><time>2026-04-16T16:46:10.016Z</time></trkpt><trkpt lat="43.67087898781773" lon="11.132860829915089"><ele>85.0</ele><time>2026-04-16T16:46:12.016Z</time></trkpt><trkpt lat="43.67081004527315" lon="11.132912145866445"><ele>85.0</ele><time>2026-04-16T16:46:14.016Z</time></trkpt><trkpt lat="43.670727280596616" lon="11.13297818038775"><ele>85.0</ele><time>2026-04-16T16:46:16.016Z</time></trkpt><trkpt lat="43.67065142992291" lon="11.133044600038353"><ele>85.0</ele><time>2026-04-16T16:46:18.016Z</time></trkpt><trkpt lat="43.67056598668645" lon="11.133128587941345"><ele>85.0</ele><time>2026-04-16T16:46:20.016Z</time></trkpt><trkpt lat="43.67047855869038" lon="11.133220977391598"><ele>85.0</ele><time>2026-04-16T16:46:22.016Z</time></trkpt><trkpt lat="43.67040950817584" lon="11.13331417324464"><ele>85.0</ele><time>2026-04-16T16:46:24.016Z</time></trkpt><trkpt lat="43.67033340824432" lon="11.133400904233536"><ele>85.0</ele><time>2026-04-16T16:46:26.016Z</time></trkpt><trkpt lat="43.67024995946428" lon="11.133472919626783"><ele>85.2</ele><time>2026-04-16T16:46:28.016Z</time></trkpt><trkpt lat="43.6701708106804" lon="11.13355675752362"><ele>85.4</ele><time>2026-04-16T16:46:30.016Z</time></trkpt><trkpt lat="43.67009621336131" lon="11.13365128174663"><ele>85.6</ele><time>2026-04-16T16:46:32.016Z</time></trkpt><trkpt lat="43.67002482940739" lon="11.133728909975185"><ele>85.8</ele><time>2026-04-16T16:46:34.016Z</time></trkpt><trkpt lat="43.669952681841195" lon="11.133806839863917"><ele>86.0</ele><time>2026-04-16T16:46:36.016Z</time></trkpt><trkpt lat="43.66987197455982" lon="11.1338899350051"><ele>86.0</ele><time>2026-04-16T16:46:38.016Z</time></trkpt><trkpt lat="43.66980421400269" lon="11.133974423406276"><ele>86.0</ele><time>2026-04-16T16:46:40.016Z</time></trkpt><trkpt lat="43.66972318502813" lon="11.134052523019808"><ele>86.0</ele><time>2026-04-16T16:46:42.016Z</time></trkpt><trkpt lat="43.669647416254136" lon="11.134125250013044"><ele>86.0</ele><time>2026-04-16T16:46:44.016Z</time></trkpt><trkpt lat="43.66957411257697" lon="11.134200739759299"><ele>86.0</ele><time>2026-04-16T16:46:46.016Z</time></trkpt><trkpt lat="43.669498821000104" lon="11.13427746506141"><ele>86.16666666666667</ele><time>2026-04-16T16:46:48.016Z</time></trkpt><trkpt lat="43.669432359100504" lon="11.134355881329446"><ele>86.33333333333334</ele><time>2026-04-16T16:46:50.016Z</time></trkpt><trkpt lat="43.66936087628855" lon="11.134431757562336"><ele>86.5</ele><time>2026-04-16T16:46:52.016Z</time></trkpt><trkpt lat="43.66928482395025" lon="11.13448844411112"><ele>86.66666666666667</ele><time>2026-04-16T16:46:54.016Z</time></trkpt><trkpt lat="43.66921477686357" lon="11.134552238324567"><ele>86.83333333333333</ele><time>2026-04-16T16:46:56.016Z</time></trkpt><trkpt lat="43.66914462164262" lon="11.134620281886072"><ele>87.0</ele><time>2026-04-16T16:46:58.016Z</time></trkpt><trkpt lat="43.66906986483872" lon="11.13468773669431"><ele>87.0</ele><time>2026-04-16T16:47:00.016Z</time></trkpt><trkpt lat="43.66900914983555" lon="11.134750494516876"><ele>87.0</ele><time>2026-04-16T16:47:02.016Z</time></trkpt><trkpt lat="43.668940545644894" lon="11.13483043299816"><ele>87.0</ele><time>2026-04-16T16:47:04.016Z</time></trkpt><trkpt lat="43.66887120117297" lon="11.134902058987505"><ele>87.0</ele><time>2026-04-16T16:47:06.016Z</time></trkpt><trkpt lat="43.66879949027468" lon="11.134974015518736"><ele>87.0</ele><time>2026-04-16T16:47:08.017Z</time></trkpt><trkpt lat="43.66872622545836" lon="11.135034850355577"><ele>87.0</ele><time>2026-04-16T16:47:10.017Z</time></trkpt><trkpt lat="43.66864452420094" lon="11.135116240309449"><ele>87.0</ele><time>2026-04-16T16:47:12.017Z</time></trkpt><trkpt lat="43.66858518145134" lon="11.13518389991778"><ele>87.0</ele><time>2026-04-16T16:47:14.017Z</time></trkpt><trkpt lat="43.66849481777396" lon="11.13524151209508"><ele>87.0</ele><time>2026-04-16T16:47:16.017Z</time></trkpt><trkpt lat="43.668415369367914" lon="11.13531858372882"><ele>87.0</ele><time>2026-04-16T16:47:18.017Z</time></trkpt><trkpt lat="43.66832932718605" lon="11.135363704179856"><ele>87.0</ele><time>2026-04-16T16:47:20.017Z</time></trkpt><trkpt lat="43.66823909058031" lon="11.135404435762322"><ele>87.0</ele><time>2026-04-16T16:47:22.017Z</time></trkpt><trkpt lat="43.66815641149125" lon="11.13544026965716"><ele>87.0</ele><time>2026-04-16T16:47:24.017Z</time></trkpt><trkpt lat="43.66807383858212" lon="11.135463493335717"><ele>87.0</ele><time>2026-04-16T16:47:26.017Z</time></trkpt><trkpt lat="43.66799682114731" lon="11.135507903639168"><ele>87.0</ele><time>2026-04-16T16:47:28.016Z</time></trkpt><trkpt lat="43.66788902283451" lon="11.135522647718286"><ele>87.0</ele><time>2026-04-16T16:47:30.016Z</time></trkpt><trkpt lat="43.66779758280823" lon="11.135539335403944"><ele>87.16666666666667</ele><time>2026-04-16T16:47:32.016Z</time></trkpt><trkpt lat="43.66771326331712" lon="11.135544731421357"><ele>87.33333333333333</ele><time>2026-04-16T16:47:34.016Z</time></trkpt><trkpt lat="43.667627625986185" lon="11.135544874038162"><ele>87.5</ele><time>2026-04-16T16:47:36.017Z</time></trkpt><trkpt lat="43.66754915417269" lon="11.135559330499897"><ele>87.66666666666666</ele><time>2026-04-16T16:47:38.017Z</time></trkpt><trkpt lat="43.667465385161655" lon="11.135552490190962"><ele>87.83333333333333</ele><time>2026-04-16T16:47:40.017Z</time></trkpt><trkpt lat="43.667398123788324" lon="11.135558153163235"><ele>88.0</ele><time>2026-04-16T16:47:42.017Z</time></trkpt><trkpt lat="43.66731016863559" lon="11.135552321834444"><ele>88.0</ele><time>2026-04-16T16:47:44.017Z</time></trkpt><trkpt lat="43.667229073328954" lon="11.13556485119187"><ele>88.0</ele><time>2026-04-16T16:47:46.017Z</time></trkpt><trkpt lat="43.667146395410576" lon="11.135573376433987"><ele>88.0</ele><time>2026-04-16T16:47:48.017Z</time></trkpt><trkpt lat="43.667071048889106" lon="11.13558848636999"><ele>88.0</ele><time>2026-04-16T16:47:50.017Z</time></trkpt><trkpt lat="43.66699621020161" lon="11.13558294048564"><ele>88.0</ele><time>2026-04-16T16:47:52.017Z</time></trkpt><trkpt lat="43.66691182218489" lon="11.135579134287932"><ele>88.0</ele><time>2026-04-16T16:47:54.017Z</time></trkpt><trkpt lat="43.66681814862777" lon="11.135580528090316"><ele>88.0</ele><time>2026-04-16T16:47:56.017Z</time></trkpt><trkpt lat="43.66673261981357" lon="11.135582232070915"><ele>88.0</ele><time>2026-04-16T16:47:58.017Z</time></trkpt><trkpt lat="43.66664411940248" lon="11.135583587791354"><ele>88.0</ele><time>2026-04-16T16:48:00.017Z</time></trkpt><trkpt lat="43.66656387940543" lon="11.135594732670713"><ele>88.0</ele><time>2026-04-16T16:48:02.017Z</time></trkpt><trkpt lat="43.666486171052554" lon="11.135619861648301"><ele>88.0</ele><time>2026-04-16T16:48:04.017Z</time></trkpt><trkpt lat="43.666409387290386" lon="11.135644599404303"><ele>88.0</ele><time>2026-04-16T16:48:06.017Z</time></trkpt><trkpt lat="43.66634299605815" lon="11.135673788872317"><ele>88.0</ele><time>2026-04-16T16:48:08.017Z</time></trkpt><trkpt lat="43.66627623688703" lon="11.135682194604414"><ele>88.0</ele><time>2026-04-16T16:48:10.017Z</time></trkpt><trkpt lat="43.66620492608002" lon="11.135690764938932"><ele>88.0</ele><time>2026-04-16T16:48:12.017Z</time></trkpt><trkpt lat="43.666135888604636" lon="11.135715070655337"><ele>88.0</ele><time>2026-04-16T16:48:14.017Z</time></trkpt><trkpt lat="43.666072803118226" lon="11.13572199651218"><ele>88.0</ele><time>2026-04-16T16:48:16.017Z</time></trkpt><trkpt lat="43.66600253027837" lon="11.135725802290462"><ele>88.0</ele><time>2026-04-16T16:48:18.017Z</time></trkpt><trkpt lat="43.665904463793886" lon="11.135747852474509"><ele>88.0</ele><time>2026-04-16T16:48:21.017Z</time></trkpt><trkpt lat="43.66583389554052" lon="11.135769877343119"><ele>88.42857142857143</ele><time>2026-04-16T16:48:23.017Z</time></trkpt><trkpt lat="43.66577098958041" lon="11.13579195699869"><ele>88.85714285714286</ele><time>2026-04-16T16:48:25.017Z</time></trkpt><trkpt lat="43.66570485247708" lon="11.135827411237676"><ele>89.28571428571428</ele><time>2026-04-16T16:48:27.017Z</time></trkpt><trkpt lat="43.665642408692065" lon="11.13585215050136"><ele>89.71428571428572</ele><time>2026-04-16T16:48:29.017Z</time></trkpt><trkpt lat="43.665573943506324" lon="11.135877540812503"><ele>90.14285714285714</ele><time>2026-04-16T16:48:31.017Z</time></trkpt><trkpt lat="43.66550456908535" lon="11.135905036840423"><ele>90.57142857142857</ele><time>2026-04-16T16:48:33.017Z</time></trkpt><trkpt lat="43.66543426821531" lon="11.135938537363886"><ele>91.0</ele><time>2026-04-16T16:48:35.017Z</time></trkpt><trkpt lat="43.66535990901215" lon="11.135974543415413"><ele>91.0</ele><time>2026-04-16T16:48:37.017Z</time></trkpt><trkpt lat="43.665290114611246" lon="11.136012672867931"><ele>91.0</ele><time>2026-04-16T16:48:39.017Z</time></trkpt><trkpt lat="43.66521424552014" lon="11.136049233487872"><ele>91.0</ele><time>2026-04-16T16:48:41.018Z</time></trkpt><trkpt lat="43.66515349698245" lon="11.136113402169014"><ele>91.0</ele><time>2026-04-16T16:48:43.018Z</time></trkpt><trkpt lat="43.66508783286435" lon="11.136177646748173"><ele>91.0</ele><time>2026-04-16T16:48:45.018Z</time></trkpt><trkpt lat="43.665018248136924" lon="11.136225212373438"><ele>91.0</ele><time>2026-04-16T16:48:47.018Z</time></trkpt><trkpt lat="43.664949230117806" lon="11.136283713896848"><ele>91.16666666666666</ele><time>2026-04-16T16:48:49.018Z</time></trkpt><trkpt lat="43.66489559383752" lon="11.136362858986736"><ele>91.33333333333333</ele><time>2026-04-16T16:48:51.018Z</time></trkpt><trkpt lat="43.66484212589404" lon="11.136454178219187"><ele>91.5</ele><time>2026-04-16T16:48:53.018Z</time></trkpt><trkpt lat="43.66478085876711" lon="11.136520872550822"><ele>91.66666666666667</ele><time>2026-04-16T16:48:55.018Z</time></trkpt><trkpt lat="43.664723626675546" lon="11.136600346107814"><ele>91.83333333333334</ele><time>2026-04-16T16:48:57.018Z</time></trkpt><trkpt lat="43.66466768160934" lon="11.136679475413352"><ele>92.0</ele><time>2026-04-16T16:48:59.018Z</time></trkpt><trkpt lat="43.66459882550161" lon="11.136743642652256"><ele>91.83333333333334</ele><time>2026-04-16T16:49:01.018Z</time></trkpt><trkpt lat="43.66453511903814" lon="11.136821678134169"><ele>91.66666666666667</ele><time>2026-04-16T16:49:03.018Z</time></trkpt><trkpt lat="43.66446478337653" lon="11.136888115389743"><ele>91.5</ele><time>2026-04-16T16:49:05.018Z</time></trkpt><trkpt lat="43.66440222995146" lon="11.13694728615546"><ele>91.33333333333333</ele><time>2026-04-16T16:49:07.018Z</time></trkpt><trkpt lat="43.66434495947135" lon="11.136985747353133"><ele>91.16666666666666</ele><time>2026-04-16T16:49:09.018Z</time></trkpt><trkpt lat="43.66428682486079" lon="11.137025912798713"><ele>91.0</ele><time>2026-04-16T16:49:11.018Z</time></trkpt><trkpt lat="43.66421764437422" lon="11.137072182747772"><ele>91.0</ele><time>2026-04-16T16:49:14.018Z</time></trkpt><trkpt lat="43.6641613775195" lon="11.137121739012906"><ele>91.0</ele><time>2026-04-16T16:49:16.018Z</time></trkpt><trkpt lat="43.66409309429385" lon="11.137172791770482"><ele>91.0</ele><time>2026-04-16T16:49:19.018Z</time></trkpt><trkpt lat="43.66401633437535" lon="11.137236165270895"><ele>91.0</ele><time>2026-04-16T16:49:22.018Z</time></trkpt><trkpt lat="43.66395576266959" lon="11.137273772026566"><ele>91.0</ele><time>2026-04-16T16:49:24.018Z</time></trkpt><trkpt lat="43.663895574646666" lon="11.137309831463487"><ele>91.0</ele><time>2026-04-16T16:49:26.018Z</time></trkpt><trkpt lat="43.66383271553912" lon="11.137345518279684"><ele>91.0</ele><time>2026-04-16T16:49:28.018Z</time></trkpt><trkpt lat="43.66377061013663" lon="11.137394837999667"><ele>91.0</ele><time>2026-04-16T16:49:30.018Z</time></trkpt><trkpt lat="43.66370784588939" lon="11.137431555012459"><ele>91.0</ele><time>2026-04-16T16:49:32.018Z</time></trkpt><trkpt lat="43.66364737352578" lon="11.137459926292388"><ele>91.0</ele><time>2026-04-16T16:49:34.018Z</time></trkpt><trkpt lat="43.66357992801858" lon="11.13749327706979"><ele>91.0</ele><time>2026-04-16T16:49:36.018Z</time></trkpt><trkpt lat="43.663516386858035" lon="11.137518504129384"><ele>91.0</ele><time>2026-04-16T16:49:38.018Z</time></trkpt><trkpt lat="43.66344845914917" lon="11.137555563671766"><ele>91.0</ele><time>2026-04-16T16:49:40.018Z</time></trkpt><trkpt lat="43.66338632320088" lon="11.137589695773956"><ele>91.0</ele><time>2026-04-16T16:49:42.019Z</time></trkpt><trkpt lat="43.66331962233563" lon="11.137621964345126"><ele>91.16666666666666</ele><time>2026-04-16T16:49:44.018Z</time></trkpt><trkpt lat="43.66324927676228" lon="11.137683013606594"><ele>91.33333333333333</ele><time>2026-04-16T16:49:46.018Z</time></trkpt><trkpt lat="43.663185602140516" lon="11.137744179471854"><ele>91.5</ele><time>2026-04-16T16:49:48.019Z</time></trkpt><trkpt lat="43.66312441059741" lon="11.137800418278493"><ele>91.66666666666667</ele><time>2026-04-16T16:49:50.019Z</time></trkpt><trkpt lat="43.66305695471832" lon="11.137845448920212"><ele>91.83333333333334</ele><time>2026-04-16T16:49:52.019Z</time></trkpt><trkpt lat="43.662992258119964" lon="11.137891924891717"><ele>92.0</ele><time>2026-04-16T16:49:54.019Z</time></trkpt><trkpt lat="43.66292338029469" lon="11.137947059962789"><ele>92.0</ele><time>2026-04-16T16:49:56.019Z</time></trkpt><trkpt lat="43.662851705005004" lon="11.137996430965966"><ele>92.0</ele><time>2026-04-16T16:49:58.019Z</time></trkpt><trkpt lat="43.662786133910686" lon="11.138058724872527"><ele>92.0</ele><time>2026-04-16T16:50:00.019Z</time></trkpt><trkpt lat="43.662715500632494" lon="11.138121581311623"><ele>92.0</ele><time>2026-04-16T16:50:02.019Z</time></trkpt><trkpt lat="43.66263663433083" lon="11.13817140891715"><ele>92.0</ele><time>2026-04-16T16:50:04.019Z</time></trkpt><trkpt lat="43.66255895554589" lon="11.138230855112155"><ele>92.0</ele><time>2026-04-16T16:50:06.019Z</time></trkpt><trkpt lat="43.6624811236562" lon="11.138291795936258"><ele>92.0</ele><time>2026-04-16T16:50:08.019Z</time></trkpt><trkpt lat="43.662397680911866" lon="11.138345549813108"><ele>92.0</ele><time>2026-04-16T16:50:10.019Z</time></trkpt><trkpt lat="43.66232614296389" lon="11.138413566348857"><ele>92.0</ele><time>2026-04-16T16:50:12.019Z</time></trkpt><trkpt lat="43.662249702046104" lon="11.13847778312413"><ele>92.0</ele><time>2026-04-16T16:50:14.019Z</time></trkpt><trkpt lat="43.662174139085316" lon="11.138537812008982"><ele>92.0</ele><time>2026-04-16T16:50:16.019Z</time></trkpt><trkpt lat="43.66210827870187" lon="11.138609239789176"><ele>92.0</ele><time>2026-04-16T16:50:18.019Z</time></trkpt><trkpt lat="43.66204057944078" lon="11.138680613718249"><ele>92.0</ele><time>2026-04-16T16:50:20.019Z</time></trkpt><trkpt lat="43.66197252910869" lon="11.138753648508713"><ele>92.0</ele><time>2026-04-16T16:50:22.019Z</time></trkpt><trkpt lat="43.661899551596484" lon="11.138828106796588"><ele>92.0</ele><time>2026-04-16T16:50:24.019Z</time></trkpt><trkpt lat="43.66182268719782" lon="11.138887788346151"><ele>92.0</ele><time>2026-04-16T16:50:26.019Z</time></trkpt><trkpt lat="43.66175614205123" lon="11.138968944154245"><ele>92.0</ele><time>2026-04-16T16:50:28.019Z</time></trkpt><trkpt lat="43.66167797793495" lon="11.139031869740254"><ele>92.0</ele><time>2026-04-16T16:50:30.019Z</time></trkpt><trkpt lat="43.66160705105466" lon="11.13910573785769"><ele>91.83333333333334</ele><time>2026-04-16T16:50:32.019Z</time></trkpt><trkpt lat="43.66153456346944" lon="11.139176589339458"><ele>91.66666666666667</ele><time>2026-04-16T16:50:34.019Z</time></trkpt><trkpt lat="43.6614659274909" lon="11.139248004041493"><ele>91.5</ele><time>2026-04-16T16:50:36.019Z</time></trkpt><trkpt lat="43.661398385687704" lon="11.139325636067515"><ele>91.33333333333333</ele><time>2026-04-16T16:50:38.019Z</time></trkpt><trkpt lat="43.66133124630984" lon="11.13939540094726"><ele>91.16666666666666</ele><time>2026-04-16T16:50:40.019Z</time></trkpt><trkpt lat="43.66126257049216" lon="11.13946825168486"><ele>91.0</ele><time>2026-04-16T16:50:42.019Z</time></trkpt><trkpt lat="43.66120385091971" lon="11.139553076371428"><ele>91.0</ele><time>2026-04-16T16:50:44.019Z</time></trkpt><trkpt lat="43.66113147485729" lon="11.13963890951318"><ele>91.0</ele><time>2026-04-16T16:50:46.019Z</time></trkpt><trkpt lat="43.66105748008422" lon="11.139712733033429"><ele>91.0</ele><time>2026-04-16T16:50:48.019Z</time></trkpt><trkpt lat="43.66100864844821" lon="11.139805213375691"><ele>91.0</ele><time>2026-04-16T16:50:50.019Z</time></trkpt><trkpt lat="43.66098242379693" lon="11.139931531321741"><ele>91.0</ele><time>2026-04-16T16:50:52.019Z</time></trkpt><trkpt lat="43.66098053851508" lon="11.140052490862857"><ele>91.6</ele><time>2026-04-16T16:50:54.019Z</time></trkpt><trkpt lat="43.66096431564431" lon="11.140173234429238"><ele>92.19999999999999</ele><time>2026-04-16T16:50:56.02Z</time></trkpt><trkpt lat="43.66093305079696" lon="11.140293249757635"><ele>92.80000000000001</ele><time>2026-04-16T16:50:58.02Z</time></trkpt><trkpt lat="43.660889749683676" lon="11.140398585548905"><ele>93.4</ele><time>2026-04-16T16:51:00.02Z</time></trkpt><trkpt lat="43.660868583702275" lon="11.140524549026837"><ele>94.0</ele><time>2026-04-16T16:51:02.02Z</time></trkpt><trkpt lat="43.660846873347566" lon="11.140644861867909"><ele>94.2</ele><time>2026-04-16T16:51:04.02Z</time></trkpt><trkpt lat="43.66080994620417" lon="11.14077075576732"><ele>94.4</ele><time>2026-04-16T16:51:06.02Z</time></trkpt><trkpt lat="43.660758889443386" lon="11.14088461908124"><ele>94.6</ele><time>2026-04-16T16:51:08.02Z</time></trkpt><trkpt lat="43.66070510088696" lon="11.140985720912989"><ele>94.8</ele><time>2026-04-16T16:51:10.02Z</time></trkpt><trkpt lat="43.66062990703348" lon="11.141074813174095"><ele>95.0</ele><time>2026-04-16T16:51:12.02Z</time></trkpt><trkpt lat="43.66055277555911" lon="11.14116760286159"><ele>95.0</ele><time>2026-04-16T16:51:14.02Z</time></trkpt><trkpt lat="43.66046795643955" lon="11.141257236199202"><ele>95.0</ele><time>2026-04-16T16:51:16.02Z</time></trkpt><trkpt lat="43.66039680456131" lon="11.141325050807628"><ele>95.0</ele><time>2026-04-16T16:51:18.02Z</time></trkpt><trkpt lat="43.660328856125275" lon="11.141403667063358"><ele>95.0</ele><time>2026-04-16T16:51:20.02Z</time></trkpt><trkpt lat="43.66027386991596" lon="11.141488122758847"><ele>95.0</ele><time>2026-04-16T16:51:22.02Z</time></trkpt><trkpt lat="43.660213789180766" lon="11.141566817238871"><ele>95.0</ele><time>2026-04-16T16:51:24.02Z</time></trkpt><trkpt lat="43.660157851942" lon="11.141636577554635"><ele>95.16666666666667</ele><time>2026-04-16T16:51:26.02Z</time></trkpt><trkpt lat="43.66010002480251" lon="11.141723277645815"><ele>95.33333333333334</ele><time>2026-04-16T16:51:28.02Z</time></trkpt><trkpt lat="43.660050397248746" lon="11.141812083898666"><ele>95.5</ele><time>2026-04-16T16:51:30.02Z</time></trkpt><trkpt lat="43.65999394621648" lon="11.141891582337662"><ele>95.66666666666667</ele><time>2026-04-16T16:51:32.02Z</time></trkpt><trkpt lat="43.65994675787547" lon="11.141978630895043"><ele>95.83333333333333</ele><time>2026-04-16T16:51:34.02Z</time></trkpt><trkpt lat="43.65989224589858" lon="11.14205510476936"><ele>96.0</ele><time>2026-04-16T16:51:36.02Z</time></trkpt><trkpt lat="43.65984187398606" lon="11.142124412790837"><ele>96.0</ele><time>2026-04-16T16:51:38.02Z</time></trkpt><trkpt lat="43.6597850026541" lon="11.142202928732676"><ele>96.0</ele><time>2026-04-16T16:51:40.02Z</time></trkpt><trkpt lat="43.65972085819148" lon="11.1422711517199"><ele>96.0</ele><time>2026-04-16T16:51:42.02Z</time></trkpt><trkpt lat="43.65965767442075" lon="11.142339772440721"><ele>96.0</ele><time>2026-04-16T16:51:44.02Z</time></trkpt><trkpt lat="43.65959361266116" lon="11.142396231413027"><ele>96.0</ele><time>2026-04-16T16:51:46.019Z</time></trkpt><trkpt lat="43.65954056352835" lon="11.142454202302332"><ele>96.0</ele><time>2026-04-16T16:51:48.02Z</time></trkpt><trkpt lat="43.659479256315045" lon="11.142513128724254"><ele>95.83333333333333</ele><time>2026-04-16T16:51:50.02Z</time></trkpt><trkpt lat="43.65941680813502" lon="11.142572391714886"><ele>95.66666666666667</ele><time>2026-04-16T16:51:52.019Z</time></trkpt><trkpt lat="43.65935344354212" lon="11.142634139845029"><ele>95.5</ele><time>2026-04-16T16:51:54.019Z</time></trkpt><trkpt lat="43.65928966014895" lon="11.142707354574425"><ele>95.33333333333334</ele><time>2026-04-16T16:51:56.019Z</time></trkpt><trkpt lat="43.659223695214955" lon="11.142777809900398"><ele>95.16666666666667</ele><time>2026-04-16T16:51:58.019Z</time></trkpt><trkpt lat="43.65916437209261" lon="11.142864248571323"><ele>95.0</ele><time>2026-04-16T16:52:00.019Z</time></trkpt><trkpt lat="43.65910332836289" lon="11.142947618182784"><ele>95.0</ele><time>2026-04-16T16:52:02.019Z</time></trkpt><trkpt lat="43.65904434161242" lon="11.143025446660015"><ele>95.0</ele><time>2026-04-16T16:52:04.019Z</time></trkpt><trkpt lat="43.65898360454217" lon="11.143097073146397"><ele>95.0</ele><time>2026-04-16T16:52:06.019Z</time></trkpt><trkpt lat="43.65892534108692" lon="11.143169164978957"><ele>95.0</ele><time>2026-04-16T16:52:08.019Z</time></trkpt><trkpt lat="43.65886707985957" lon="11.143234673497425"><ele>95.0</ele><time>2026-04-16T16:52:10.019Z</time></trkpt><trkpt lat="43.6588029443732" lon="11.143290664566335"><ele>95.0</ele><time>2026-04-16T16:52:12.019Z</time></trkpt><trkpt lat="43.65872812865885" lon="11.143344113888354"><ele>95.33333333333334</ele><time>2026-04-16T16:52:14.02Z</time></trkpt><trkpt lat="43.65865315862532" lon="11.143383618884531"><ele>95.66666666666667</ele><time>2026-04-16T16:52:16.02Z</time></trkpt><trkpt lat="43.65858158734129" lon="11.14342031820711"><ele>96.0</ele><time>2026-04-16T16:52:18.02Z</time></trkpt><trkpt lat="43.658512311635775" lon="11.143479023304232"><ele>96.33333333333334</ele><time>2026-04-16T16:52:20.02Z</time></trkpt><trkpt lat="43.65844933825917" lon="11.143534422574366"><ele>96.66666666666667</ele><time>2026-04-16T16:52:22.02Z</time></trkpt><trkpt lat="43.65840280675779" lon="11.143646919791765"><ele>97.0</ele><time>2026-04-16T16:52:24.02Z</time></trkpt><trkpt lat="43.658351692242725" lon="11.143743851474998"><ele>97.16666666666667</ele><time>2026-04-16T16:52:26.02Z</time></trkpt><trkpt lat="43.65829407012474" lon="11.143823336199123"><ele>97.33333333333334</ele><time>2026-04-16T16:52:28.02Z</time></trkpt><trkpt lat="43.65823318278496" lon="11.14392302987936"><ele>97.5</ele><time>2026-04-16T16:52:30.02Z</time></trkpt><trkpt lat="43.658174990802834" lon="11.144014180359981"><ele>97.66666666666666</ele><time>2026-04-16T16:52:32.02Z</time></trkpt><trkpt lat="43.658108796373206" lon="11.144091593691924"><ele>97.83333333333333</ele><time>2026-04-16T16:52:34.02Z</time></trkpt><trkpt lat="43.658045276436425" lon="11.14417184915731"><ele>98.0</ele><time>2026-04-16T16:52:36.02Z</time></trkpt><trkpt lat="43.657987172601466" lon="11.14423983282414"><ele>97.99999999999999</ele><time>2026-04-16T16:52:38.02Z</time></trkpt><trkpt lat="43.657932065029456" lon="11.144295230850584"><ele>98.0</ele><time>2026-04-16T16:52:40.02Z</time></trkpt><trkpt lat="43.65787339164918" lon="11.14435573417232"><ele>98.0</ele><time>2026-04-16T16:52:42.02Z</time></trkpt><trkpt lat="43.65780510135844" lon="11.144417895437908"><ele>98.0</ele><time>2026-04-16T16:52:44.02Z</time></trkpt><trkpt lat="43.657744006296056" lon="11.14449250915086"><ele>97.99999999999999</ele><time>2026-04-16T16:52:46.02Z</time></trkpt><trkpt lat="43.657694942372764" lon="11.14457867260814"><ele>98.0</ele><time>2026-04-16T16:52:48.02Z</time></trkpt><trkpt lat="43.65763786963067" lon="11.144660054947026"><ele>97.99999999999999</ele><time>2026-04-16T16:52:50.02Z</time></trkpt><trkpt lat="43.6575820484815" lon="11.144725648202991"><ele>98.0</ele><time>2026-04-16T16:52:52.02Z</time></trkpt><trkpt lat="43.65752631836297" lon="11.144806969507236"><ele>98.0</ele><time>2026-04-16T16:52:54.02Z</time></trkpt><trkpt lat="43.6575083160312" lon="11.144912067857462"><ele>98.0</ele><time>2026-04-16T16:52:56.02Z</time></trkpt><trkpt lat="43.65748035484726" lon="11.145016445264506"><ele>97.99999999999999</ele><time>2026-04-16T16:52:58.02Z</time></trkpt><trkpt lat="43.65744644897693" lon="11.145115347170556"><ele>98.0</ele><time>2026-04-16T16:53:00.02Z</time></trkpt><trkpt lat="43.65741694693425" lon="11.14521955166257"><ele>97.99999999999999</ele><time>2026-04-16T16:53:02.02Z</time></trkpt><trkpt lat="43.65736241183504" lon="11.145302818485858"><ele>98.0</ele><time>2026-04-16T16:53:04.02Z</time></trkpt><trkpt lat="43.65732639174836" lon="11.145391964909798"><ele>98.0</ele><time>2026-04-16T16:53:06.02Z</time></trkpt><trkpt lat="43.65731771295679" lon="11.14552442098308"><ele>98.0</ele><time>2026-04-16T16:53:08.02Z</time></trkpt><trkpt lat="43.65733085579511" lon="11.145638724454319"><ele>97.99999999999999</ele><time>2026-04-16T16:53:10.02Z</time></trkpt><trkpt lat="43.65732245207109" lon="11.14575747624302"><ele>98.0</ele><time>2026-04-16T16:53:12.02Z</time></trkpt><trkpt lat="43.65731599633794" lon="11.145870075050377"><ele>97.99999999999999</ele><time>2026-04-16T16:53:14.02Z</time></trkpt><trkpt lat="43.65730857482177" lon="11.145981031502425"><ele>98.0</ele><time>2026-04-16T16:53:16.02Z</time></trkpt><trkpt lat="43.657294859906834" lon="11.146083716945062"><ele>98.0</ele><time>2026-04-16T16:53:18.02Z</time></trkpt><trkpt lat="43.65728124392239" lon="11.14618015555706"><ele>98.0</ele><time>2026-04-16T16:53:20.02Z</time></trkpt><trkpt lat="43.657259000614765" lon="11.146279419787207"><ele>97.99999999999999</ele><time>2026-04-16T16:53:22.021Z</time></trkpt><trkpt lat="43.65722477533688" lon="11.146373265686101"><ele>98.0</ele><time>2026-04-16T16:53:24.021Z</time></trkpt><trkpt lat="43.65719869372531" lon="11.146469000541833"><ele>97.99999999999999</ele><time>2026-04-16T16:53:26.021Z</time></trkpt><trkpt lat="43.65717879606664" lon="11.146565807393248"><ele>98.0</ele><time>2026-04-16T16:53:28.021Z</time></trkpt><trkpt lat="43.65715811488682" lon="11.146664902615244"><ele>98.0</ele><time>2026-04-16T16:53:30.021Z</time></trkpt><trkpt lat="43.65714169073959" lon="11.146761523063855"><ele>98.0</ele><time>2026-04-16T16:53:32.021Z</time></trkpt><trkpt lat="43.65712134441817" lon="11.146848701297444"><ele>97.99999999999999</ele><time>2026-04-16T16:53:34.021Z</time></trkpt><trkpt lat="43.65710112799523" lon="11.146984905347248"><ele>98.0</ele><time>2026-04-16T16:53:37.021Z</time></trkpt><trkpt lat="43.657088614621614" lon="11.147092539231112"><ele>97.99999999999999</ele><time>2026-04-16T16:53:39.021Z</time></trkpt><trkpt lat="43.657073058040766" lon="11.147209952518166"><ele>98.0</ele><time>2026-04-16T16:53:41.021Z</time></trkpt><trkpt lat="43.657063183862896" lon="11.147327681616433"><ele>98.0</ele><time>2026-04-16T16:53:43.021Z</time></trkpt><trkpt lat="43.65703817464185" lon="11.147427898991786"><ele>98.0</ele><time>2026-04-16T16:53:45.021Z</time></trkpt><trkpt lat="43.657009530335934" lon="11.14752727505289"><ele>97.99999999999999</ele><time>2026-04-16T16:53:47.021Z</time></trkpt><trkpt lat="43.656994438195035" lon="11.147645966601605"><ele>98.0</ele><time>2026-04-16T16:53:49.021Z</time></trkpt><trkpt lat="43.65697430193346" lon="11.147763077808058"><ele>97.99999999999999</ele><time>2026-04-16T16:53:51.021Z</time></trkpt><trkpt lat="43.65696164327677" lon="11.147875732923275"><ele>98.0</ele><time>2026-04-16T16:53:53.021Z</time></trkpt><trkpt lat="43.65693629803026" lon="11.147980960975014"><ele>98.0</ele><time>2026-04-16T16:53:55.02Z</time></trkpt><trkpt lat="43.65690169934206" lon="11.148086678502068"><ele>98.0</ele><time>2026-04-16T16:53:57.022Z</time></trkpt><trkpt lat="43.656848247649904" lon="11.148177860498375"><ele>97.99999999999999</ele><time>2026-04-16T16:53:59.021Z</time></trkpt><trkpt lat="43.65678846582348" lon="11.148249533030963"><ele>98.0</ele><time>2026-04-16T16:54:01.021Z</time></trkpt><trkpt lat="43.656737686110894" lon="11.148324836000873"><ele>98.16666666666666</ele><time>2026-04-16T16:54:03.021Z</time></trkpt><trkpt lat="43.65668293584955" lon="11.148394277811171"><ele>98.33333333333333</ele><time>2026-04-16T16:54:05.021Z</time></trkpt><trkpt lat="43.65661832172667" lon="11.148463254211721"><ele>98.5</ele><time>2026-04-16T16:54:07.021Z</time></trkpt><trkpt lat="43.65655460800152" lon="11.148524827994072"><ele>98.66666666666666</ele><time>2026-04-16T16:54:09.021Z</time></trkpt><trkpt lat="43.65649399377525" lon="11.148604995764657"><ele>98.83333333333333</ele><time>2026-04-16T16:54:11.021Z</time></trkpt><trkpt lat="43.65644069023834" lon="11.148673901173275"><ele>99.0</ele><time>2026-04-16T16:54:13.021Z</time></trkpt><trkpt lat="43.65638503338715" lon="11.148746512137079"><ele>99.0</ele><time>2026-04-16T16:54:15.021Z</time></trkpt><trkpt lat="43.656332530025324" lon="11.148832351958808"><ele>99.0</ele><time>2026-04-16T16:54:17.021Z</time></trkpt><trkpt lat="43.656283658850754" lon="11.148918993666518"><ele>99.0</ele><time>2026-04-16T16:54:19.021Z</time></trkpt><trkpt lat="43.65621022249624" lon="11.148964062881085"><ele>99.0</ele><time>2026-04-16T16:54:21.021Z</time></trkpt><trkpt lat="43.65614931604491" lon="11.14901989993299"><ele>99.0</ele><time>2026-04-16T16:54:23.021Z</time></trkpt><trkpt lat="43.656087090365745" lon="11.149079601941656"><ele>99.0</ele><time>2026-04-16T16:54:25.021Z</time></trkpt><trkpt lat="43.65602194351781" lon="11.149142874182646"><ele>99.0</ele><time>2026-04-16T16:54:27.021Z</time></trkpt><trkpt lat="43.655965881763656" lon="11.14920853674768"><ele>99.0</ele><time>2026-04-16T16:54:29.021Z</time></trkpt><trkpt lat="43.65591059551389" lon="11.14928148670567"><ele>99.0</ele><time>2026-04-16T16:54:31.021Z</time></trkpt><trkpt lat="43.65584981510875" lon="11.149340885729814"><ele>99.0</ele><time>2026-04-16T16:54:33.021Z</time></trkpt><trkpt lat="43.65579029032011" lon="11.14939568271082"><ele>99.0</ele><time>2026-04-16T16:54:35.021Z</time></trkpt><trkpt lat="43.65572990671024" lon="11.149457567618306"><ele>99.0</ele><time>2026-04-16T16:54:37.021Z</time></trkpt><trkpt lat="43.65566398183044" lon="11.149514852512532"><ele>99.0</ele><time>2026-04-16T16:54:39.021Z</time></trkpt><trkpt lat="43.655601369830485" lon="11.149597026471524"><ele>99.0</ele><time>2026-04-16T16:54:41.021Z</time></trkpt><trkpt lat="43.65553796419703" lon="11.149662991681685"><ele>99.0</ele><time>2026-04-16T16:54:43.021Z</time></trkpt><trkpt lat="43.655464893062586" lon="11.149730172122752"><ele>99.0</ele><time>2026-04-16T16:54:45.022Z</time></trkpt><trkpt lat="43.65540349538721" lon="11.14978370242305"><ele>99.0</ele><time>2026-04-16T16:54:47.022Z</time></trkpt><trkpt lat="43.65534295925627" lon="11.149865050403694"><ele>99.0</ele><time>2026-04-16T16:54:49.022Z</time></trkpt><trkpt lat="43.655295860902484" lon="11.149943081582801"><ele>99.0</ele><time>2026-04-16T16:54:51.022Z</time></trkpt><trkpt lat="43.65523806271582" lon="11.150006262899693"><ele>99.5</ele><time>2026-04-16T16:54:53.022Z</time></trkpt><trkpt lat="43.655171720648895" lon="11.150061720772962"><ele>100.0</ele><time>2026-04-16T16:54:55.022Z</time></trkpt><trkpt lat="43.65513869763886" lon="11.150170803749042"><ele>100.5</ele><time>2026-04-16T16:54:57.022Z</time></trkpt><trkpt lat="43.65507757502235" lon="11.15025364180888"><ele>101.0</ele><time>2026-04-16T16:54:59.022Z</time></trkpt><trkpt lat="43.65501488529471" lon="11.150305407285812"><ele>101.5</ele><time>2026-04-16T16:55:01.022Z</time></trkpt><trkpt lat="43.654959901018216" lon="11.15037214681749"><ele>102.0</ele><time>2026-04-16T16:55:03.022Z</time></trkpt><trkpt lat="43.654897847846684" lon="11.1504498071818"><ele>102.0</ele><time>2026-04-16T16:55:05.022Z</time></trkpt><trkpt lat="43.654836468479076" lon="11.150512926326261"><ele>102.0</ele><time>2026-04-16T16:55:07.022Z</time></trkpt><trkpt lat="43.654784842265144" lon="11.150588424974824"><ele>102.0</ele><time>2026-04-16T16:55:09.022Z</time></trkpt><trkpt lat="43.65472635449497" lon="11.150661720501196"><ele>102.0</ele><time>2026-04-16T16:55:11.022Z</time></trkpt><trkpt lat="43.65465669412626" lon="11.150717960408409"><ele>102.0</ele><time>2026-04-16T16:55:13.022Z</time></trkpt><trkpt lat="43.654602343663534" lon="11.150789348191292"><ele>102.0</ele><time>2026-04-16T16:55:15.022Z</time></trkpt><trkpt lat="43.654541890920626" lon="11.150870493431094"><ele>102.0</ele><time>2026-04-16T16:55:17.022Z</time></trkpt><trkpt lat="43.654476445254744" lon="11.150909344562356"><ele>102.0</ele><time>2026-04-16T16:55:19.022Z</time></trkpt><trkpt lat="43.65441509188737" lon="11.150954553274026"><ele>102.0</ele><time>2026-04-16T16:55:21.022Z</time></trkpt><trkpt lat="43.65435689514564" lon="11.151011833508711"><ele>102.0</ele><time>2026-04-16T16:55:23.022Z</time></trkpt><trkpt lat="43.6543005181325" lon="11.15109293361382"><ele>102.0</ele><time>2026-04-16T16:55:26.022Z</time></trkpt><trkpt lat="43.65424655794902" lon="11.151189103069042"><ele>102.0</ele><time>2026-04-16T16:55:29.022Z</time></trkpt><trkpt lat="43.65420338544184" lon="11.151263014624332"><ele>102.0</ele><time>2026-04-16T16:55:31.022Z</time></trkpt><trkpt lat="43.65416271504898" lon="11.151347031679915"><ele>102.0</ele><time>2026-04-16T16:55:33.022Z</time></trkpt><trkpt lat="43.654123297927114" lon="11.151420095975935"><ele>102.0</ele><time>2026-04-16T16:55:35.022Z</time></trkpt><trkpt lat="43.654068495749016" lon="11.15150793277254"><ele>102.0</ele><time>2026-04-16T16:55:38.022Z</time></trkpt><trkpt lat="43.65402832012264" lon="11.151628515731844"><ele>102.0</ele><time>2026-04-16T16:55:41.022Z</time></trkpt><trkpt lat="43.653984376408495" lon="11.151704567886798"><ele>102.0</ele><time>2026-04-16T16:55:43.022Z</time></trkpt><trkpt lat="43.65394303507703" lon="11.15178494622018"><ele>102.0</ele><time>2026-04-16T16:55:45.022Z</time></trkpt><trkpt lat="43.65389701524765" lon="11.151869119955316"><ele>102.0</ele><time>2026-04-16T16:55:47.022Z</time></trkpt><trkpt lat="43.65385111182053" lon="11.15194868914358"><ele>102.0</ele><time>2026-04-16T16:55:49.022Z</time></trkpt><trkpt lat="43.65380651394197" lon="11.152032802808074"><ele>102.0</ele><time>2026-04-16T16:55:51.022Z</time></trkpt><trkpt lat="43.653764644488284" lon="11.152114782716437"><ele>102.0</ele><time>2026-04-16T16:55:53.022Z</time></trkpt><trkpt lat="43.65371263914547" lon="11.152196226679568"><ele>102.0</ele><time>2026-04-16T16:55:55.022Z</time></trkpt><trkpt lat="43.65366176809428" lon="11.152277772242913"><ele>102.16666666666667</ele><time>2026-04-16T16:55:57.023Z</time></trkpt><trkpt lat="43.65361240047741" lon="11.15235580320364"><ele>102.33333333333334</ele><time>2026-04-16T16:55:59.022Z</time></trkpt><trkpt lat="43.65355971181776" lon="11.152440081779948"><ele>102.5</ele><time>2026-04-16T16:56:01.022Z</time></trkpt><trkpt lat="43.65350110712967" lon="11.152519272221719"><ele>102.66666666666667</ele><time>2026-04-16T16:56:03.023Z</time></trkpt><trkpt lat="43.65344983706607" lon="11.152603928879955"><ele>102.83333333333334</ele><time>2026-04-16T16:56:05.022Z</time></trkpt><trkpt lat="43.65339964153761" lon="11.152693123964601"><ele>103.0</ele><time>2026-04-16T16:56:07.022Z</time></trkpt><trkpt lat="43.653339935253186" lon="11.152773336183946"><ele>103.00000000000001</ele><time>2026-04-16T16:56:09.022Z</time></trkpt><trkpt lat="43.65329169902405" lon="11.152860435003086"><ele>103.0</ele><time>2026-04-16T16:56:11.022Z</time></trkpt><trkpt lat="43.653247560328076" lon="11.152950842467918"><ele>103.0</ele><time>2026-04-16T16:56:13.022Z</time></trkpt><trkpt lat="43.65320396033096" lon="11.153047391425059"><ele>103.0</ele><time>2026-04-16T16:56:15.022Z</time></trkpt><trkpt lat="43.65316418618148" lon="11.153144189627586"><ele>103.00000000000001</ele><time>2026-04-16T16:56:17.022Z</time></trkpt><trkpt lat="43.65313281115064" lon="11.153246836201635"><ele>103.0</ele><time>2026-04-16T16:56:19.022Z</time></trkpt><trkpt lat="43.65310769207603" lon="11.153356097967647"><ele>103.00000000000001</ele><time>2026-04-16T16:56:21.022Z</time></trkpt><trkpt lat="43.65308350897495" lon="11.153469001234395"><ele>103.0</ele><time>2026-04-16T16:56:23.022Z</time></trkpt><trkpt lat="43.6530505215498" lon="11.153572421197062"><ele>103.0</ele><time>2026-04-16T16:56:25.022Z</time></trkpt><trkpt lat="43.65300955461265" lon="11.153671474936"><ele>103.0</ele><time>2026-04-16T16:56:27.022Z</time></trkpt><trkpt lat="43.652959181171774" lon="11.153759182702847"><ele>103.00000000000001</ele><time>2026-04-16T16:56:29.022Z</time></trkpt><trkpt lat="43.65290506801918" lon="11.153839342874507"><ele>103.0</ele><time>2026-04-16T16:56:31.022Z</time></trkpt><trkpt lat="43.652849717968905" lon="11.153918274991176"><ele>103.00000000000001</ele><time>2026-04-16T16:56:33.022Z</time></trkpt><trkpt lat="43.65279003586293" lon="11.153985185553427"><ele>103.0</ele><time>2026-04-16T16:56:35.022Z</time></trkpt><trkpt lat="43.65272521528184" lon="11.154031097273656"><ele>103.0</ele><time>2026-04-16T16:56:37.022Z</time></trkpt><trkpt lat="43.6526616248757" lon="11.154089732624533"><ele>103.0</ele><time>2026-04-16T16:56:39.022Z</time></trkpt><trkpt lat="43.652596245303876" lon="11.154150043294418"><ele>103.00000000000001</ele><time>2026-04-16T16:56:41.022Z</time></trkpt><trkpt lat="43.652527779209414" lon="11.154199086863837"><ele>103.0</ele><time>2026-04-16T16:56:43.022Z</time></trkpt><trkpt lat="43.65245841226062" lon="11.154248482995955"><ele>103.42857142857142</ele><time>2026-04-16T16:56:45.022Z</time></trkpt><trkpt lat="43.652401979962086" lon="11.154300088415729"><ele>103.85714285714286</ele><time>2026-04-16T16:56:47.022Z</time></trkpt><trkpt lat="43.65234816789435" lon="11.154366274609313"><ele>104.28571428571428</ele><time>2026-04-16T16:56:49.023Z</time></trkpt><trkpt lat="43.65229476651644" lon="11.154442468442063"><ele>104.71428571428571</ele><time>2026-04-16T16:56:51.023Z</time></trkpt><trkpt lat="43.65224820373092" lon="11.154520797990848"><ele>105.14285714285714</ele><time>2026-04-16T16:56:53.023Z</time></trkpt><trkpt lat="43.652211922072006" lon="11.154612438271254"><ele>105.57142857142857</ele><time>2026-04-16T16:56:55.023Z</time></trkpt><trkpt lat="43.65218906916858" lon="11.154710021564266"><ele>106.0</ele><time>2026-04-16T16:56:57.023Z</time></trkpt><trkpt lat="43.652151066404834" lon="11.154806457110704"><ele>106.00000000000001</ele><time>2026-04-16T16:56:59.023Z</time></trkpt><trkpt lat="43.6521086981361" lon="11.154905827356192"><ele>106.0</ele><time>2026-04-16T16:57:01.023Z</time></trkpt><trkpt lat="43.65205685670094" lon="11.154999732799276"><ele>106.0</ele><time>2026-04-16T16:57:03.023Z</time></trkpt><trkpt lat="43.65200427129051" lon="11.155085405243533"><ele>106.0</ele><time>2026-04-16T16:57:05.023Z</time></trkpt><trkpt lat="43.6519457275682" lon="11.15516226645754"><ele>106.00000000000001</ele><time>2026-04-16T16:57:07.023Z</time></trkpt><trkpt lat="43.651881757746764" lon="11.155224109223589"><ele>106.0</ele><time>2026-04-16T16:57:09.023Z</time></trkpt><trkpt lat="43.65181519431657" lon="11.155291294283112"><ele>106.00000000000001</ele><time>2026-04-16T16:57:11.023Z</time></trkpt><trkpt lat="43.651748694833586" lon="11.155366337981867"><ele>106.0</ele><time>2026-04-16T16:57:13.023Z</time></trkpt><trkpt lat="43.65168474375741" lon="11.155425896262042"><ele>106.0</ele><time>2026-04-16T16:57:15.023Z</time></trkpt><trkpt lat="43.651615032616796" lon="11.15548761491657"><ele>106.0</ele><time>2026-04-16T16:57:17.023Z</time></trkpt><trkpt lat="43.651541343254415" lon="11.155547592639548"><ele>106.00000000000001</ele><time>2026-04-16T16:57:19.023Z</time></trkpt><trkpt lat="43.65148338034197" lon="11.155616853160314"><ele>106.0</ele><time>2026-04-16T16:57:21.023Z</time></trkpt><trkpt lat="43.651410495268195" lon="11.155675157034322"><ele>106.16666666666667</ele><time>2026-04-16T16:57:23.023Z</time></trkpt><trkpt lat="43.65134346397961" lon="11.155741078762487"><ele>106.33333333333334</ele><time>2026-04-16T16:57:25.023Z</time></trkpt><trkpt lat="43.65128304666955" lon="11.15580762379566"><ele>106.5</ele><time>2026-04-16T16:57:27.023Z</time></trkpt><trkpt lat="43.6512359101402" lon="11.155887125626485"><ele>106.66666666666666</ele><time>2026-04-16T16:57:29.023Z</time></trkpt><trkpt lat="43.65120010905984" lon="11.15598404627422"><ele>106.83333333333333</ele><time>2026-04-16T16:57:31.023Z</time></trkpt><trkpt lat="43.65115758383919" lon="11.156081793324804"><ele>107.0</ele><time>2026-04-16T16:57:33.023Z</time></trkpt><trkpt lat="43.651125330677765" lon="11.15618273605733"><ele>106.83333333333333</ele><time>2026-04-16T16:57:35.023Z</time></trkpt><trkpt lat="43.65108661542696" lon="11.156274813638108"><ele>106.66666666666666</ele><time>2026-04-16T16:57:37.023Z</time></trkpt><trkpt lat="43.65104827346557" lon="11.156365504784205"><ele>106.5</ele><time>2026-04-16T16:57:39.023Z</time></trkpt><trkpt lat="43.65101368600029" lon="11.15645418710482"><ele>106.33333333333334</ele><time>2026-04-16T16:57:41.023Z</time></trkpt><trkpt lat="43.65096141721813" lon="11.156538288793849"><ele>106.16666666666667</ele><time>2026-04-16T16:57:43.023Z</time></trkpt><trkpt lat="43.65091573950858" lon="11.156632586485767"><ele>106.0</ele><time>2026-04-16T16:57:45.023Z</time></trkpt><trkpt lat="43.65086065009011" lon="11.156713161214155"><ele>106.00000000000001</ele><time>2026-04-16T16:57:47.023Z</time></trkpt><trkpt lat="43.65081557101416" lon="11.156802006851034"><ele>106.0</ele><time>2026-04-16T16:57:49.023Z</time></trkpt><trkpt lat="43.65076784630329" lon="11.156894713739586"><ele>106.0</ele><time>2026-04-16T16:57:51.023Z</time></trkpt><trkpt lat="43.650738639484075" lon="11.1569973225292"><ele>106.0</ele><time>2026-04-16T16:57:53.023Z</time></trkpt><trkpt lat="43.65068686717496" lon="11.157090826024575"><ele>106.00000000000001</ele><time>2026-04-16T16:57:55.023Z</time></trkpt><trkpt lat="43.65063053875994" lon="11.157177886608816"><ele>106.0</ele><time>2026-04-16T16:57:57.023Z</time></trkpt><trkpt lat="43.65057618390126" lon="11.15726305252747"><ele>106.0</ele><time>2026-04-16T16:57:59.024Z</time></trkpt><trkpt lat="43.65053383956763" lon="11.157337280431127"><ele>106.0</ele><time>2026-04-16T16:58:01.024Z</time></trkpt><trkpt lat="43.650485167534214" lon="11.157423714500277"><ele>106.0</ele><time>2026-04-16T16:58:30.024Z</time></trkpt><trkpt lat="43.650435596334745" lon="11.157488846429702"><ele>106.0</ele><time>2026-04-16T16:58:35.024Z</time></trkpt><trkpt lat="43.65038423036485" lon="11.157549749505216"><ele>106.0</ele><time>2026-04-16T16:58:41.024Z</time></trkpt><trkpt lat="43.650350327197835" lon="11.157632647278437"><ele>106.0</ele><time>2026-04-16T16:58:46.024Z</time></trkpt><trkpt lat="43.65038764873568" lon="11.157559984393881"><ele>106.0</ele><time>2026-04-16T16:58:54.024Z</time></trkpt><trkpt lat="43.650428205866355" lon="11.157486094573208"><ele>106.00000000000001</ele><time>2026-04-16T16:58:56.024Z</time></trkpt><trkpt lat="43.65048390691111" lon="11.157384685235055"><ele>106.0</ele><time>2026-04-16T16:58:59.024Z</time></trkpt><trkpt lat="43.650520758839086" lon="11.157306525215702"><ele>106.0</ele><time>2026-04-16T16:59:02.024Z</time></trkpt><trkpt lat="43.650466977102504" lon="11.157384167117364"><ele>106.0</ele><time>2026-04-16T16:59:35.025Z</time></trkpt><trkpt lat="43.650427232431454" lon="11.157483307949935"><ele>106.00000000000001</ele><time>2026-04-16T16:59:39.025Z</time></trkpt><trkpt lat="43.65037781805883" lon="11.157558179460297"><ele>106.0</ele><time>2026-04-16T16:59:42.025Z</time></trkpt><trkpt lat="43.650340489967235" lon="11.157630092721616"><ele>106.0</ele><time>2026-04-16T16:59:45.025Z</time></trkpt><trkpt lat="43.6503010519204" lon="11.157713066419337"><ele>106.0</ele><time>2026-04-16T16:59:48.025Z</time></trkpt><trkpt lat="43.6502613601023" lon="11.157828761059125"><ele>106.0</ele><time>2026-04-16T16:59:51.025Z</time></trkpt><trkpt lat="43.65024221844196" lon="11.157915450667367"><ele>106.0</ele><time>2026-04-16T16:59:53.025Z</time></trkpt><trkpt lat="43.650225548900096" lon="11.158008259791798"><ele>106.0</ele><time>2026-04-16T16:59:55.025Z</time></trkpt><trkpt lat="43.65021134693322" lon="11.158098284733892"><ele>106.0</ele><time>2026-04-16T16:59:57.025Z</time></trkpt><trkpt lat="43.65019763066368" lon="11.158184678608244"><ele>106.0</ele><time>2026-04-16T16:59:59.025Z</time></trkpt><trkpt lat="43.6501836536508" lon="11.158272206483677"><ele>106.16666666666667</ele><time>2026-04-16T17:00:01.025Z</time></trkpt><trkpt lat="43.65016528262978" lon="11.158367639241007"><ele>106.33333333333334</ele><time>2026-04-16T17:00:03.025Z</time></trkpt><trkpt lat="43.65014782769234" lon="11.158463996234659"><ele>106.5</ele><time>2026-04-16T17:00:05.025Z</time></trkpt><trkpt lat="43.6501306320486" lon="11.158573222718974"><ele>106.66666666666666</ele><time>2026-04-16T17:00:07.025Z</time></trkpt><trkpt lat="43.650114272561424" lon="11.158684361888161"><ele>106.83333333333333</ele><time>2026-04-16T17:00:09.025Z</time></trkpt><trkpt lat="43.65009274079898" lon="11.158790919496749"><ele>107.0</ele><time>2026-04-16T17:00:11.026Z</time></trkpt><trkpt lat="43.65007227125613" lon="11.158895156655827"><ele>106.99999999999999</ele><time>2026-04-16T17:00:13.025Z</time></trkpt><trkpt lat="43.65005376937258" lon="11.159000935533822"><ele>107.0</ele><time>2026-04-16T17:00:15.026Z</time></trkpt><trkpt lat="43.65002638479835" lon="11.159099402051337"><ele>107.0</ele><time>2026-04-16T17:00:17.026Z</time></trkpt><trkpt lat="43.64999980278872" lon="11.159195758628108"><ele>107.0</ele><time>2026-04-16T17:00:19.026Z</time></trkpt><trkpt lat="43.64996704358021" lon="11.159288064929179"><ele>106.99999999999999</ele><time>2026-04-16T17:00:21.026Z</time></trkpt><trkpt lat="43.6499242912587" lon="11.15938515943717"><ele>107.0</ele><time>2026-04-16T17:00:23.026Z</time></trkpt><trkpt lat="43.649874426340006" lon="11.159467540948592"><ele>106.99999999999999</ele><time>2026-04-16T17:00:25.026Z</time></trkpt><trkpt lat="43.64983275599227" lon="11.159555507093815"><ele>107.0</ele><time>2026-04-16T17:00:27.026Z</time></trkpt><trkpt lat="43.64978182173769" lon="11.159640381227877"><ele>107.0</ele><time>2026-04-16T17:00:29.026Z</time></trkpt><trkpt lat="43.64972733213012" lon="11.159729763079792"><ele>107.0</ele><time>2026-04-16T17:00:31.026Z</time></trkpt><trkpt lat="43.649673916138724" lon="11.159825188857473"><ele>106.99999999999999</ele><time>2026-04-16T17:00:33.026Z</time></trkpt><trkpt lat="43.64962024554568" lon="11.159925974116302"><ele>107.0</ele><time>2026-04-16T17:00:35.026Z</time></trkpt><trkpt lat="43.64956707438078" lon="11.160028103114605"><ele>107.19999999999999</ele><time>2026-04-16T17:00:37.026Z</time></trkpt><trkpt lat="43.64951282915291" lon="11.1601292773797"><ele>107.39999999999999</ele><time>2026-04-16T17:00:39.026Z</time></trkpt><trkpt lat="43.6494557018009" lon="11.160229928740092"><ele>107.60000000000001</ele><time>2026-04-16T17:00:41.026Z</time></trkpt><trkpt lat="43.64940198256163" lon="11.160329966623477"><ele>107.80000000000001</ele><time>2026-04-16T17:00:43.026Z</time></trkpt><trkpt lat="43.649340831307164" lon="11.160428205295734"><ele>108.0</ele><time>2026-04-16T17:00:45.026Z</time></trkpt><trkpt lat="43.64928856487953" lon="11.16053305594101"><ele>108.0</ele><time>2026-04-16T17:00:47.026Z</time></trkpt><trkpt lat="43.64923327736424" lon="11.160638991357851"><ele>108.0</ele><time>2026-04-16T17:00:49.025Z</time></trkpt><trkpt lat="43.64917580312941" lon="11.160744449402518"><ele>108.0</ele><time>2026-04-16T17:00:51.024Z</time></trkpt><trkpt lat="43.64912295620175" lon="11.160841808615627"><ele>108.0</ele><time>2026-04-16T17:00:53.024Z</time></trkpt><trkpt lat="43.649074439327016" lon="11.160942303557635"><ele>108.0</ele><time>2026-04-16T17:00:55.023Z</time></trkpt><trkpt lat="43.649032498133934" lon="11.1610411877549"><ele>108.0</ele><time>2026-04-16T17:00:57.023Z</time></trkpt><trkpt lat="43.64898009262662" lon="11.161140865561133"><ele>108.16666666666667</ele><time>2026-04-16T17:00:59.022Z</time></trkpt><trkpt lat="43.64893309896404" lon="11.161243086449488"><ele>108.33333333333334</ele><time>2026-04-16T17:01:01.022Z</time></trkpt><trkpt lat="43.64889201203828" lon="11.161346078887814"><ele>108.5</ele><time>2026-04-16T17:01:03.022Z</time></trkpt><trkpt lat="43.64884897094519" lon="11.161431309578008"><ele>108.66666666666667</ele><time>2026-04-16T17:01:05.022Z</time></trkpt><trkpt lat="43.64881766636597" lon="11.161513144460363"><ele>108.83333333333334</ele><time>2026-04-16T17:01:07.021Z</time></trkpt><trkpt lat="43.648777892152005" lon="11.161587225611314"><ele>109.0</ele><time>2026-04-16T17:01:09.021Z</time></trkpt><trkpt lat="43.64874404138251" lon="11.161677444507614"><ele>109.0</ele><time>2026-04-16T17:01:11.021Z</time></trkpt><trkpt lat="43.648706193143916" lon="11.161749572986912"><ele>109.0</ele><time>2026-04-16T17:01:13.021Z</time></trkpt><trkpt lat="43.64866932961804" lon="11.161830644163382"><ele>109.0</ele><time>2026-04-16T17:01:16.021Z</time></trkpt><trkpt lat="43.64861329344025" lon="11.161914206429975"><ele>109.0</ele><time>2026-04-16T17:01:20.02Z</time></trkpt><trkpt lat="43.64856793704954" lon="11.161987338504963"><ele>109.0</ele><time>2026-04-16T17:01:24.02Z</time></trkpt><trkpt lat="43.64851095169306" lon="11.162060465202792"><ele>109.0</ele><time>2026-04-16T17:01:29.02Z</time></trkpt><trkpt lat="43.6484546080613" lon="11.162107650322667"><ele>109.0</ele><time>2026-04-16T17:01:38.02Z</time></trkpt><trkpt lat="43.648391599101004" lon="11.162193792165885"><ele>109.00000000000001</ele><time>2026-04-16T17:01:47.02Z</time></trkpt><trkpt lat="43.648341553957785" lon="11.162251816437957"><ele>109.0</ele><time>2026-04-16T17:01:50.02Z</time></trkpt><trkpt lat="43.64827817255072" lon="11.162323007494857"><ele>109.0</ele><time>2026-04-16T17:01:53.02Z</time></trkpt><trkpt lat="43.648218279283896" lon="11.162416241388335"><ele>109.0</ele><time>2026-04-16T17:01:56.02Z</time></trkpt><trkpt lat="43.64817612253539" lon="11.162487640791419"><ele>109.00000000000001</ele><time>2026-04-16T17:01:58.02Z</time></trkpt><trkpt lat="43.64811647468953" lon="11.162585071613902"><ele>109.0</ele><time>2026-04-16T17:02:01.02Z</time></trkpt><trkpt lat="43.64804746742062" lon="11.162675338461108"><ele>109.28571428571429</ele><time>2026-04-16T17:02:04.02Z</time></trkpt><trkpt lat="43.647996183384805" lon="11.162735222005676"><ele>109.57142857142858</ele><time>2026-04-16T17:02:06.02Z</time></trkpt><trkpt lat="43.64794758352015" lon="11.16280181160786"><ele>109.85714285714286</ele><time>2026-04-16T17:02:08.02Z</time></trkpt><trkpt lat="43.647891448466" lon="11.162869967048094"><ele>110.14285714285714</ele><time>2026-04-16T17:02:10.019Z</time></trkpt><trkpt lat="43.64783198377902" lon="11.162936386948257"><ele>110.42857142857143</ele><time>2026-04-16T17:02:12.019Z</time></trkpt><trkpt lat="43.647772005554735" lon="11.163008691652893"><ele>110.71428571428571</ele><time>2026-04-16T17:02:14.02Z</time></trkpt><trkpt lat="43.64771310469246" lon="11.163078111399216"><ele>111.0</ele><time>2026-04-16T17:02:16.02Z</time></trkpt><trkpt lat="43.647656153191974" lon="11.16315641938565"><ele>111.16666666666667</ele><time>2026-04-16T17:02:18.02Z</time></trkpt><trkpt lat="43.64759323800732" lon="11.163217662477653"><ele>111.33333333333334</ele><time>2026-04-16T17:02:20.02Z</time></trkpt><trkpt lat="43.647527269628675" lon="11.163273763693153"><ele>111.5</ele><time>2026-04-16T17:02:22.02Z</time></trkpt><trkpt lat="43.64747105934353" lon="11.163337358029091"><ele>111.66666666666667</ele><time>2026-04-16T17:02:24.02Z</time></trkpt><trkpt lat="43.64739472778334" lon="11.163391146970566"><ele>111.83333333333334</ele><time>2026-04-16T17:02:27.02Z</time></trkpt><trkpt lat="43.64730680075377" lon="11.163474233743809"><ele>112.0</ele><time>2026-04-16T17:02:30.02Z</time></trkpt><trkpt lat="43.64724567204288" lon="11.163530468716155"><ele>112.00000000000001</ele><time>2026-04-16T17:02:32.02Z</time></trkpt><trkpt lat="43.6471824614508" lon="11.163593867010748"><ele>112.0</ele><time>2026-04-16T17:02:34.02Z</time></trkpt><trkpt lat="43.64712222981914" lon="11.16364953040536"><ele>112.0</ele><time>2026-04-16T17:02:36.02Z</time></trkpt><trkpt lat="43.647060888338444" lon="11.16370517990514"><ele>112.0</ele><time>2026-04-16T17:02:38.02Z</time></trkpt><trkpt lat="43.646991508501" lon="11.163751990164036"><ele>112.00000000000001</ele><time>2026-04-16T17:02:40.02Z</time></trkpt><trkpt lat="43.646924603695965" lon="11.163820238558321"><ele>112.0</ele><time>2026-04-16T17:02:42.02Z</time></trkpt><trkpt lat="43.64685481430962" lon="11.163868930506606"><ele>112.16666666666667</ele><time>2026-04-16T17:02:44.02Z</time></trkpt><trkpt lat="43.64678673221893" lon="11.163932674894598"><ele>112.33333333333334</ele><time>2026-04-16T17:02:46.02Z</time></trkpt><trkpt lat="43.646705120352024" lon="11.16398470588719"><ele>112.5</ele><time>2026-04-16T17:02:48.02Z</time></trkpt><trkpt lat="43.64662850886459" lon="11.164031154594822"><ele>112.66666666666666</ele><time>2026-04-16T17:02:50.02Z</time></trkpt><trkpt lat="43.646545617888265" lon="11.164071343871068"><ele>112.83333333333333</ele><time>2026-04-16T17:02:52.02Z</time></trkpt><trkpt lat="43.64646371341424" lon="11.164098874239043"><ele>113.0</ele><time>2026-04-16T17:02:54.02Z</time></trkpt><trkpt lat="43.646373870355475" lon="11.164118373678068"><ele>112.99999999999999</ele><time>2026-04-16T17:02:56.02Z</time></trkpt><trkpt lat="43.64628879479305" lon="11.164131103121523"><ele>113.0</ele><time>2026-04-16T17:02:58.02Z</time></trkpt><trkpt lat="43.646204681449206" lon="11.164143823054953"><ele>113.0</ele><time>2026-04-16T17:03:00.02Z</time></trkpt><trkpt lat="43.64611973465717" lon="11.164154854435584"><ele>113.0</ele><time>2026-04-16T17:03:02.02Z</time></trkpt><trkpt lat="43.64605238247682" lon="11.164173158249588"><ele>112.99999999999999</ele><time>2026-04-16T17:03:04.02Z</time></trkpt><trkpt lat="43.645983866519714" lon="11.164209288998963"><ele>113.0</ele><time>2026-04-16T17:03:06.02Z</time></trkpt><trkpt lat="43.6459446204337" lon="11.164277438172538"><ele>113.16666666666666</ele><time>2026-04-16T17:03:08.02Z</time></trkpt><trkpt lat="43.645924677398895" lon="11.164393835545741"><ele>113.33333333333333</ele><time>2026-04-16T17:03:11.02Z</time></trkpt><trkpt lat="43.64591149619193" lon="11.164497278343179"><ele>113.5</ele><time>2026-04-16T17:03:15.02Z</time></trkpt><trkpt lat="43.64586007741671" lon="11.164582370107615"><ele>113.66666666666666</ele><time>2026-04-16T17:03:19.02Z</time></trkpt><trkpt lat="43.64581037858402" lon="11.164659495723644"><ele>113.83333333333333</ele><time>2026-04-16T17:03:22.02Z</time></trkpt><trkpt lat="43.64574952870412" lon="11.16460348601597"><ele>114.0</ele><time>2026-04-16T17:03:26.02Z</time></trkpt><trkpt lat="43.64572118636757" lon="11.16445760573537"><ele>114.0</ele><time>2026-04-16T17:03:42.021Z</time></trkpt><trkpt lat="43.64568546805559" lon="11.164356920100406"><ele>114.0</ele><time>2026-04-16T17:03:45.021Z</time></trkpt><trkpt lat="43.64562597845237" lon="11.164324090779735"><ele>114.0</ele><time>2026-04-16T17:03:49.021Z</time></trkpt><trkpt lat="43.64552316126213" lon="11.164338263760397"><ele>114.0</ele><time>2026-04-16T17:03:52.021Z</time></trkpt><trkpt lat="43.645451576797434" lon="11.164339101526572"><ele>114.0</ele><time>2026-04-16T17:03:56.021Z</time></trkpt><trkpt lat="43.64538387441585" lon="11.164350518595114"><ele>114.0</ele><time>2026-04-16T17:04:25.021Z</time></trkpt><trkpt lat="43.6453110904287" lon="11.164364863911683"><ele>113.66666666666667</ele><time>2026-04-16T17:04:30.02Z</time></trkpt><trkpt lat="43.64522739151013" lon="11.164383550744162"><ele>113.33333333333334</ele><time>2026-04-16T17:04:34.021Z</time></trkpt><trkpt lat="43.6451639959178" lon="11.164387940430272"><ele>113.0</ele><time>2026-04-16T17:04:37.021Z</time></trkpt><trkpt lat="43.645083591269156" lon="11.164392784515504"><ele>112.66666666666667</ele><time>2026-04-16T17:04:40.021Z</time></trkpt><trkpt lat="43.644991161431584" lon="11.164395736579024"><ele>112.33333333333334</ele><time>2026-04-16T17:04:43.021Z</time></trkpt><trkpt lat="43.64492694794093" lon="11.16439751008622"><ele>112.0</ele><time>2026-04-16T17:04:45.021Z</time></trkpt><trkpt lat="43.64484853531128" lon="11.164399742469856"><ele>112.00000000000001</ele><time>2026-04-16T17:04:47.021Z</time></trkpt><trkpt lat="43.64477937949828" lon="11.164423148809183"><ele>112.0</ele><time>2026-04-16T17:04:49.021Z</time></trkpt><trkpt lat="43.644694377334844" lon="11.164428474479088"><ele>112.0</ele><time>2026-04-16T17:04:52.021Z</time></trkpt><trkpt lat="43.64459695863818" lon="11.16445371811436"><ele>112.0</ele><time>2026-04-16T17:04:55.021Z</time></trkpt><trkpt lat="43.64450966609901" lon="11.164479643170145"><ele>112.00000000000001</ele><time>2026-04-16T17:04:58.021Z</time></trkpt><trkpt lat="43.64441836271799" lon="11.164496346421931"><ele>112.0</ele><time>2026-04-16T17:05:01.021Z</time></trkpt><trkpt lat="43.64435351322754" lon="11.164513528814913"><ele>112.00000000000001</ele><time>2026-04-16T17:05:03.021Z</time></trkpt><trkpt lat="43.644284033365764" lon="11.164525853241685"><ele>112.0</ele><time>2026-04-16T17:05:05.021Z</time></trkpt><trkpt lat="43.644194222134345" lon="11.164546182523901"><ele>112.0</ele><time>2026-04-16T17:05:08.021Z</time></trkpt><trkpt lat="43.6441283061006" lon="11.164574085762126"><ele>112.0</ele><time>2026-04-16T17:05:10.021Z</time></trkpt><trkpt lat="43.64406605674145" lon="11.16459523119136"><ele>112.00000000000001</ele><time>2026-04-16T17:05:12.021Z</time></trkpt><trkpt lat="43.64397589562474" lon="11.164617269882575"><ele>112.0</ele><time>2026-04-16T17:05:15.021Z</time></trkpt><trkpt lat="43.64391188836106" lon="11.164625808820206"><ele>112.0</ele><time>2026-04-16T17:05:17.021Z</time></trkpt><trkpt lat="43.643842289724816" lon="11.16466673183872"><ele>112.0</ele><time>2026-04-16T17:05:19.021Z</time></trkpt><trkpt lat="43.64378494670195" lon="11.164706778998157"><ele>112.0</ele><time>2026-04-16T17:05:21.021Z</time></trkpt><trkpt lat="43.64372990934977" lon="11.164750846370303"><ele>112.0</ele><time>2026-04-16T17:05:23.021Z</time></trkpt><trkpt lat="43.64367437085484" lon="11.164803548709495"><ele>112.0</ele><time>2026-04-16T17:05:25.021Z</time></trkpt><trkpt lat="43.64361137787711" lon="11.164848729485874"><ele>112.0</ele><time>2026-04-16T17:05:27.021Z</time></trkpt><trkpt lat="43.64354882803896" lon="11.164889763636532"><ele>112.0</ele><time>2026-04-16T17:05:29.021Z</time></trkpt><trkpt lat="43.64347889433966" lon="11.164918518282441"><ele>112.16666666666667</ele><time>2026-04-16T17:05:31.021Z</time></trkpt><trkpt lat="43.64340473219338" lon="11.164943660104154"><ele>112.33333333333334</ele><time>2026-04-16T17:05:33.021Z</time></trkpt><trkpt lat="43.64334007942039" lon="11.164985544618549"><ele>112.5</ele><time>2026-04-16T17:05:35.021Z</time></trkpt><trkpt lat="43.64326161228253" lon="11.165010577916908"><ele>112.66666666666666</ele><time>2026-04-16T17:05:37.021Z</time></trkpt><trkpt lat="43.64319147850116" lon="11.16502853838494"><ele>112.83333333333333</ele><time>2026-04-16T17:05:39.021Z</time></trkpt><trkpt lat="43.6431157821367" lon="11.165064441788948"><ele>113.0</ele><time>2026-04-16T17:05:41.021Z</time></trkpt><trkpt lat="43.64303840053473" lon="11.165097823301968"><ele>112.99999999999999</ele><time>2026-04-16T17:05:43.021Z</time></trkpt><trkpt lat="43.64296941679318" lon="11.165125045306821"><ele>113.0</ele><time>2026-04-16T17:05:45.021Z</time></trkpt><trkpt lat="43.6428973919018" lon="11.165156842217094"><ele>113.0</ele><time>2026-04-16T17:05:47.021Z</time></trkpt><trkpt lat="43.642825170301585" lon="11.165193823165183"><ele>113.0</ele><time>2026-04-16T17:05:49.021Z</time></trkpt><trkpt lat="43.642748702881" lon="11.165232121023193"><ele>112.99999999999999</ele><time>2026-04-16T17:05:51.021Z</time></trkpt><trkpt lat="43.642676451130754" lon="11.165269806038625"><ele>113.0</ele><time>2026-04-16T17:05:53.021Z</time></trkpt><trkpt lat="43.64260749151354" lon="11.165308210708393"><ele>112.99999999999999</ele><time>2026-04-16T17:05:55.021Z</time></trkpt><trkpt lat="43.64253916891122" lon="11.165335222842526"><ele>113.0</ele><time>2026-04-16T17:05:57.021Z</time></trkpt><trkpt lat="43.642472436996734" lon="11.16537244736639"><ele>113.0</ele><time>2026-04-16T17:05:59.021Z</time></trkpt><trkpt lat="43.642395670725335" lon="11.165398313645115"><ele>113.0</ele><time>2026-04-16T17:06:01.022Z</time></trkpt><trkpt lat="43.642321860477786" lon="11.165435745672657"><ele>112.99999999999999</ele><time>2026-04-16T17:06:03.022Z</time></trkpt><trkpt lat="43.64224862877333" lon="11.165474443519605"><ele>113.0</ele><time>2026-04-16T17:06:05.022Z</time></trkpt><trkpt lat="43.642178597046794" lon="11.165512623974838"><ele>112.99999999999999</ele><time>2026-04-16T17:06:07.022Z</time></trkpt><trkpt lat="43.64210327407908" lon="11.165558291635822"><ele>113.0</ele><time>2026-04-16T17:06:09.022Z</time></trkpt><trkpt lat="43.64204513387937" lon="11.165595598195917"><ele>113.0</ele><time>2026-04-16T17:06:11.022Z</time></trkpt><trkpt lat="43.64197235900993" lon="11.165637258511012"><ele>113.0</ele><time>2026-04-16T17:06:13.022Z</time></trkpt><trkpt lat="43.64189562593268" lon="11.165686341760582"><ele>112.99999999999999</ele><time>2026-04-16T17:06:15.022Z</time></trkpt><trkpt lat="43.64182367522219" lon="11.16574647724947"><ele>113.0</ele><time>2026-04-16T17:06:17.022Z</time></trkpt><trkpt lat="43.64173956673461" lon="11.165802788169074"><ele>112.83333333333333</ele><time>2026-04-16T17:06:19.022Z</time></trkpt><trkpt lat="43.64166824368749" lon="11.165853782843499"><ele>112.66666666666666</ele><time>2026-04-16T17:06:21.021Z</time></trkpt><trkpt lat="43.64160078171478" lon="11.165922711513412"><ele>112.5</ele><time>2026-04-16T17:06:23.021Z</time></trkpt><trkpt lat="43.641533286468636" lon="11.165989454186262"><ele>112.33333333333334</ele><time>2026-04-16T17:06:25.022Z</time></trkpt><trkpt lat="43.641471010190024" lon="11.166053876786343"><ele>112.16666666666667</ele><time>2026-04-16T17:06:27.021Z</time></trkpt><trkpt lat="43.641384016961375" lon="11.166130178499728"><ele>112.0</ele><time>2026-04-16T17:06:29.022Z</time></trkpt><trkpt lat="43.64130321860401" lon="11.166204213849518"><ele>112.00000000000001</ele><time>2026-04-16T17:06:31.022Z</time></trkpt><trkpt lat="43.64123819931384" lon="11.16629444915241"><ele>112.0</ele><time>2026-04-16T17:06:33.021Z</time></trkpt><trkpt lat="43.64116917110316" lon="11.166374158094548"><ele>112.0</ele><time>2026-04-16T17:06:35.022Z</time></trkpt><trkpt lat="43.64110418886636" lon="11.166453741090402"><ele>112.0</ele><time>2026-04-16T17:06:37.022Z</time></trkpt><trkpt lat="43.64104508858445" lon="11.166542507612169"><ele>112.00000000000001</ele><time>2026-04-16T17:06:39.022Z</time></trkpt><trkpt lat="43.64097764323718" lon="11.166623558293702"><ele>112.0</ele><time>2026-04-16T17:06:41.022Z</time></trkpt><trkpt lat="43.64091451278568" lon="11.166700434640097"><ele>112.16666666666667</ele><time>2026-04-16T17:06:43.022Z</time></trkpt><trkpt lat="43.640856201353465" lon="11.16677882439163"><ele>112.33333333333334</ele><time>2026-04-16T17:06:45.022Z</time></trkpt><trkpt lat="43.640797411657445" lon="11.1668571614504"><ele>112.5</ele><time>2026-04-16T17:06:47.022Z</time></trkpt><trkpt lat="43.64073650048781" lon="11.166943079562767"><ele>112.66666666666666</ele><time>2026-04-16T17:06:49.022Z</time></trkpt><trkpt lat="43.64067175868215" lon="11.167026201618642"><ele>112.83333333333333</ele><time>2026-04-16T17:06:51.022Z</time></trkpt><trkpt lat="43.64061213201009" lon="11.167096316397831"><ele>113.0</ele><time>2026-04-16T17:06:53.022Z</time></trkpt><trkpt lat="43.640557098180935" lon="11.167169355914599"><ele>112.99999999999999</ele><time>2026-04-16T17:06:55.022Z</time></trkpt><trkpt lat="43.64048876156398" lon="11.167240619967304"><ele>113.0</ele><time>2026-04-16T17:06:58.022Z</time></trkpt><trkpt lat="43.64042271321678" lon="11.167302334937665"><ele>113.0</ele><time>2026-04-16T17:07:01.022Z</time></trkpt><trkpt lat="43.6403649830756" lon="11.167374725123645"><ele>113.0</ele><time>2026-04-16T17:07:03.022Z</time></trkpt><trkpt lat="43.64026607892947" lon="11.167473704154629"><ele>112.99999999999999</ele><time>2026-04-16T17:07:05.022Z</time></trkpt><trkpt lat="43.64021054449333" lon="11.167517825769963"><ele>113.0</ele><time>2026-04-16T17:07:07.022Z</time></trkpt><trkpt lat="43.64015794641178" lon="11.16757582707779"><ele>113.42857142857143</ele><time>2026-04-16T17:07:13.022Z</time></trkpt><trkpt lat="43.640103412199174" lon="11.16762097165345"><ele>113.85714285714286</ele><time>2026-04-16T17:07:17.022Z</time></trkpt><trkpt lat="43.6400531968385" lon="11.16767856644044"><ele>114.28571428571429</ele><time>2026-04-16T17:07:24.022Z</time></trkpt><trkpt lat="43.640118290988646" lon="11.167635326463389"><ele>114.71428571428572</ele><time>2026-04-16T17:07:30.022Z</time></trkpt><trkpt lat="43.64017316069211" lon="11.167591078799276"><ele>115.14285714285714</ele><time>2026-04-16T17:07:34.022Z</time></trkpt><trkpt lat="43.64010935812145" lon="11.167630227352978"><ele>115.57142857142858</ele><time>2026-04-16T17:07:50.022Z</time></trkpt><trkpt lat="43.64016075122896" lon="11.167578727230783"><ele>116.00000000000001</ele><time>2026-04-16T17:08:02.022Z</time></trkpt><trkpt lat="43.64010351377817" lon="11.167634638021566"><ele>115.99999999999999</ele><time>2026-04-16T17:08:34.023Z</time></trkpt><trkpt lat="43.6400142624069" lon="11.167704462179744"><ele>116.0</ele><time>2026-04-16T17:08:38.023Z</time></trkpt><trkpt lat="43.63994787657459" lon="11.167774107755434"><ele>116.0</ele><time>2026-04-16T17:08:41.023Z</time></trkpt><trkpt lat="43.639883556343875" lon="11.16784125575186"><ele>116.0</ele><time>2026-04-16T17:08:44.023Z</time></trkpt><trkpt lat="43.639811263816384" lon="11.167904156219336"><ele>115.99999999999999</ele><time>2026-04-16T17:08:47.023Z</time></trkpt><trkpt lat="43.639756873544606" lon="11.16795426320299"><ele>116.0</ele><time>2026-04-16T17:08:49.023Z</time></trkpt><trkpt lat="43.639675796130724" lon="11.16803720104755"><ele>115.99999999999999</ele><time>2026-04-16T17:08:52.023Z</time></trkpt><trkpt lat="43.639595392001276" lon="11.168117762117202"><ele>116.0</ele><time>2026-04-16T17:08:55.023Z</time></trkpt><trkpt lat="43.63952438536676" lon="11.16816675716724"><ele>116.0</ele><time>2026-04-16T17:08:58.023Z</time></trkpt><trkpt lat="43.639439727659784" lon="11.168203520563116"><ele>116.0</ele><time>2026-04-16T17:09:01.023Z</time></trkpt><trkpt lat="43.63937776294142" lon="11.168232480044718"><ele>115.99999999999999</ele><time>2026-04-16T17:09:03.023Z</time></trkpt><trkpt lat="43.63931442769973" lon="11.168262920259409"><ele>116.0</ele><time>2026-04-16T17:09:05.023Z</time></trkpt><trkpt lat="43.639248176691424" lon="11.168282917366891"><ele>115.99999999999999</ele><time>2026-04-16T17:09:07.023Z</time></trkpt><trkpt lat="43.63918632357031" lon="11.168300961205416"><ele>116.0</ele><time>2026-04-16T17:09:09.023Z</time></trkpt><trkpt lat="43.639104882121806" lon="11.168340212690758"><ele>116.0</ele><time>2026-04-16T17:09:12.023Z</time></trkpt><trkpt lat="43.63902772388713" lon="11.168370254667428"><ele>116.0</ele><time>2026-04-16T17:09:15.023Z</time></trkpt><trkpt lat="43.63894276573592" lon="11.168403263992435"><ele>115.99999999999999</ele><time>2026-04-16T17:09:18.023Z</time></trkpt><trkpt lat="43.638874187415354" lon="11.168412598769402"><ele>116.0</ele><time>2026-04-16T17:09:21.023Z</time></trkpt><trkpt lat="43.638815629083375" lon="11.168448385033729"><ele>115.99999999999999</ele><time>2026-04-16T17:09:23.023Z</time></trkpt><trkpt lat="43.63872520760697" lon="11.168473730223672"><ele>116.0</ele><time>2026-04-16T17:09:26.023Z</time></trkpt><trkpt lat="43.63864353709679" lon="11.168493199417249"><ele>116.0</ele><time>2026-04-16T17:09:29.023Z</time></trkpt><trkpt lat="43.6385606268307" lon="11.16852912667718"><ele>116.0</ele><time>2026-04-16T17:09:32.023Z</time></trkpt><trkpt lat="43.63848301744394" lon="11.168561455379237"><ele>115.99999999999999</ele><time>2026-04-16T17:09:35.023Z</time></trkpt><trkpt lat="43.63839163472294" lon="11.168584108716548"><ele>116.0</ele><time>2026-04-16T17:09:38.023Z</time></trkpt><trkpt lat="43.638310914509624" lon="11.168593060823984"><ele>116.14285714285717</ele><time>2026-04-16T17:09:41.023Z</time></trkpt><trkpt lat="43.638235642274196" lon="11.168623174436245"><ele>116.28571428571429</ele><time>2026-04-16T17:09:44.023Z</time></trkpt><trkpt lat="43.63817330407932" lon="11.168641908636491"><ele>116.42857142857144</ele><time>2026-04-16T17:09:46.023Z</time></trkpt><trkpt lat="43.63809033651484" lon="11.168668322400292"><ele>116.57142857142858</ele><time>2026-04-16T17:09:49.023Z</time></trkpt><trkpt lat="43.63802199290904" lon="11.168680754336318"><ele>116.71428571428572</ele><time>2026-04-16T17:09:51.023Z</time></trkpt><trkpt lat="43.637954402875586" lon="11.168686085247588"><ele>116.85714285714286</ele><time>2026-04-16T17:09:53.023Z</time></trkpt><trkpt lat="43.637877889890184" lon="11.168695375971069"><ele>117.0</ele><time>2026-04-16T17:09:55.023Z</time></trkpt><trkpt lat="43.637804470749565" lon="11.168704575079035"><ele>117.42857142857143</ele><time>2026-04-16T17:09:57.023Z</time></trkpt><trkpt lat="43.637740826411644" lon="11.168672178704513"><ele>117.85714285714286</ele><time>2026-04-16T17:09:59.023Z</time></trkpt><trkpt lat="43.637684739589645" lon="11.168600198185345"><ele>118.28571428571429</ele><time>2026-04-16T17:10:01.023Z</time></trkpt><trkpt lat="43.63761786151935" lon="11.168555288329072"><ele>118.71428571428572</ele><time>2026-04-16T17:10:03.023Z</time></trkpt><trkpt lat="43.63753910790597" lon="11.168543206700248"><ele>119.14285714285714</ele><time>2026-04-16T17:10:05.023Z</time></trkpt><trkpt lat="43.637473084245855" lon="11.168564271047112"><ele>119.57142857142858</ele><time>2026-04-16T17:10:07.024Z</time></trkpt><trkpt lat="43.637404666446514" lon="11.168614407118254"><ele>120.0</ele><time>2026-04-16T17:10:10.024Z</time></trkpt><trkpt lat="43.63732431654796" lon="11.16866460571167"><ele>120.0</ele><time>2026-04-16T17:10:13.024Z</time></trkpt><trkpt lat="43.63727187663411" lon="11.168714644038458"><ele>120.0</ele><time>2026-04-16T17:10:15.024Z</time></trkpt><trkpt lat="43.63721878521788" lon="11.168763153158784"><ele>120.0</ele><time>2026-04-16T17:10:17.024Z</time></trkpt><trkpt lat="43.63715772381082" lon="11.16882331522724"><ele>120.0</ele><time>2026-04-16T17:10:19.024Z</time></trkpt><trkpt lat="43.637107331484714" lon="11.168885860459156"><ele>120.0</ele><time>2026-04-16T17:10:21.024Z</time></trkpt><trkpt lat="43.63705029269159" lon="11.16898500487928"><ele>120.0</ele><time>2026-04-16T17:10:24.024Z</time></trkpt><trkpt lat="43.63700248585467" lon="11.169092807630951"><ele>120.0</ele><time>2026-04-16T17:10:27.024Z</time></trkpt><trkpt lat="43.636963849148586" lon="11.169208903233391"><ele>120.0</ele><time>2026-04-16T17:10:30.024Z</time></trkpt><trkpt lat="43.63695030152099" lon="11.169322447197937"><ele>120.0</ele><time>2026-04-16T17:10:33.023Z</time></trkpt><trkpt lat="43.63694385665633" lon="11.169409444205481"><ele>120.0</ele><time>2026-04-16T17:10:35.024Z</time></trkpt><trkpt lat="43.636969852417096" lon="11.169514418136679"><ele>120.0</ele><time>2026-04-16T17:10:38.023Z</time></trkpt><trkpt lat="43.637037037665685" lon="11.169598833295488"><ele>120.0</ele><time>2026-04-16T17:10:41.024Z</time></trkpt><trkpt lat="43.6370930518093" lon="11.169698891719282"><ele>120.0</ele><time>2026-04-16T17:10:43.024Z</time></trkpt><trkpt lat="43.63713836209895" lon="11.169792097478268"><ele>120.0</ele><time>2026-04-16T17:10:45.023Z</time></trkpt><trkpt lat="43.637180183013804" lon="11.169862890527217"><ele>120.0</ele><time>2026-04-16T17:10:47.023Z</time></trkpt><trkpt lat="43.637235902183036" lon="11.169942137073901"><ele>120.0</ele><time>2026-04-16T17:10:49.023Z</time></trkpt><trkpt lat="43.637282812928895" lon="11.170039714203547"><ele>120.0</ele><time>2026-04-16T17:10:52.023Z</time></trkpt><trkpt lat="43.637321333887265" lon="11.169944135531154"><ele>120.0</ele><time>2026-04-16T17:10:56.023Z</time></trkpt><trkpt lat="43.63729550296306" lon="11.169835853460953"><ele>120.0</ele><time>2026-04-16T17:10:59.023Z</time></trkpt><trkpt lat="43.637332351889995" lon="11.169732641809983"><ele>120.0</ele><time>2026-04-16T17:11:02.023Z</time></trkpt><trkpt lat="43.63739920896321" lon="11.169670826176002"><ele>120.0</ele><time>2026-04-16T17:11:05.023Z</time></trkpt><trkpt lat="43.63744388054888" lon="11.169609507729417"><ele>120.0</ele><time>2026-04-16T17:11:08.023Z</time></trkpt><trkpt lat="43.637511835940735" lon="11.169549711255197"><ele>120.0</ele><time>2026-04-16T17:11:12.024Z</time></trkpt><trkpt lat="43.63757343412407" lon="11.169495474781687"><ele>120.0</ele><time>2026-04-16T17:11:16.024Z</time></trkpt><trkpt lat="43.637636592424855" lon="11.169467363787948"><ele>120.0</ele><time>2026-04-16T17:11:21.024Z</time></trkpt><trkpt lat="43.637682664172246" lon="11.169386373219979"><ele>120.0</ele><time>2026-04-16T17:13:28.025Z</time></trkpt><trkpt lat="43.6377333180843" lon="11.169331689665153"><ele>120.0</ele><time>2026-04-16T17:13:33.025Z</time></trkpt><trkpt lat="43.637793322495156" lon="11.169304754522276"><ele>120.0</ele><time>2026-04-16T17:13:36.025Z</time></trkpt><trkpt lat="43.63784826165735" lon="11.16924422424946"><ele>120.0</ele><time>2026-04-16T17:13:39.025Z</time></trkpt><trkpt lat="43.63790931615927" lon="11.169194895463976"><ele>120.0</ele><time>2026-04-16T17:13:42.025Z</time></trkpt><trkpt lat="43.637975718753765" lon="11.169149532792966"><ele>120.0</ele><time>2026-04-16T17:13:45.025Z</time></trkpt><trkpt lat="43.63806394778131" lon="11.169106088027743"><ele>120.0</ele><time>2026-04-16T17:13:48.025Z</time></trkpt><trkpt lat="43.638122463786004" lon="11.16906282058127"><ele>119.5</ele><time>2026-04-16T17:13:50.025Z</time></trkpt><trkpt lat="43.638177184871516" lon="11.168998794275812"><ele>119.0</ele><time>2026-04-16T17:13:52.025Z</time></trkpt><trkpt lat="43.63824790394744" lon="11.16892752047815"><ele>118.5</ele><time>2026-04-16T17:13:55.025Z</time></trkpt><trkpt lat="43.63832186615471" lon="11.16887276747835"><ele>118.0</ele><time>2026-04-16T17:13:58.025Z</time></trkpt><trkpt lat="43.63835205838376" lon="11.168742562579546"><ele>117.5</ele><time>2026-04-16T17:14:01.025Z</time></trkpt><trkpt lat="43.63838169283012" lon="11.168623600127168"><ele>117.0</ele><time>2026-04-16T17:14:03.025Z</time></trkpt><trkpt lat="43.63845765432514" lon="11.168553622870428"><ele>117.0</ele><time>2026-04-16T17:14:05.025Z</time></trkpt><trkpt lat="43.63854091636762" lon="11.168521628808632"><ele>117.0</ele><time>2026-04-16T17:14:07.026Z</time></trkpt><trkpt lat="43.63861760937239" lon="11.168484022697854"><ele>117.0</ele><time>2026-04-16T17:14:09.026Z</time></trkpt><trkpt lat="43.63868429818339" lon="11.16844686691072"><ele>117.0</ele><time>2026-04-16T17:14:11.026Z</time></trkpt><trkpt lat="43.63875417197979" lon="11.168427669067782"><ele>117.0</ele><time>2026-04-16T17:14:13.026Z</time></trkpt><trkpt lat="43.638820717103386" lon="11.168392345835347"><ele>117.0</ele><time>2026-04-16T17:14:16.026Z</time></trkpt><trkpt lat="43.63890417440365" lon="11.168371388998947"><ele>116.83333333333333</ele><time>2026-04-16T17:14:19.026Z</time></trkpt><trkpt lat="43.63896917397483" lon="11.168335829749646"><ele>116.66666666666666</ele><time>2026-04-16T17:14:21.026Z</time></trkpt><trkpt lat="43.63903638787952" lon="11.168311125205603"><ele>116.5</ele><time>2026-04-16T17:14:23.026Z</time></trkpt><trkpt lat="43.639111924623805" lon="11.168278282225298"><ele>116.33333333333333</ele><time>2026-04-16T17:14:25.026Z</time></trkpt><trkpt lat="43.63918993952962" lon="11.168245522398369"><ele>116.16666666666666</ele><time>2026-04-16T17:14:27.026Z</time></trkpt><trkpt lat="43.63927171723926" lon="11.16821880519108"><ele>116.0</ele><time>2026-04-16T17:14:29.026Z</time></trkpt><trkpt lat="43.63935914440335" lon="11.168186246463998"><ele>116.0</ele><time>2026-04-16T17:14:31.026Z</time></trkpt><trkpt lat="43.63944134003078" lon="11.168151386711127"><ele>116.0</ele><time>2026-04-16T17:14:33.026Z</time></trkpt><trkpt lat="43.63952438719608" lon="11.168120390011008"><ele>116.0</ele><time>2026-04-16T17:14:35.026Z</time></trkpt><trkpt lat="43.63959787054505" lon="11.168082000483421"><ele>116.0</ele><time>2026-04-16T17:14:37.026Z</time></trkpt><trkpt lat="43.63967645310942" lon="11.168000843157294"><ele>116.0</ele><time>2026-04-16T17:14:39.026Z</time></trkpt><trkpt lat="43.63976244554454" lon="11.167924817089077"><ele>115.99999999999999</ele><time>2026-04-16T17:14:41.026Z</time></trkpt><trkpt lat="43.63983556239196" lon="11.167844455734945"><ele>116.0</ele><time>2026-04-16T17:14:43.026Z</time></trkpt><trkpt lat="43.63991362577625" lon="11.167788479471477"><ele>116.0</ele><time>2026-04-16T17:14:45.026Z</time></trkpt><trkpt lat="43.63997520909712" lon="11.167712848475606"><ele>116.0</ele><time>2026-04-16T17:14:47.026Z</time></trkpt><trkpt lat="43.640028269199455" lon="11.167665093326317"><ele>115.99999999999999</ele><time>2026-04-16T17:14:49.025Z</time></trkpt><trkpt lat="43.64010122841153" lon="11.167612841392296"><ele>116.0</ele><time>2026-04-16T17:14:51.026Z</time></trkpt><trkpt lat="43.64016516375603" lon="11.167550268805297"><ele>115.99999999999999</ele><time>2026-04-16T17:14:54.026Z</time></trkpt><trkpt lat="43.64022842022576" lon="11.167485521201078"><ele>116.0</ele><time>2026-04-16T17:14:57.026Z</time></trkpt><trkpt lat="43.64029519644791" lon="11.167414342026744"><ele>116.0</ele><time>2026-04-16T17:14:59.026Z</time></trkpt><trkpt lat="43.640342964452344" lon="11.167354889933451"><ele>116.0</ele><time>2026-04-16T17:15:03.026Z</time></trkpt><trkpt lat="43.64040793160994" lon="11.167293697487361"><ele>115.99999999999999</ele><time>2026-04-16T17:15:08.026Z</time></trkpt><trkpt lat="43.64045541489735" lon="11.167228559818234"><ele>116.0</ele><time>2026-04-16T17:15:12.026Z</time></trkpt><trkpt lat="43.64050846784331" lon="11.16714786257987"><ele>115.57142857142858</ele><time>2026-04-16T17:15:15.026Z</time></trkpt><trkpt lat="43.640563107941034" lon="11.16709584799352"><ele>115.14285714285714</ele><time>2026-04-16T17:15:17.026Z</time></trkpt><trkpt lat="43.640615940194905" lon="11.167030488919403"><ele>114.71428571428572</ele><time>2026-04-16T17:15:20.026Z</time></trkpt><trkpt lat="43.640683917725084" lon="11.166955666427645"><ele>114.28571428571429</ele><time>2026-04-16T17:15:23.026Z</time></trkpt><trkpt lat="43.640742663066256" lon="11.166881565036654"><ele>113.85714285714286</ele><time>2026-04-16T17:15:26.027Z</time></trkpt><trkpt lat="43.64080062423451" lon="11.166823089172022"><ele>113.42857142857143</ele><time>2026-04-16T17:15:30.027Z</time></trkpt><trkpt lat="43.64085242080169" lon="11.166752642953819"><ele>113.0</ele><time>2026-04-16T17:15:35.027Z</time></trkpt><trkpt lat="43.64091475772857" lon="11.166684732312687"><ele>113.0</ele><time>2026-04-16T17:15:39.027Z</time></trkpt><trkpt lat="43.6408550191781" lon="11.16673158864481"><ele>113.0</ele><time>2026-04-16T17:15:45.027Z</time></trkpt><trkpt lat="43.640814493861306" lon="11.16680072067364"><ele>113.0</ele><time>2026-04-16T17:15:48.027Z</time></trkpt><trkpt lat="43.640759401862375" lon="11.166880474719857"><ele>113.0</ele><time>2026-04-16T17:15:51.027Z</time></trkpt><trkpt lat="43.640713164370034" lon="11.166941701107847"><ele>113.0</ele><time>2026-04-16T17:15:54.027Z</time></trkpt><trkpt lat="43.640784041241005" lon="11.16687719213297"><ele>113.0</ele><time>2026-04-16T17:16:02.027Z</time></trkpt><trkpt lat="43.64082558125023" lon="11.166806909456449"><ele>113.0</ele><time>2026-04-16T17:16:04.027Z</time></trkpt><trkpt lat="43.640879861440816" lon="11.16673210994067"><ele>113.0</ele><time>2026-04-16T17:16:06.027Z</time></trkpt><trkpt lat="43.640942191029566" lon="11.166647704500033"><ele>113.00000000000001</ele><time>2026-04-16T17:16:08.027Z</time></trkpt><trkpt lat="43.641005351292904" lon="11.166550123010268"><ele>113.00000000000001</ele><time>2026-04-16T17:16:10.027Z</time></trkpt><trkpt lat="43.64107080046966" lon="11.166457635631648"><ele>113.0</ele><time>2026-04-16T17:16:12.027Z</time></trkpt><trkpt lat="43.64114931796986" lon="11.166364742360223"><ele>113.0</ele><time>2026-04-16T17:16:14.027Z</time></trkpt><trkpt lat="43.64122473237589" lon="11.166274221194858"><ele>112.80000000000001</ele><time>2026-04-16T17:16:16.027Z</time></trkpt><trkpt lat="43.64129905297079" lon="11.16619365125121"><ele>112.60000000000001</ele><time>2026-04-16T17:16:18.027Z</time></trkpt><trkpt lat="43.64138290553322" lon="11.166123748298224"><ele>112.39999999999999</ele><time>2026-04-16T17:16:20.027Z</time></trkpt><trkpt lat="43.64145672716135" lon="11.166039598845675"><ele>112.19999999999999</ele><time>2026-04-16T17:16:22.027Z</time></trkpt><trkpt lat="43.64152783650563" lon="11.165959823775935"><ele>112.0</ele><time>2026-04-16T17:16:24.027Z</time></trkpt><trkpt lat="43.6416087444385" lon="11.165877724883675"><ele>112.0</ele><time>2026-04-16T17:16:26.027Z</time></trkpt><trkpt lat="43.64169409544532" lon="11.165799720610828"><ele>111.99999999999999</ele><time>2026-04-16T17:16:28.027Z</time></trkpt><trkpt lat="43.64177770516542" lon="11.165729889255097"><ele>111.99999999999999</ele><time>2026-04-16T17:16:30.027Z</time></trkpt><trkpt lat="43.641875514105756" lon="11.165660776742797"><ele>112.0</ele><time>2026-04-16T17:16:32.027Z</time></trkpt><trkpt lat="43.64195566918516" lon="11.165608233974245"><ele>112.0</ele><time>2026-04-16T17:16:34.027Z</time></trkpt><trkpt lat="43.64203848608011" lon="11.165560293191803"><ele>112.16666666666667</ele><time>2026-04-16T17:16:36.027Z</time></trkpt><trkpt lat="43.642114610288935" lon="11.165516474087946"><ele>112.33333333333334</ele><time>2026-04-16T17:16:38.027Z</time></trkpt><trkpt lat="43.6421880397204" lon="11.165472928438232"><ele>112.5</ele><time>2026-04-16T17:16:40.027Z</time></trkpt><trkpt lat="43.64226477304269" lon="11.165438293024971"><ele>112.66666666666666</ele><time>2026-04-16T17:16:42.027Z</time></trkpt><trkpt lat="43.64234467098939" lon="11.165394662198773"><ele>112.83333333333333</ele><time>2026-04-16T17:16:44.027Z</time></trkpt><trkpt lat="43.642416168960146" lon="11.165358960338903"><ele>113.0</ele><time>2026-04-16T17:16:46.027Z</time></trkpt><trkpt lat="43.64249804088675" lon="11.165330048152542"><ele>112.99999999999999</ele><time>2026-04-16T17:16:48.027Z</time></trkpt><trkpt lat="43.64257960372984" lon="11.16529197892905"><ele>113.0</ele><time>2026-04-16T17:16:50.027Z</time></trkpt><trkpt lat="43.64264642441844" lon="11.16525868527621"><ele>113.0</ele><time>2026-04-16T17:16:52.027Z</time></trkpt><trkpt lat="43.64271790719792" lon="11.165221910500023"><ele>113.0</ele><time>2026-04-16T17:16:54.027Z</time></trkpt><trkpt lat="43.642804828519054" lon="11.165180153988825"><ele>112.99999999999999</ele><time>2026-04-16T17:16:56.027Z</time></trkpt><trkpt lat="43.64288917204739" lon="11.165130428752851"><ele>113.0</ele><time>2026-04-16T17:16:58.027Z</time></trkpt><trkpt lat="43.64297346103202" lon="11.165089098412325"><ele>112.99999999999999</ele><time>2026-04-16T17:17:00.028Z</time></trkpt><trkpt lat="43.643057163271884" lon="11.165039114199825"><ele>113.0</ele><time>2026-04-16T17:17:02.027Z</time></trkpt><trkpt lat="43.64313832001743" lon="11.165015046729803"><ele>113.0</ele><time>2026-04-16T17:17:04.027Z</time></trkpt><trkpt lat="43.64321549352713" lon="11.164990481418831"><ele>113.0</ele><time>2026-04-16T17:17:06.027Z</time></trkpt><trkpt lat="43.6432825627742" lon="11.164966602775603"><ele>112.99999999999999</ele><time>2026-04-16T17:17:08.027Z</time></trkpt><trkpt lat="43.64335620143495" lon="11.164951219124339"><ele>113.0</ele><time>2026-04-16T17:17:10.027Z</time></trkpt><trkpt lat="43.64344281381754" lon="11.164905582856377"><ele>112.83333333333333</ele><time>2026-04-16T17:17:12.027Z</time></trkpt><trkpt lat="43.643525403345116" lon="11.164861670772819"><ele>112.66666666666666</ele><time>2026-04-16T17:17:14.027Z</time></trkpt><trkpt lat="43.64359512661166" lon="11.164814928686981"><ele>112.5</ele><time>2026-04-16T17:17:16.027Z</time></trkpt><trkpt lat="43.64366150833151" lon="11.164753804132939"><ele>112.33333333333334</ele><time>2026-04-16T17:17:18.027Z</time></trkpt><trkpt lat="43.643732275685515" lon="11.164696914423006"><ele>112.16666666666667</ele><time>2026-04-16T17:17:20.027Z</time></trkpt><trkpt lat="43.64380480228736" lon="11.16463678795889"><ele>112.0</ele><time>2026-04-16T17:17:22.027Z</time></trkpt><trkpt lat="43.64389598560017" lon="11.164599412840115"><ele>112.00000000000001</ele><time>2026-04-16T17:17:24.027Z</time></trkpt><trkpt lat="43.643978823674296" lon="11.164576006348689"><ele>112.0</ele><time>2026-04-16T17:17:26.027Z</time></trkpt><trkpt lat="43.64405235638898" lon="11.164551603451782"><ele>112.0</ele><time>2026-04-16T17:17:28.027Z</time></trkpt><trkpt lat="43.64413809496839" lon="11.164529116430392"><ele>112.0</ele><time>2026-04-16T17:17:30.027Z</time></trkpt><trkpt lat="43.64422673089367" lon="11.164505013287263"><ele>112.00000000000001</ele><time>2026-04-16T17:17:32.027Z</time></trkpt><trkpt lat="43.64431025160765" lon="11.164488629564389"><ele>112.0</ele><time>2026-04-16T17:17:34.027Z</time></trkpt><trkpt lat="43.644382785794946" lon="11.164461939987353"><ele>112.00000000000001</ele><time>2026-04-16T17:17:36.027Z</time></trkpt><trkpt lat="43.64445593917222" lon="11.164441706623936"><ele>112.0</ele><time>2026-04-16T17:17:38.027Z</time></trkpt><trkpt lat="43.644544576478225" lon="11.164416075785216"><ele>112.0</ele><time>2026-04-16T17:17:41.027Z</time></trkpt><trkpt lat="43.64463358787235" lon="11.164397869998801"><ele>112.0</ele><time>2026-04-16T17:17:44.027Z</time></trkpt><trkpt lat="43.64471428905461" lon="11.164394174986667"><ele>112.00000000000001</ele><time>2026-04-16T17:17:46.027Z</time></trkpt><trkpt lat="43.64479102612964" lon="11.16438290265467"><ele>112.0</ele><time>2026-04-16T17:17:48.027Z</time></trkpt><trkpt lat="43.64486932208202" lon="11.164364263751054"><ele>112.0</ele><time>2026-04-16T17:17:50.027Z</time></trkpt><trkpt lat="43.644946404330284" lon="11.164368117627296"><ele>112.0</ele><time>2026-04-16T17:17:52.027Z</time></trkpt><trkpt lat="43.64501521160166" lon="11.1643657258938"><ele>112.0</ele><time>2026-04-16T17:17:54.027Z</time></trkpt><trkpt lat="43.64509927164973" lon="11.164364383914199"><ele>112.0</ele><time>2026-04-16T17:17:57.027Z</time></trkpt><trkpt lat="43.64517341820433" lon="11.164359372743172"><ele>112.0</ele><time>2026-04-16T17:18:00.027Z</time></trkpt><trkpt lat="43.64523708896495" lon="11.16433445262724"><ele>112.0</ele><time>2026-04-16T17:18:04.027Z</time></trkpt><trkpt lat="43.64530338609891" lon="11.164339363521593"><ele>112.0</ele><time>2026-04-16T17:18:08.027Z</time></trkpt><trkpt lat="43.64537001613814" lon="11.16433388552319"><ele>112.28571428571428</ele><time>2026-04-16T17:18:11.028Z</time></trkpt><trkpt lat="43.64545712192833" lon="11.164317208192738"><ele>112.57142857142857</ele><time>2026-04-16T17:18:15.028Z</time></trkpt><trkpt lat="43.64553062791099" lon="11.164313456280263"><ele>112.85714285714286</ele><time>2026-04-16T17:18:17.028Z</time></trkpt><trkpt lat="43.6456073848347" lon="11.164308709426644"><ele>113.14285714285714</ele><time>2026-04-16T17:18:19.028Z</time></trkpt><trkpt lat="43.645676319549956" lon="11.164361090865135"><ele>113.42857142857142</ele><time>2026-04-16T17:18:23.028Z</time></trkpt><trkpt lat="43.64570884447649" lon="11.164441510850432"><ele>113.71428571428571</ele><time>2026-04-16T17:18:26.028Z</time></trkpt><trkpt lat="43.64572676226203" lon="11.164528951017042"><ele>114.0</ele><time>2026-04-16T17:18:29.028Z</time></trkpt><trkpt lat="43.64575395709143" lon="11.164625661655336"><ele>114.0</ele><time>2026-04-16T17:18:33.028Z</time></trkpt><trkpt lat="43.64586156754942" lon="11.16462619461397"><ele>114.0</ele><time>2026-04-16T17:20:14.029Z</time></trkpt><trkpt lat="43.64590179499857" lon="11.1645314399576"><ele>114.0</ele><time>2026-04-16T17:20:17.029Z</time></trkpt><trkpt lat="43.64591741347934" lon="11.164424697571251"><ele>114.0</ele><time>2026-04-16T17:20:19.029Z</time></trkpt><trkpt lat="43.64594124750993" lon="11.164279761486586"><ele>114.0</ele><time>2026-04-16T17:20:21.029Z</time></trkpt><trkpt lat="43.64598055777449" lon="11.164202416740926"><ele>114.0</ele><time>2026-04-16T17:20:22.029Z</time></trkpt><trkpt lat="43.646044909676995" lon="11.164149640988942"><ele>114.0</ele><time>2026-04-16T17:20:23.029Z</time></trkpt><trkpt lat="43.646113922722485" lon="11.16413127958426"><ele>114.0</ele><time>2026-04-16T17:20:24.029Z</time></trkpt><trkpt lat="43.646185728099645" lon="11.16412859093283"><ele>114.0</ele><time>2026-04-16T17:20:25.029Z</time></trkpt><trkpt lat="43.64625084501654" lon="11.164130046668085"><ele>114.0</ele><time>2026-04-16T17:20:26.029Z</time></trkpt><trkpt lat="43.64638826786428" lon="11.164118550203648"><ele>114.0</ele><time>2026-04-16T17:20:28.029Z</time></trkpt><trkpt lat="43.646456797728476" lon="11.16410960523814"><ele>114.0</ele><time>2026-04-16T17:20:29.029Z</time></trkpt><trkpt lat="43.64652273613023" lon="11.164087085471822"><ele>113.83333333333333</ele><time>2026-04-16T17:20:30.029Z</time></trkpt><trkpt lat="43.646587925359775" lon="11.16405562903568"><ele>113.66666666666666</ele><time>2026-04-16T17:20:31.029Z</time></trkpt><trkpt lat="43.64665002334489" lon="11.164025868532933"><ele>113.5</ele><time>2026-04-16T17:20:32.029Z</time></trkpt><trkpt lat="43.64670723046467" lon="11.163986921064122"><ele>113.33333333333333</ele><time>2026-04-16T17:20:33.029Z</time></trkpt><trkpt lat="43.64676693755167" lon="11.163945587837729"><ele>113.16666666666666</ele><time>2026-04-16T17:20:34.029Z</time></trkpt><trkpt lat="43.646877235384366" lon="11.163850807778042"><ele>113.0</ele><time>2026-04-16T17:20:36.029Z</time></trkpt><trkpt lat="43.646974071461685" lon="11.163763409205304"><ele>112.80000000000001</ele><time>2026-04-16T17:20:38.029Z</time></trkpt><trkpt lat="43.6470780082066" lon="11.163666549278"><ele>112.60000000000001</ele><time>2026-04-16T17:20:40.029Z</time></trkpt><trkpt lat="43.64717324082882" lon="11.16356820789501"><ele>112.39999999999999</ele><time>2026-04-16T17:20:42.029Z</time></trkpt><trkpt lat="43.647262933101004" lon="11.163491156466485"><ele>112.19999999999999</ele><time>2026-04-16T17:20:44.029Z</time></trkpt><trkpt lat="43.64734044703091" lon="11.163418096841825"><ele>112.0</ele><time>2026-04-16T17:20:46.029Z</time></trkpt><trkpt lat="43.64741249720141" lon="11.163366789371096"><ele>112.0</ele><time>2026-04-16T17:20:48.029Z</time></trkpt><trkpt lat="43.647478442237926" lon="11.163302407394092"><ele>111.99999999999999</ele><time>2026-04-16T17:20:50.029Z</time></trkpt><trkpt lat="43.64755217054998" lon="11.16321528595505"><ele>111.99999999999999</ele><time>2026-04-16T17:20:52.029Z</time></trkpt><trkpt lat="43.64761879529617" lon="11.163124892234537"><ele>112.0</ele><time>2026-04-16T17:20:54.029Z</time></trkpt><trkpt lat="43.64769314555326" lon="11.163050842044715"><ele>112.0</ele><time>2026-04-16T17:20:56.029Z</time></trkpt><trkpt lat="43.64775994130749" lon="11.162961513761575"><ele>112.00000000000001</ele><time>2026-04-16T17:20:58.029Z</time></trkpt><trkpt lat="43.64782825726997" lon="11.162888621096403"><ele>112.0</ele><time>2026-04-16T17:21:00.03Z</time></trkpt><trkpt lat="43.64789171829031" lon="11.162808187561579"><ele>112.0</ele><time>2026-04-16T17:21:02.029Z</time></trkpt><trkpt lat="43.64795007576655" lon="11.162728177060183"><ele>112.0</ele><time>2026-04-16T17:21:04.03Z</time></trkpt><trkpt lat="43.64801396592717" lon="11.162653395291363"><ele>112.00000000000001</ele><time>2026-04-16T17:21:06.03Z</time></trkpt><trkpt lat="43.64807906954132" lon="11.16257547467111"><ele>112.0</ele><time>2026-04-16T17:21:08.029Z</time></trkpt><trkpt lat="43.64814387673341" lon="11.162483041255815"><ele>112.00000000000001</ele><time>2026-04-16T17:21:10.03Z</time></trkpt><trkpt lat="43.64819520660733" lon="11.162387617319327"><ele>112.0</ele><time>2026-04-16T17:21:12.03Z</time></trkpt><trkpt lat="43.648256880718364" lon="11.162307907620583"><ele>112.0</ele><time>2026-04-16T17:21:14.03Z</time></trkpt><trkpt lat="43.648316125808584" lon="11.162228587165652"><ele>112.0</ele><time>2026-04-16T17:21:16.03Z</time></trkpt><trkpt lat="43.64837556548587" lon="11.162143942280732"><ele>112.00000000000001</ele><time>2026-04-16T17:21:18.03Z</time></trkpt><trkpt lat="43.64843656955749" lon="11.162069609444977"><ele>112.0</ele><time>2026-04-16T17:21:20.03Z</time></trkpt><trkpt lat="43.648498449247136" lon="11.161983243798286"><ele>111.66666666666667</ele><time>2026-04-16T17:21:22.03Z</time></trkpt><trkpt lat="43.64854666619646" lon="11.161896486768994"><ele>111.33333333333334</ele><time>2026-04-16T17:21:24.03Z</time></trkpt><trkpt lat="43.64861516093381" lon="11.161789467215566"><ele>111.0</ele><time>2026-04-16T17:21:26.03Z</time></trkpt><trkpt lat="43.64866794686863" lon="11.16168967099767"><ele>110.66666666666666</ele><time>2026-04-16T17:21:28.03Z</time></trkpt><trkpt lat="43.648720075366136" lon="11.161588211126643"><ele>110.33333333333333</ele><time>2026-04-16T17:21:30.03Z</time></trkpt><trkpt lat="43.648771451701194" lon="11.161495065123043"><ele>110.0</ele><time>2026-04-16T17:21:32.03Z</time></trkpt><trkpt lat="43.64881735498643" lon="11.161391834700307"><ele>109.8</ele><time>2026-04-16T17:21:34.03Z</time></trkpt><trkpt lat="43.648870023848794" lon="11.161279672265014"><ele>109.6</ele><time>2026-04-16T17:21:36.03Z</time></trkpt><trkpt lat="43.64893202532883" lon="11.161169343408476"><ele>109.4</ele><time>2026-04-16T17:21:38.03Z</time></trkpt><trkpt lat="43.648990525090035" lon="11.161055068302048"><ele>109.2</ele><time>2026-04-16T17:21:40.03Z</time></trkpt><trkpt lat="43.649043295736924" lon="11.160932999651742"><ele>109.0</ele><time>2026-04-16T17:21:42.03Z</time></trkpt><trkpt lat="43.649094413563596" lon="11.16081537207586"><ele>108.80000000000001</ele><time>2026-04-16T17:21:44.03Z</time></trkpt><trkpt lat="43.64915577060275" lon="11.160699100416187"><ele>108.60000000000001</ele><time>2026-04-16T17:21:46.03Z</time></trkpt><trkpt lat="43.64922392556605" lon="11.160585385151972"><ele>108.4</ele><time>2026-04-16T17:21:48.03Z</time></trkpt><trkpt lat="43.649292590474715" lon="11.160464027354815"><ele>108.2</ele><time>2026-04-16T17:21:50.03Z</time></trkpt><trkpt lat="43.64935728175735" lon="11.160338205860228"><ele>108.0</ele><time>2026-04-16T17:21:52.03Z</time></trkpt><trkpt lat="43.649421704963125" lon="11.160214672597725"><ele>107.75</ele><time>2026-04-16T17:21:54.03Z</time></trkpt><trkpt lat="43.64949207902889" lon="11.160092515688403"><ele>107.5</ele><time>2026-04-16T17:21:56.03Z</time></trkpt><trkpt lat="43.6495626849399" lon="11.159966974382042"><ele>107.25</ele><time>2026-04-16T17:21:58.03Z</time></trkpt><trkpt lat="43.649631934777425" lon="11.159841535428368"><ele>107.0</ele><time>2026-04-16T17:22:00.03Z</time></trkpt><trkpt lat="43.64969906765231" lon="11.159719099205418"><ele>107.0</ele><time>2026-04-16T17:22:02.03Z</time></trkpt><trkpt lat="43.64976886372055" lon="11.159596291685329"><ele>106.99999999999999</ele><time>2026-04-16T17:22:04.03Z</time></trkpt><trkpt lat="43.64983691716356" lon="11.159475043069094"><ele>106.99999999999999</ele><time>2026-04-16T17:22:06.03Z</time></trkpt><trkpt lat="43.649900158629464" lon="11.15935322723201"><ele>107.0</ele><time>2026-04-16T17:22:08.03Z</time></trkpt><trkpt lat="43.64996260096345" lon="11.159223961628664"><ele>107.0</ele><time>2026-04-16T17:22:10.03Z</time></trkpt><trkpt lat="43.650011782422574" lon="11.159090959398128"><ele>107.0</ele><time>2026-04-16T17:22:12.03Z</time></trkpt><trkpt lat="43.65004888662119" lon="11.158952322140522"><ele>106.99999999999999</ele><time>2026-04-16T17:22:14.03Z</time></trkpt><trkpt lat="43.65007375204072" lon="11.158813940203569"><ele>106.99999999999999</ele><time>2026-04-16T17:22:16.03Z</time></trkpt><trkpt lat="43.65009980059392" lon="11.158670415698154"><ele>107.0</ele><time>2026-04-16T17:22:18.03Z</time></trkpt><trkpt lat="43.65012846134725" lon="11.158526463673205"><ele>107.0</ele><time>2026-04-16T17:22:20.03Z</time></trkpt><trkpt lat="43.65015314723573" lon="11.158384094996844"><ele>107.0</ele><time>2026-04-16T17:22:22.03Z</time></trkpt><trkpt lat="43.65017488059878" lon="11.158243270689757"><ele>106.99999999999999</ele><time>2026-04-16T17:22:24.031Z</time></trkpt><trkpt lat="43.650197404598096" lon="11.158098336096703"><ele>106.99999999999999</ele><time>2026-04-16T17:22:26.031Z</time></trkpt><trkpt lat="43.650215514900594" lon="11.1579554965882"><ele>107.0</ele><time>2026-04-16T17:22:28.031Z</time></trkpt><trkpt lat="43.65024895951523" lon="11.157809168065748"><ele>107.0</ele><time>2026-04-16T17:22:30.031Z</time></trkpt><trkpt lat="43.650303734411615" lon="11.157674569003657"><ele>107.0</ele><time>2026-04-16T17:22:32.031Z</time></trkpt><trkpt lat="43.650369502038366" lon="11.157556083068128"><ele>106.99999999999999</ele><time>2026-04-16T17:22:34.031Z</time></trkpt><trkpt lat="43.65044112470163" lon="11.157436767552712"><ele>106.99999999999999</ele><time>2026-04-16T17:22:36.031Z</time></trkpt><trkpt lat="43.650512402276995" lon="11.15731663762174"><ele>107.0</ele><time>2026-04-16T17:22:38.031Z</time></trkpt><trkpt lat="43.650581354174136" lon="11.157188213482506"><ele>107.0</ele><time>2026-04-16T17:22:40.031Z</time></trkpt><trkpt lat="43.6506561233317" lon="11.157066519942237"><ele>106.8</ele><time>2026-04-16T17:22:42.031Z</time></trkpt><trkpt lat="43.65072004319238" lon="11.156931665441164"><ele>106.6</ele><time>2026-04-16T17:22:44.031Z</time></trkpt><trkpt lat="43.650777464024536" lon="11.156804013228196"><ele>106.39999999999999</ele><time>2026-04-16T17:22:46.031Z</time></trkpt><trkpt lat="43.65085534792265" lon="11.156688606545012"><ele>106.19999999999999</ele><time>2026-04-16T17:22:48.031Z</time></trkpt><trkpt lat="43.65092306330754" lon="11.156575571573606"><ele>106.0</ele><time>2026-04-16T17:22:50.031Z</time></trkpt><trkpt lat="43.65098947618621" lon="11.156451115633951"><ele>105.8</ele><time>2026-04-16T17:22:52.031Z</time></trkpt><trkpt lat="43.65105148998193" lon="11.156324404161351"><ele>105.6</ele><time>2026-04-16T17:22:54.031Z</time></trkpt><trkpt lat="43.651114784954096" lon="11.156205128098469"><ele>105.4</ele><time>2026-04-16T17:22:56.031Z</time></trkpt><trkpt lat="43.65116503328027" lon="11.156070587339663"><ele>105.2</ele><time>2026-04-16T17:22:58.031Z</time></trkpt><trkpt lat="43.65121490204644" lon="11.155938079510685"><ele>105.0</ele><time>2026-04-16T17:23:00.031Z</time></trkpt><trkpt lat="43.651280247413915" lon="11.155821974318384"><ele>105.2</ele><time>2026-04-16T17:23:02.031Z</time></trkpt><trkpt lat="43.65135528907409" lon="11.155719158189012"><ele>105.4</ele><time>2026-04-16T17:23:04.031Z</time></trkpt><trkpt lat="43.6514333067303" lon="11.155625359449695"><ele>105.6</ele><time>2026-04-16T17:23:06.031Z</time></trkpt><trkpt lat="43.65151587133311" lon="11.155533239137295"><ele>105.8</ele><time>2026-04-16T17:23:08.031Z</time></trkpt><trkpt lat="43.651593363962235" lon="11.155445778669865"><ele>106.0</ele><time>2026-04-16T17:23:10.031Z</time></trkpt><trkpt lat="43.65167311127199" lon="11.15536429923059"><ele>106.0</ele><time>2026-04-16T17:23:12.031Z</time></trkpt><trkpt lat="43.65175425321923" lon="11.155287450071265"><ele>106.0</ele><time>2026-04-16T17:23:14.03Z</time></trkpt><trkpt lat="43.65183405220508" lon="11.155209669078802"><ele>106.0</ele><time>2026-04-16T17:23:16.03Z</time></trkpt><trkpt lat="43.65190517064305" lon="11.155125998228025"><ele>106.0</ele><time>2026-04-16T17:23:18.031Z</time></trkpt><trkpt lat="43.65197397818964" lon="11.155045109411052"><ele>106.0</ele><time>2026-04-16T17:23:20.031Z</time></trkpt><trkpt lat="43.652035793886974" lon="11.154952381826073"><ele>106.0</ele><time>2026-04-16T17:23:22.031Z</time></trkpt><trkpt lat="43.6520865003243" lon="11.154841564395555"><ele>106.0</ele><time>2026-04-16T17:23:24.031Z</time></trkpt><trkpt lat="43.652126012305395" lon="11.15473241928725"><ele>106.0</ele><time>2026-04-16T17:23:26.031Z</time></trkpt><trkpt lat="43.65216455172018" lon="11.154616347571855"><ele>106.0</ele><time>2026-04-16T17:23:28.031Z</time></trkpt><trkpt lat="43.65221671921155" lon="11.154503853676102"><ele>106.0</ele><time>2026-04-16T17:23:30.031Z</time></trkpt><trkpt lat="43.65227268983368" lon="11.154395007005483"><ele>106.0</ele><time>2026-04-16T17:23:32.031Z</time></trkpt><trkpt lat="43.652344462817716" lon="11.154306211931042"><ele>106.0</ele><time>2026-04-16T17:23:34.031Z</time></trkpt><trkpt lat="43.6524263075375" lon="11.154226045386723"><ele>106.0</ele><time>2026-04-16T17:23:36.031Z</time></trkpt><trkpt lat="43.652514750657744" lon="11.154160752255054"><ele>106.0</ele><time>2026-04-16T17:23:38.031Z</time></trkpt><trkpt lat="43.65260034786245" lon="11.154101698518057"><ele>106.0</ele><time>2026-04-16T17:23:40.031Z</time></trkpt><trkpt lat="43.65267870963375" lon="11.1540334358843"><ele>105.4</ele><time>2026-04-16T17:23:42.031Z</time></trkpt><trkpt lat="43.65275443743425" lon="11.153960356049222"><ele>104.8</ele><time>2026-04-16T17:23:44.031Z</time></trkpt><trkpt lat="43.6528241790499" lon="11.153875797445787"><ele>104.2</ele><time>2026-04-16T17:23:46.031Z</time></trkpt><trkpt lat="43.652894402619175" lon="11.15378177445582"><ele>103.60000000000001</ele><time>2026-04-16T17:23:48.031Z</time></trkpt><trkpt lat="43.65297769780165" lon="11.153634393170282"><ele>103.0</ele><time>2026-04-16T17:23:51.031Z</time></trkpt><trkpt lat="43.65301293311849" lon="11.15350935074927"><ele>103.0</ele><time>2026-04-16T17:23:53.031Z</time></trkpt><trkpt lat="43.65305120416861" lon="11.153379995928715"><ele>103.0</ele><time>2026-04-16T17:23:55.031Z</time></trkpt><trkpt lat="43.65308426197238" lon="11.153248897054949"><ele>103.0</ele><time>2026-04-16T17:23:57.031Z</time></trkpt><trkpt lat="43.65312215987078" lon="11.153128699237547"><ele>103.0</ele><time>2026-04-16T17:23:59.031Z</time></trkpt><trkpt lat="43.653159512557714" lon="11.15301513866671"><ele>103.0</ele><time>2026-04-16T17:24:01.031Z</time></trkpt><trkpt lat="43.6532088613943" lon="11.152903874052553"><ele>102.60000000000001</ele><time>2026-04-16T17:24:03.031Z</time></trkpt><trkpt lat="43.65326408216288" lon="11.152796068778649"><ele>102.2</ele><time>2026-04-16T17:24:05.031Z</time></trkpt><trkpt lat="43.65333742348875" lon="11.152691500189926"><ele>101.8</ele><time>2026-04-16T17:24:07.031Z</time></trkpt><trkpt lat="43.65339999805544" lon="11.152594367103895"><ele>101.4</ele><time>2026-04-16T17:24:09.031Z</time></trkpt><trkpt lat="43.65346268032222" lon="11.15249770749046"><ele>101.0</ele><time>2026-04-16T17:24:11.031Z</time></trkpt><trkpt lat="43.65352546689039" lon="11.152406093758422"><ele>101.19999999999999</ele><time>2026-04-16T17:24:13.031Z</time></trkpt><trkpt lat="43.65358794091948" lon="11.152304739124688"><ele>101.39999999999999</ele><time>2026-04-16T17:24:15.032Z</time></trkpt><trkpt lat="43.653651086444356" lon="11.152213924917493"><ele>101.6</ele><time>2026-04-16T17:24:17.032Z</time></trkpt><trkpt lat="43.653708704098285" lon="11.152112803772841"><ele>101.8</ele><time>2026-04-16T17:24:19.032Z</time></trkpt><trkpt lat="43.65377707117614" lon="11.152002371593847"><ele>102.0</ele><time>2026-04-16T17:24:21.032Z</time></trkpt><trkpt lat="43.653839716936126" lon="11.151884634405027"><ele>102.0</ele><time>2026-04-16T17:24:23.032Z</time></trkpt><trkpt lat="43.653897354106114" lon="11.151774060744795"><ele>102.0</ele><time>2026-04-16T17:24:25.032Z</time></trkpt><trkpt lat="43.653958762568045" lon="11.151662530526599"><ele>102.0</ele><time>2026-04-16T17:24:27.032Z</time></trkpt><trkpt lat="43.654011208859124" lon="11.151555435029175"><ele>102.0</ele><time>2026-04-16T17:24:29.032Z</time></trkpt><trkpt lat="43.65405663998255" lon="11.151461636071508"><ele>102.0</ele><time>2026-04-16T17:24:31.032Z</time></trkpt><trkpt lat="43.654104382303515" lon="11.15137277349083"><ele>102.0</ele><time>2026-04-16T17:24:33.032Z</time></trkpt><trkpt lat="43.654163094006414" lon="11.151292896864376"><ele>102.0</ele><time>2026-04-16T17:24:35.032Z</time></trkpt><trkpt lat="43.65421365798289" lon="11.151180788048368"><ele>102.0</ele><time>2026-04-16T17:24:37.032Z</time></trkpt><trkpt lat="43.65427369273894" lon="11.151093349426748"><ele>102.0</ele><time>2026-04-16T17:24:39.032Z</time></trkpt><trkpt lat="43.65433760957973" lon="11.15100223251003"><ele>102.0</ele><time>2026-04-16T17:24:41.032Z</time></trkpt><trkpt lat="43.65441489651893" lon="11.150935845558235"><ele>102.0</ele><time>2026-04-16T17:24:43.032Z</time></trkpt><trkpt lat="43.6544777396339" lon="11.150889937480851"><ele>102.0</ele><time>2026-04-16T17:24:45.032Z</time></trkpt><trkpt lat="43.6545412747243" lon="11.150841844874181"><ele>102.0</ele><time>2026-04-16T17:24:47.032Z</time></trkpt><trkpt lat="43.65460404591527" lon="11.150748478162358"><ele>102.0</ele><time>2026-04-16T17:24:49.032Z</time></trkpt><trkpt lat="43.654660429573056" lon="11.15067103475016"><ele>102.0</ele><time>2026-04-16T17:24:51.032Z</time></trkpt><trkpt lat="43.65472035237578" lon="11.150602158802782"><ele>102.0</ele><time>2026-04-16T17:24:53.032Z</time></trkpt><trkpt lat="43.654774807632215" lon="11.150546849237633"><ele>102.0</ele><time>2026-04-16T17:24:55.032Z</time></trkpt><trkpt lat="43.65483064408079" lon="11.150458640427926"><ele>102.0</ele><time>2026-04-16T17:24:58.032Z</time></trkpt><trkpt lat="43.65488537881001" lon="11.15040085527571"><ele>102.0</ele><time>2026-04-16T17:25:00.032Z</time></trkpt><trkpt lat="43.65493437242527" lon="11.150345848155252"><ele>102.0</ele><time>2026-04-16T17:25:02.032Z</time></trkpt><trkpt lat="43.65499434778655" lon="11.150284157412695"><ele>102.0</ele><time>2026-04-16T17:25:04.032Z</time></trkpt><trkpt lat="43.65505290596379" lon="11.150211889228787"><ele>102.0</ele><time>2026-04-16T17:25:06.032Z</time></trkpt><trkpt lat="43.65511427452176" lon="11.150140283326092"><ele>102.0</ele><time>2026-04-16T17:25:08.032Z</time></trkpt><trkpt lat="43.655167307183156" lon="11.150065385019714"><ele>102.0</ele><time>2026-04-16T17:25:10.032Z</time></trkpt><trkpt lat="43.6552222502683" lon="11.149986776758672"><ele>102.0</ele><time>2026-04-16T17:25:12.032Z</time></trkpt><trkpt lat="43.655272654492144" lon="11.149892554450318"><ele>102.0</ele><time>2026-04-16T17:25:14.032Z</time></trkpt><trkpt lat="43.65532924429506" lon="11.149804488578512"><ele>102.0</ele><time>2026-04-16T17:25:16.032Z</time></trkpt><trkpt lat="43.65539585438732" lon="11.149724199314369"><ele>102.0</ele><time>2026-04-16T17:25:18.031Z</time></trkpt><trkpt lat="43.655466915479316" lon="11.149658210986217"><ele>102.0</ele><time>2026-04-16T17:25:20.032Z</time></trkpt><trkpt lat="43.655533681107414" lon="11.149593176923515"><ele>102.0</ele><time>2026-04-16T17:25:22.031Z</time></trkpt><trkpt lat="43.65560327740563" lon="11.149529722593076"><ele>101.5</ele><time>2026-04-16T17:25:24.032Z</time></trkpt><trkpt lat="43.65567604299392" lon="11.149466843372037"><ele>101.0</ele><time>2026-04-16T17:25:26.031Z</time></trkpt><trkpt lat="43.65573549949499" lon="11.14939845478399"><ele>100.5</ele><time>2026-04-16T17:25:28.031Z</time></trkpt><trkpt lat="43.655796496179335" lon="11.149327289688332"><ele>100.0</ele><time>2026-04-16T17:25:30.031Z</time></trkpt><trkpt lat="43.65585324012928" lon="11.149241351172073"><ele>99.5</ele><time>2026-04-16T17:25:33.031Z</time></trkpt><trkpt lat="43.655915889491865" lon="11.14920304641357"><ele>99.0</ele><time>2026-04-16T17:25:35.031Z</time></trkpt><trkpt lat="43.65597736521377" lon="11.149136111801836"><ele>99.0</ele><time>2026-04-16T17:25:37.031Z</time></trkpt><trkpt lat="43.65604538732518" lon="11.149064558740362"><ele>99.0</ele><time>2026-04-16T17:25:39.031Z</time></trkpt><trkpt lat="43.65612601231402" lon="11.14899154807195"><ele>99.0</ele><time>2026-04-16T17:25:41.031Z</time></trkpt><trkpt lat="43.656214207189784" lon="11.148919835107316"><ele>99.0</ele><time>2026-04-16T17:25:43.031Z</time></trkpt><trkpt lat="43.6562954902212" lon="11.148839941340405"><ele>99.0</ele><time>2026-04-16T17:25:45.031Z</time></trkpt><trkpt lat="43.656365878675054" lon="11.148739588598803"><ele>99.0</ele><time>2026-04-16T17:25:47.031Z</time></trkpt><trkpt lat="43.65642892922766" lon="11.148643857537088"><ele>99.0</ele><time>2026-04-16T17:25:49.031Z</time></trkpt><trkpt lat="43.65647911607112" lon="11.148546872038512"><ele>99.0</ele><time>2026-04-16T17:25:51.031Z</time></trkpt><trkpt lat="43.65655055021546" lon="11.148478331891395"><ele>99.0</ele><time>2026-04-16T17:25:53.031Z</time></trkpt><trkpt lat="43.65662272020463" lon="11.148409656975266"><ele>99.0</ele><time>2026-04-16T17:25:55.032Z</time></trkpt><trkpt lat="43.65669949331534" lon="11.14835066537392"><ele>99.0</ele><time>2026-04-16T17:25:57.032Z</time></trkpt><trkpt lat="43.656756826420896" lon="11.148268546804625"><ele>99.0</ele><time>2026-04-16T17:25:59.032Z</time></trkpt><trkpt lat="43.656818254428565" lon="11.14817851344107"><ele>99.0</ele><time>2026-04-16T17:26:01.032Z</time></trkpt><trkpt lat="43.65688353008724" lon="11.148074456239447"><ele>99.0</ele><time>2026-04-16T17:26:03.032Z</time></trkpt><trkpt lat="43.656927294223166" lon="11.14796252059491"><ele>99.0</ele><time>2026-04-16T17:26:05.032Z</time></trkpt><trkpt lat="43.65695263154321" lon="11.147854336710402"><ele>99.0</ele><time>2026-04-16T17:26:07.032Z</time></trkpt><trkpt lat="43.65697027539825" lon="11.147739796465565"><ele>99.0</ele><time>2026-04-16T17:26:09.032Z</time></trkpt><trkpt lat="43.65698556635459" lon="11.147623241006395"><ele>99.0</ele><time>2026-04-16T17:26:11.032Z</time></trkpt><trkpt lat="43.65700303426801" lon="11.147515399068896"><ele>99.0</ele><time>2026-04-16T17:26:13.032Z</time></trkpt><trkpt lat="43.65702049820366" lon="11.147405349358502"><ele>99.0</ele><time>2026-04-16T17:26:15.032Z</time></trkpt><trkpt lat="43.657041508891155" lon="11.14729461940338"><ele>99.0</ele><time>2026-04-16T17:26:17.032Z</time></trkpt><trkpt lat="43.657058097647784" lon="11.147173188333756"><ele>99.0</ele><time>2026-04-16T17:26:19.032Z</time></trkpt><trkpt lat="43.65707426800756" lon="11.147059611497088"><ele>99.0</ele><time>2026-04-16T17:26:21.032Z</time></trkpt><trkpt lat="43.65709744291356" lon="11.14694799519544"><ele>98.83333333333333</ele><time>2026-04-16T17:26:23.032Z</time></trkpt><trkpt lat="43.65711501995848" lon="11.146829399567958"><ele>98.66666666666666</ele><time>2026-04-16T17:26:25.032Z</time></trkpt><trkpt lat="43.657144934852745" lon="11.146736110215116"><ele>98.5</ele><time>2026-04-16T17:26:27.032Z</time></trkpt><trkpt lat="43.65715611956186" lon="11.146613866855935"><ele>98.33333333333333</ele><time>2026-04-16T17:26:29.032Z</time></trkpt><trkpt lat="43.657170716021085" lon="11.146502151673491"><ele>98.16666666666666</ele><time>2026-04-16T17:26:31.032Z</time></trkpt><trkpt lat="43.65721203417147" lon="11.146392711923284"><ele>98.0</ele><time>2026-04-16T17:26:33.032Z</time></trkpt><trkpt lat="43.65725248665078" lon="11.146265541241604"><ele>98.0</ele><time>2026-04-16T17:26:35.032Z</time></trkpt><trkpt lat="43.65728270189444" lon="11.146121958912401"><ele>98.0</ele><time>2026-04-16T17:26:37.032Z</time></trkpt><trkpt lat="43.65729354103223" lon="11.145975731746686"><ele>98.0</ele><time>2026-04-16T17:26:39.032Z</time></trkpt><trkpt lat="43.65730138691533" lon="11.145839871741025"><ele>98.0</ele><time>2026-04-16T17:26:41.032Z</time></trkpt><trkpt lat="43.65731106583778" lon="11.145698257772532"><ele>98.0</ele><time>2026-04-16T17:26:43.032Z</time></trkpt><trkpt lat="43.65730887010374" lon="11.145566681867821"><ele>98.2</ele><time>2026-04-16T17:26:45.032Z</time></trkpt><trkpt lat="43.657302499185974" lon="11.145421469036336"><ele>98.4</ele><time>2026-04-16T17:26:47.032Z</time></trkpt><trkpt lat="43.657341663375824" lon="11.145307047111263"><ele>98.60000000000001</ele><time>2026-04-16T17:26:49.032Z</time></trkpt><trkpt lat="43.65739288597332" lon="11.145207187792275"><ele>98.80000000000001</ele><time>2026-04-16T17:26:51.032Z</time></trkpt><trkpt lat="43.65743470286041" lon="11.145094587320346"><ele>99.0</ele><time>2026-04-16T17:26:53.032Z</time></trkpt><trkpt lat="43.65744861574724" lon="11.144971228928796"><ele>98.83333333333333</ele><time>2026-04-16T17:26:55.031Z</time></trkpt><trkpt lat="43.65749683659481" lon="11.144865640579287"><ele>98.66666666666666</ele><time>2026-04-16T17:26:57.027Z</time></trkpt><trkpt lat="43.657539885030836" lon="11.144773260687979"><ele>98.5</ele><time>2026-04-16T17:26:59.022Z</time></trkpt><trkpt lat="43.65759800116241" lon="11.144670969997378"><ele>98.33333333333333</ele><time>2026-04-16T17:27:01.019Z</time></trkpt><trkpt lat="43.657652508100625" lon="11.144578026816033"><ele>98.16666666666666</ele><time>2026-04-16T17:27:03.016Z</time></trkpt><trkpt lat="43.65772012206538" lon="11.144497864537636"><ele>98.0</ele><time>2026-04-16T17:27:05.013Z</time></trkpt><trkpt lat="43.657796957049136" lon="11.14440877111623"><ele>98.0</ele><time>2026-04-16T17:27:07.01Z</time></trkpt><trkpt lat="43.657874439200164" lon="11.144335820344676"><ele>98.0</ele><time>2026-04-16T17:27:09.008Z</time></trkpt><trkpt lat="43.65795313131557" lon="11.144248535792737"><ele>98.0</ele><time>2026-04-16T17:27:11.006Z</time></trkpt><trkpt lat="43.65802483543018" lon="11.144165256137732"><ele>98.0</ele><time>2026-04-16T17:27:13.005Z</time></trkpt><trkpt lat="43.65810014902768" lon="11.144078139772219"><ele>98.0</ele><time>2026-04-16T17:27:15.003Z</time></trkpt><trkpt lat="43.658169595181434" lon="11.143993647571822"><ele>98.0</ele><time>2026-04-16T17:27:17.002Z</time></trkpt><trkpt lat="43.65822966120969" lon="11.14388811141518"><ele>98.0</ele><time>2026-04-16T17:27:19.001Z</time></trkpt><trkpt lat="43.65828391396262" lon="11.143785040681237"><ele>98.0</ele><time>2026-04-16T17:27:21Z</time></trkpt><trkpt lat="43.65834097554282" lon="11.143692571198816"><ele>98.0</ele><time>2026-04-16T17:27:22.999Z</time></trkpt><trkpt lat="43.65838682077861" lon="11.143601334040005"><ele>98.0</ele><time>2026-04-16T17:27:24.998Z</time></trkpt><trkpt lat="43.65845231165511" lon="11.143512057491645"><ele>98.0</ele><time>2026-04-16T17:27:26.998Z</time></trkpt><trkpt lat="43.65851284323406" lon="11.143420668372308"><ele>98.0</ele><time>2026-04-16T17:27:28.996Z</time></trkpt><trkpt lat="43.658606050540044" lon="11.143368669163"><ele>98.0</ele><time>2026-04-16T17:27:30.996Z</time></trkpt><trkpt lat="43.6586977791553" lon="11.143317515448455"><ele>98.0</ele><time>2026-04-16T17:27:32.996Z</time></trkpt><trkpt lat="43.65878869027523" lon="11.143261953846004"><ele>98.0</ele><time>2026-04-16T17:27:34.995Z</time></trkpt><trkpt lat="43.658868291302966" lon="11.143184250883362"><ele>97.4</ele><time>2026-04-16T17:27:36.995Z</time></trkpt><trkpt lat="43.65894565519557" lon="11.143103961972262"><ele>96.80000000000001</ele><time>2026-04-16T17:27:38.995Z</time></trkpt><trkpt lat="43.65902616987815" lon="11.143008716846316"><ele>96.2</ele><time>2026-04-16T17:27:40.994Z</time></trkpt><trkpt lat="43.65910343121857" lon="11.142899999212535"><ele>95.6</ele><time>2026-04-16T17:27:42.994Z</time></trkpt><trkpt lat="43.65918279244063" lon="11.14279646689992"><ele>95.0</ele><time>2026-04-16T17:27:44.994Z</time></trkpt><trkpt lat="43.65926460888296" lon="11.142696514115588"><ele>95.0</ele><time>2026-04-16T17:27:46.994Z</time></trkpt><trkpt lat="43.659343446951894" lon="11.142606774499558"><ele>95.0</ele><time>2026-04-16T17:27:48.994Z</time></trkpt><trkpt lat="43.659430987935515" lon="11.142523422830513"><ele>95.0</ele><time>2026-04-16T17:27:50.993Z</time></trkpt><trkpt lat="43.65951789127503" lon="11.142437743726017"><ele>95.0</ele><time>2026-04-16T17:27:52.993Z</time></trkpt><trkpt lat="43.65959949484077" lon="11.142353375608845"><ele>95.0</ele><time>2026-04-16T17:27:54.993Z</time></trkpt><trkpt lat="43.659682067175865" lon="11.142259618026916"><ele>95.2</ele><time>2026-04-16T17:27:56.993Z</time></trkpt><trkpt lat="43.659763241595584" lon="11.14216757765873"><ele>95.4</ele><time>2026-04-16T17:27:58.993Z</time></trkpt><trkpt lat="43.65984508372988" lon="11.14207231415026"><ele>95.6</ele><time>2026-04-16T17:28:00.993Z</time></trkpt><trkpt lat="43.65991540458371" lon="11.141956093095217"><ele>95.8</ele><time>2026-04-16T17:28:02.993Z</time></trkpt><trkpt lat="43.65999456226481" lon="11.141846305910653"><ele>96.0</ele><time>2026-04-16T17:28:04.993Z</time></trkpt><trkpt lat="43.66006341727949" lon="11.14172714874215"><ele>96.0</ele><time>2026-04-16T17:28:06.993Z</time></trkpt><trkpt lat="43.660136186838166" lon="11.141604003234635"><ele>96.0</ele><time>2026-04-16T17:28:08.993Z</time></trkpt><trkpt lat="43.660218125885116" lon="11.14149649443068"><ele>96.0</ele><time>2026-04-16T17:28:10.993Z</time></trkpt><trkpt lat="43.66029658118957" lon="11.141389290403417"><ele>96.0</ele><time>2026-04-16T17:28:12.993Z</time></trkpt><trkpt lat="43.66038389661644" lon="11.141281140309012"><ele>95.8</ele><time>2026-04-16T17:28:14.993Z</time></trkpt><trkpt lat="43.66048110061251" lon="11.141182843145323"><ele>95.6</ele><time>2026-04-16T17:28:16.993Z</time></trkpt><trkpt lat="43.660536693111894" lon="11.141134123859915"><ele>95.4</ele><time>2026-04-16T17:28:17.993Z</time></trkpt><trkpt lat="43.660616660048845" lon="11.14102800339812"><ele>95.2</ele><time>2026-04-16T17:28:19.992Z</time></trkpt><trkpt lat="43.660682776826235" lon="11.140936549899667"><ele>95.0</ele><time>2026-04-16T17:28:21.992Z</time></trkpt><trkpt lat="43.66074000907949" lon="11.14083691232569"><ele>95.0</ele><time>2026-04-16T17:28:23.992Z</time></trkpt><trkpt lat="43.66078910711896" lon="11.140722324725132"><ele>95.0</ele><time>2026-04-16T17:28:25.992Z</time></trkpt><trkpt lat="43.660829430051606" lon="11.14060459237817"><ele>95.0</ele><time>2026-04-16T17:28:27.992Z</time></trkpt><trkpt lat="43.66084684390525" lon="11.140481353545848"><ele>95.0</ele><time>2026-04-16T17:28:29.992Z</time></trkpt><trkpt lat="43.66087262177757" lon="11.140360416452602"><ele>95.0</ele><time>2026-04-16T17:28:31.992Z</time></trkpt><trkpt lat="43.660895145336745" lon="11.140247596069882"><ele>94.8</ele><time>2026-04-16T17:28:33.992Z</time></trkpt><trkpt lat="43.66092865815545" lon="11.140135504846576"><ele>94.6</ele><time>2026-04-16T17:28:35.992Z</time></trkpt><trkpt lat="43.66096917874654" lon="11.140020452805496"><ele>94.4</ele><time>2026-04-16T17:28:37.992Z</time></trkpt><trkpt lat="43.66098008558601" lon="11.139896698650013"><ele>94.2</ele><time>2026-04-16T17:28:39.992Z</time></trkpt><trkpt lat="43.661006098920694" lon="11.13976835143124"><ele>94.0</ele><time>2026-04-16T17:28:41.992Z</time></trkpt><trkpt lat="43.661073619512486" lon="11.139657297544337"><ele>93.4</ele><time>2026-04-16T17:28:43.992Z</time></trkpt><trkpt lat="43.661148046835265" lon="11.139570985897217"><ele>92.80000000000001</ele><time>2026-04-16T17:28:45.992Z</time></trkpt><trkpt lat="43.66122432450423" lon="11.13948401145703"><ele>92.19999999999999</ele><time>2026-04-16T17:28:47.992Z</time></trkpt><trkpt lat="43.661304578310286" lon="11.139387468024156"><ele>91.6</ele><time>2026-04-16T17:28:49.992Z</time></trkpt><trkpt lat="43.661384830686735" lon="11.139303599583268"><ele>91.0</ele><time>2026-04-16T17:28:51.992Z</time></trkpt><trkpt lat="43.66145674964051" lon="11.13921343995448"><ele>91.0</ele><time>2026-04-16T17:28:53.992Z</time></trkpt><trkpt lat="43.66153065124948" lon="11.139121815001138"><ele>91.0</ele><time>2026-04-16T17:28:55.992Z</time></trkpt><trkpt lat="43.66161483010517" lon="11.13904685859579"><ele>91.0</ele><time>2026-04-16T17:28:57.992Z</time></trkpt><trkpt lat="43.66168638486264" lon="11.13895904335264"><ele>91.0</ele><time>2026-04-16T17:28:59.992Z</time></trkpt><trkpt lat="43.66176528244876" lon="11.138878983670889"><ele>91.0</ele><time>2026-04-16T17:29:01.992Z</time></trkpt><trkpt lat="43.66184943938925" lon="11.138808495712047"><ele>91.0</ele><time>2026-04-16T17:29:03.992Z</time></trkpt><trkpt lat="43.66192396795755" lon="11.138725193075931"><ele>91.0</ele><time>2026-04-16T17:29:05.992Z</time></trkpt><trkpt lat="43.66200132330577" lon="11.138656926006197"><ele>91.0</ele><time>2026-04-16T17:29:07.992Z</time></trkpt><trkpt lat="43.662071552603" lon="11.138592283440865"><ele>91.0</ele><time>2026-04-16T17:29:09.992Z</time></trkpt><trkpt lat="43.66214108908184" lon="11.13852545272087"><ele>91.0</ele><time>2026-04-16T17:29:11.992Z</time></trkpt><trkpt lat="43.662220041176745" lon="11.138446159003532"><ele>91.19999999999999</ele><time>2026-04-16T17:29:13.992Z</time></trkpt><trkpt lat="43.66230731497256" lon="11.138383643391439"><ele>91.39999999999999</ele><time>2026-04-16T17:29:15.992Z</time></trkpt><trkpt lat="43.66238466371125" lon="11.13830980616148"><ele>91.6</ele><time>2026-04-16T17:29:17.992Z</time></trkpt><trkpt lat="43.6624697370478" lon="11.138244194761228"><ele>91.8</ele><time>2026-04-16T17:29:19.992Z</time></trkpt><trkpt lat="43.66255391092364" lon="11.138190563435078"><ele>92.0</ele><time>2026-04-16T17:29:21.992Z</time></trkpt><trkpt lat="43.66263572545366" lon="11.138120946331085"><ele>92.0</ele><time>2026-04-16T17:29:23.992Z</time></trkpt><trkpt lat="43.66272160067351" lon="11.138047023714266"><ele>92.0</ele><time>2026-04-16T17:29:25.992Z</time></trkpt><trkpt lat="43.66279803064298" lon="11.13798727068712"><ele>92.0</ele><time>2026-04-16T17:29:27.993Z</time></trkpt><trkpt lat="43.66286924238061" lon="11.137925546539382"><ele>92.0</ele><time>2026-04-16T17:29:29.993Z</time></trkpt><trkpt lat="43.66293894243211" lon="11.137881472755495"><ele>92.0</ele><time>2026-04-16T17:29:31.992Z</time></trkpt><trkpt lat="43.663011945912544" lon="11.137822423262518"><ele>92.0</ele><time>2026-04-16T17:29:33.992Z</time></trkpt><trkpt lat="43.663099069085085" lon="11.137752475466199"><ele>92.0</ele><time>2026-04-16T17:29:35.992Z</time></trkpt><trkpt lat="43.663183002736595" lon="11.137684264880187"><ele>92.0</ele><time>2026-04-16T17:29:37.992Z</time></trkpt><trkpt lat="43.66326546654142" lon="11.137598817647527"><ele>92.0</ele><time>2026-04-16T17:29:39.992Z</time></trkpt><trkpt lat="43.66335122426866" lon="11.137552329857565"><ele>92.0</ele><time>2026-04-16T17:29:41.992Z</time></trkpt><trkpt lat="43.66344567873469" lon="11.137498254590618"><ele>92.0</ele><time>2026-04-16T17:29:43.992Z</time></trkpt><trkpt lat="43.6635439370793" lon="11.137438463322932"><ele>91.75</ele><time>2026-04-16T17:29:45.992Z</time></trkpt><trkpt lat="43.66365024412235" lon="11.137391744688793"><ele>91.5</ele><time>2026-04-16T17:29:47.992Z</time></trkpt><trkpt lat="43.663754954806606" lon="11.137328448948177"><ele>91.25</ele><time>2026-04-16T17:29:49.992Z</time></trkpt><trkpt lat="43.663861932120426" lon="11.13726753930378"><ele>91.0</ele><time>2026-04-16T17:29:51.992Z</time></trkpt><trkpt lat="43.66396261767036" lon="11.13720570358487"><ele>91.0</ele><time>2026-04-16T17:29:53.992Z</time></trkpt><trkpt lat="43.66405631816253" lon="11.137143474314243"><ele>91.0</ele><time>2026-04-16T17:29:55.992Z</time></trkpt><trkpt lat="43.66418468584271" lon="11.137034708038316"><ele>91.0</ele><time>2026-04-16T17:29:58.992Z</time></trkpt><trkpt lat="43.664264890979084" lon="11.136976072673837"><ele>91.0</ele><time>2026-04-16T17:30:00.992Z</time></trkpt><trkpt lat="43.664347331655186" lon="11.136928483919181"><ele>91.0</ele><time>2026-04-16T17:30:02.992Z</time></trkpt><trkpt lat="43.6644269838072" lon="11.13684663794601"><ele>91.19999999999999</ele><time>2026-04-16T17:30:04.992Z</time></trkpt><trkpt lat="43.664509828778414" lon="11.13677408557259"><ele>91.39999999999999</ele><time>2026-04-16T17:30:06.992Z</time></trkpt><trkpt lat="43.66458919865796" lon="11.136696699616724"><ele>91.6</ele><time>2026-04-16T17:30:08.992Z</time></trkpt><trkpt lat="43.664660786914745" lon="11.13659986900826"><ele>91.8</ele><time>2026-04-16T17:30:10.992Z</time></trkpt><trkpt lat="43.66472710869468" lon="11.136508855434595"><ele>92.0</ele><time>2026-04-16T17:30:12.992Z</time></trkpt><trkpt lat="43.66478327324139" lon="11.13640849885981"><ele>92.0</ele><time>2026-04-16T17:30:14.992Z</time></trkpt><trkpt lat="43.6648614487701" lon="11.136330774648325"><ele>92.0</ele><time>2026-04-16T17:30:16.992Z</time></trkpt><trkpt lat="43.66493716354992" lon="11.13625214212091"><ele>92.0</ele><time>2026-04-16T17:30:18.992Z</time></trkpt><trkpt lat="43.66501623927544" lon="11.13618690068278"><ele>92.0</ele><time>2026-04-16T17:30:20.992Z</time></trkpt><trkpt lat="43.66509714137295" lon="11.136133918432385"><ele>92.0</ele><time>2026-04-16T17:30:22.992Z</time></trkpt><trkpt lat="43.66516451973251" lon="11.13604981244672"><ele>92.0</ele><time>2026-04-16T17:30:24.992Z</time></trkpt><trkpt lat="43.66523753102377" lon="11.135984193888822"><ele>92.0</ele><time>2026-04-16T17:30:26.992Z</time></trkpt><trkpt lat="43.66531355076992" lon="11.135936200076959"><ele>92.0</ele><time>2026-04-16T17:30:28.992Z</time></trkpt><trkpt lat="43.66539463546901" lon="11.135893845662048"><ele>92.0</ele><time>2026-04-16T17:30:30.992Z</time></trkpt><trkpt lat="43.66548870363873" lon="11.135865040166498"><ele>92.0</ele><time>2026-04-16T17:30:32.992Z</time></trkpt><trkpt lat="43.66556984955287" lon="11.135833495641842"><ele>92.0</ele><time>2026-04-16T17:30:34.992Z</time></trkpt><trkpt lat="43.66565922818237" lon="11.135793303830944"><ele>92.0</ele><time>2026-04-16T17:30:36.992Z</time></trkpt><trkpt lat="43.66574840738229" lon="11.135755475394557"><ele>92.0</ele><time>2026-04-16T17:30:38.992Z</time></trkpt><trkpt lat="43.66583178460661" lon="11.135734677561018"><ele>92.0</ele><time>2026-04-16T17:30:40.992Z</time></trkpt><trkpt lat="43.66592652729701" lon="11.13571099691103"><ele>92.0</ele><time>2026-04-16T17:30:42.992Z</time></trkpt><trkpt lat="43.66600611401928" lon="11.135690996987245"><ele>92.0</ele><time>2026-04-16T17:30:44.992Z</time></trkpt><trkpt lat="43.666098832848604" lon="11.135670562589727"><ele>92.0</ele><time>2026-04-16T17:30:46.992Z</time></trkpt><trkpt lat="43.66619925708364" lon="11.135638728548189"><ele>91.33333333333334</ele><time>2026-04-16T17:30:48.992Z</time></trkpt><trkpt lat="43.66630163716846" lon="11.135609889534907"><ele>90.66666666666667</ele><time>2026-04-16T17:30:50.992Z</time></trkpt><trkpt lat="43.66636396364074" lon="11.135592196852926"><ele>90.0</ele><time>2026-04-16T17:30:51.992Z</time></trkpt><trkpt lat="43.6664317216839" lon="11.135571567221628"><ele>89.33333333333333</ele><time>2026-04-16T17:30:52.992Z</time></trkpt><trkpt lat="43.66650148258302" lon="11.135547351625908"><ele>88.66666666666666</ele><time>2026-04-16T17:30:53.992Z</time></trkpt><trkpt lat="43.666592217233486" lon="11.135534911396952"><ele>88.0</ele><time>2026-04-16T17:30:54.992Z</time></trkpt><trkpt lat="43.666679451219295" lon="11.13554092637186"><ele>88.0</ele><time>2026-04-16T17:30:55.992Z</time></trkpt><trkpt lat="43.666771515512664" lon="11.135546288608376"><ele>88.0</ele><time>2026-04-16T17:30:56.992Z</time></trkpt><trkpt lat="43.66685412294965" lon="11.135543319330175"><ele>88.0</ele><time>2026-04-16T17:30:57.992Z</time></trkpt><trkpt lat="43.6669310000742" lon="11.135535779448784"><ele>88.0</ele><time>2026-04-16T17:30:58.992Z</time></trkpt><trkpt lat="43.66700544860231" lon="11.135535373217316"><ele>88.0</ele><time>2026-04-16T17:30:59.992Z</time></trkpt><trkpt lat="43.667070385726525" lon="11.135523488879896"><ele>88.0</ele><time>2026-04-16T17:31:00.992Z</time></trkpt><trkpt lat="43.66714011318681" lon="11.135514710474952"><ele>88.0</ele><time>2026-04-16T17:31:01.992Z</time></trkpt><trkpt lat="43.66720393306399" lon="11.135503259156373"><ele>88.0</ele><time>2026-04-16T17:31:02.992Z</time></trkpt><trkpt lat="43.66726712109868" lon="11.135505040450433"><ele>88.0</ele><time>2026-04-16T17:31:03.992Z</time></trkpt><trkpt lat="43.66737483897275" lon="11.135493451603065"><ele>88.0</ele><time>2026-04-16T17:31:05.992Z</time></trkpt><trkpt lat="43.66748925818145" lon="11.135499245077165"><ele>88.0</ele><time>2026-04-16T17:31:07.992Z</time></trkpt><trkpt lat="43.66759102773216" lon="11.135517733730762"><ele>88.0</ele><time>2026-04-16T17:31:09.992Z</time></trkpt><trkpt lat="43.66769439932702" lon="11.135491858081334"><ele>88.0</ele><time>2026-04-16T17:31:11.992Z</time></trkpt><trkpt lat="43.66779044514233" lon="11.135489339593265"><ele>88.0</ele><time>2026-04-16T17:31:13.992Z</time></trkpt><trkpt lat="43.66788119903881" lon="11.135476507644022"><ele>88.0</ele><time>2026-04-16T17:31:15.992Z</time></trkpt><trkpt lat="43.66795992648741" lon="11.13546123384811"><ele>88.0</ele><time>2026-04-16T17:31:17.992Z</time></trkpt><trkpt lat="43.66803541304037" lon="11.135411549920766"><ele>87.83333333333333</ele><time>2026-04-16T17:31:19.992Z</time></trkpt><trkpt lat="43.66810330198881" lon="11.135371144122288"><ele>87.66666666666666</ele><time>2026-04-16T17:31:21.992Z</time></trkpt><trkpt lat="43.668181181950395" lon="11.13535628217204"><ele>87.5</ele><time>2026-04-16T17:31:23.992Z</time></trkpt><trkpt lat="43.66825772329357" lon="11.135325212824558"><ele>87.33333333333333</ele><time>2026-04-16T17:31:25.992Z</time></trkpt><trkpt lat="43.6683225581106" lon="11.135268581393769"><ele>87.16666666666667</ele><time>2026-04-16T17:31:27.992Z</time></trkpt><trkpt lat="43.668399565336514" lon="11.13521004601453"><ele>87.0</ele><time>2026-04-16T17:31:29.992Z</time></trkpt><trkpt lat="43.6684678780315" lon="11.135157583173855"><ele>87.0</ele><time>2026-04-16T17:31:31.991Z</time></trkpt><trkpt lat="43.668532125671526" lon="11.135086512480866"><ele>87.0</ele><time>2026-04-16T17:31:33.992Z</time></trkpt><trkpt lat="43.6686025693783" lon="11.135031080216924"><ele>87.0</ele><time>2026-04-16T17:31:35.992Z</time></trkpt><trkpt lat="43.66867902037358" lon="11.134964061788803"><ele>87.0</ele><time>2026-04-16T17:31:37.992Z</time></trkpt><trkpt lat="43.66875687578035" lon="11.134907862708364"><ele>87.0</ele><time>2026-04-16T17:31:39.992Z</time></trkpt><trkpt lat="43.6688305650388" lon="11.134834077897796"><ele>87.0</ele><time>2026-04-16T17:31:41.992Z</time></trkpt><trkpt lat="43.66891032117237" lon="11.134764602388064"><ele>87.0</ele><time>2026-04-16T17:31:43.992Z</time></trkpt><trkpt lat="43.668986793002865" lon="11.134681835230538"><ele>87.0</ele><time>2026-04-16T17:31:45.992Z</time></trkpt><trkpt lat="43.66906354764938" lon="11.134620499833517"><ele>87.0</ele><time>2026-04-16T17:31:47.992Z</time></trkpt><trkpt lat="43.669141354218816" lon="11.13454390596324"><ele>87.0</ele><time>2026-04-16T17:31:49.992Z</time></trkpt><trkpt lat="43.66920548943422" lon="11.134480229539266"><ele>87.0</ele><time>2026-04-16T17:31:51.992Z</time></trkpt><trkpt lat="43.66927240775177" lon="11.134416948744002"><ele>87.0</ele><time>2026-04-16T17:31:53.992Z</time></trkpt><trkpt lat="43.66933786835892" lon="11.134346226919968"><ele>87.0</ele><time>2026-04-16T17:31:55.992Z</time></trkpt><trkpt lat="43.66940715748811" lon="11.134272999060366"><ele>87.0</ele><time>2026-04-16T17:31:57.992Z</time></trkpt><trkpt lat="43.66948341306224" lon="11.134216477544623"><ele>87.0</ele><time>2026-04-16T17:31:59.992Z</time></trkpt><trkpt lat="43.66955346052542" lon="11.134143049950916"><ele>87.0</ele><time>2026-04-16T17:32:01.992Z</time></trkpt><trkpt lat="43.66962413338769" lon="11.134068186643061"><ele>87.0</ele><time>2026-04-16T17:32:03.992Z</time></trkpt><trkpt lat="43.66970710873606" lon="11.133994481090971"><ele>87.0</ele><time>2026-04-16T17:32:05.992Z</time></trkpt><trkpt lat="43.669777401860664" lon="11.133916781593943"><ele>86.8</ele><time>2026-04-16T17:32:07.992Z</time></trkpt><trkpt lat="43.66985839272276" lon="11.133812836501209"><ele>86.6</ele><time>2026-04-16T17:32:09.992Z</time></trkpt><trkpt lat="43.669941251032675" lon="11.13371913941099"><ele>86.39999999999999</ele><time>2026-04-16T17:32:11.992Z</time></trkpt><trkpt lat="43.67002779994077" lon="11.1336315200321"><ele>86.19999999999999</ele><time>2026-04-16T17:32:13.992Z</time></trkpt><trkpt lat="43.670105058957525" lon="11.133527065049293"><ele>86.0</ele><time>2026-04-16T17:32:15.992Z</time></trkpt><trkpt lat="43.6701939347963" lon="11.13343523577225"><ele>86.0</ele><time>2026-04-16T17:32:17.992Z</time></trkpt><trkpt lat="43.67027709802129" lon="11.133346173208233"><ele>86.0</ele><time>2026-04-16T17:32:19.992Z</time></trkpt><trkpt lat="43.670359750027146" lon="11.13325545314963"><ele>86.0</ele><time>2026-04-16T17:32:21.992Z</time></trkpt><trkpt lat="43.67044641870607" lon="11.133160453005098"><ele>86.0</ele><time>2026-04-16T17:32:23.992Z</time></trkpt><trkpt lat="43.670522433086234" lon="11.133063263034659"><ele>86.0</ele><time>2026-04-16T17:32:25.992Z</time></trkpt><trkpt lat="43.670597909517966" lon="11.13297598032504"><ele>85.8</ele><time>2026-04-16T17:32:27.992Z</time></trkpt><trkpt lat="43.670682811758866" lon="11.132905035623239"><ele>85.6</ele><time>2026-04-16T17:32:29.992Z</time></trkpt><trkpt lat="43.67077377159364" lon="11.132846731507959"><ele>85.4</ele><time>2026-04-16T17:32:31.992Z</time></trkpt><trkpt lat="43.67085555751923" lon="11.13276777574789"><ele>85.2</ele><time>2026-04-16T17:32:33.992Z</time></trkpt><trkpt lat="43.670933895476516" lon="11.13268369066199"><ele>85.0</ele><time>2026-04-16T17:32:35.992Z</time></trkpt><trkpt lat="43.671021423490004" lon="11.132592919187312"><ele>85.0</ele><time>2026-04-16T17:32:37.992Z</time></trkpt><trkpt lat="43.67110542865176" lon="11.132516067596377"><ele>85.0</ele><time>2026-04-16T17:32:39.992Z</time></trkpt><trkpt lat="43.67119083882329" lon="11.132450497855164"><ele>85.0</ele><time>2026-04-16T17:32:41.992Z</time></trkpt><trkpt lat="43.671271692134304" lon="11.132386858520293"><ele>85.0</ele><time>2026-04-16T17:32:43.992Z</time></trkpt><trkpt lat="43.671365973908806" lon="11.132332711363746"><ele>85.0</ele><time>2026-04-16T17:32:45.992Z</time></trkpt><trkpt lat="43.67143800051857" lon="11.13229372292029"><ele>84.8</ele><time>2026-04-16T17:32:47.992Z</time></trkpt><trkpt lat="43.67153194285968" lon="11.132244126681327"><ele>84.6</ele><time>2026-04-16T17:32:49.992Z</time></trkpt><trkpt lat="43.67162561570698" lon="11.1321965419146"><ele>84.4</ele><time>2026-04-16T17:32:51.992Z</time></trkpt><trkpt lat="43.67172502870882" lon="11.132165674809462"><ele>84.2</ele><time>2026-04-16T17:32:53.992Z</time></trkpt><trkpt lat="43.67183216371712" lon="11.13213687394471"><ele>84.0</ele><time>2026-04-16T17:32:55.992Z</time></trkpt><trkpt lat="43.67191899454196" lon="11.132103951752109"><ele>83.5</ele><time>2026-04-16T17:32:57.992Z</time></trkpt><trkpt lat="43.67199148728793" lon="11.132082531010425"><ele>83.0</ele><time>2026-04-16T17:32:59.992Z</time></trkpt><trkpt lat="43.672098650590335" lon="11.132042950697379"><ele>82.5</ele><time>2026-04-16T17:33:01.992Z</time></trkpt><trkpt lat="43.67226536577828" lon="11.132024150936585"><ele>82.0</ele><time>2026-04-16T17:33:04.992Z</time></trkpt><trkpt lat="43.67238298141654" lon="11.131968536835153"><ele>82.0</ele><time>2026-04-16T17:33:06.992Z</time></trkpt><trkpt lat="43.67250488338034" lon="11.131939810823255"><ele>82.0</ele><time>2026-04-16T17:33:08.992Z</time></trkpt><trkpt lat="43.672627154840825" lon="11.131935815297803"><ele>82.0</ele><time>2026-04-16T17:33:10.992Z</time></trkpt><trkpt lat="43.67274277489592" lon="11.131940754785546"><ele>82.0</ele><time>2026-04-16T17:33:12.992Z</time></trkpt><trkpt lat="43.672866760963046" lon="11.131951097991038"><ele>82.0</ele><time>2026-04-16T17:33:14.992Z</time></trkpt><trkpt lat="43.67297120862039" lon="11.131963356603526"><ele>82.0</ele><time>2026-04-16T17:33:16.992Z</time></trkpt><trkpt lat="43.67307364171008" lon="11.131955044191207"><ele>82.0</ele><time>2026-04-16T17:33:18.992Z</time></trkpt><trkpt lat="43.67316494559471" lon="11.131980490045024"><ele>82.0</ele><time>2026-04-16T17:33:20.992Z</time></trkpt><trkpt lat="43.67326561894157" lon="11.132000142529556"><ele>82.0</ele><time>2026-04-16T17:33:22.992Z</time></trkpt><trkpt lat="43.67336637791145" lon="11.132017130097829"><ele>82.0</ele><time>2026-04-16T17:33:24.992Z</time></trkpt><trkpt lat="43.67346354291917" lon="11.132025831201146"><ele>82.0</ele><time>2026-04-16T17:33:26.992Z</time></trkpt><trkpt lat="43.673567120811676" lon="11.132022449118224"><ele>82.0</ele><time>2026-04-16T17:33:28.992Z</time></trkpt><trkpt lat="43.67366966919501" lon="11.132020404834622"><ele>82.0</ele><time>2026-04-16T17:33:30.992Z</time></trkpt><trkpt lat="43.673761756932684" lon="11.132005461442018"><ele>82.0</ele><time>2026-04-16T17:33:32.992Z</time></trkpt><trkpt lat="43.673875332012" lon="11.131993902026755"><ele>81.8</ele><time>2026-04-16T17:33:34.992Z</time></trkpt><trkpt lat="43.673972449162534" lon="11.13197854227656"><ele>81.6</ele><time>2026-04-16T17:33:36.992Z</time></trkpt><trkpt lat="43.67407120364919" lon="11.131984003388485"><ele>81.39999999999999</ele><time>2026-04-16T17:33:38.992Z</time></trkpt><trkpt lat="43.67416370797188" lon="11.131973587801381"><ele>81.19999999999999</ele><time>2026-04-16T17:33:40.991Z</time></trkpt><trkpt lat="43.67425193631544" lon="11.131965423569175"><ele>81.0</ele><time>2026-04-16T17:33:42.992Z</time></trkpt><trkpt lat="43.674348966636" lon="11.13194557510165"><ele>81.0</ele><time>2026-04-16T17:33:44.992Z</time></trkpt><trkpt lat="43.67449631726905" lon="11.13194613330229"><ele>81.0</ele><time>2026-04-16T17:33:47.992Z</time></trkpt><trkpt lat="43.67459837353815" lon="11.131921049539095"><ele>81.0</ele><time>2026-04-16T17:33:49.991Z</time></trkpt><trkpt lat="43.67471690748845" lon="11.131917953065061"><ele>81.0</ele><time>2026-04-16T17:33:51.991Z</time></trkpt><trkpt lat="43.67479617552083" lon="11.131920131618267"><ele>81.0</ele><time>2026-04-16T17:33:53.991Z</time></trkpt><trkpt lat="43.67487974004823" lon="11.131829808897093"><ele>81.0</ele><time>2026-04-16T17:33:55.991Z</time></trkpt><trkpt lat="43.674955096153354" lon="11.131764934827993"><ele>81.0</ele><time>2026-04-16T17:33:57.991Z</time></trkpt><trkpt lat="43.67501816220884" lon="11.131728373501359"><ele>81.0</ele><time>2026-04-16T17:33:59.991Z</time></trkpt><trkpt lat="43.675085070857946" lon="11.131701544658881"><ele>81.0</ele><time>2026-04-16T17:34:01.991Z</time></trkpt><trkpt lat="43.67515116517287" lon="11.13167637628642"><ele>81.0</ele><time>2026-04-16T17:34:03.991Z</time></trkpt><trkpt lat="43.67524417599768" lon="11.131636410503809"><ele>81.0</ele><time>2026-04-16T17:34:05.991Z</time></trkpt><trkpt lat="43.67532806808482" lon="11.131623292863047"><ele>81.16666666666667</ele><time>2026-04-16T17:34:07.991Z</time></trkpt><trkpt lat="43.67541320182852" lon="11.131554160590804"><ele>81.33333333333333</ele><time>2026-04-16T17:34:09.991Z</time></trkpt><trkpt lat="43.67549371742359" lon="11.131519633854353"><ele>81.5</ele><time>2026-04-16T17:34:11.991Z</time></trkpt><trkpt lat="43.67558025807325" lon="11.131478010453144"><ele>81.66666666666666</ele><time>2026-04-16T17:34:13.991Z</time></trkpt><trkpt lat="43.67565987680498" lon="11.131441713462012"><ele>81.83333333333333</ele><time>2026-04-16T17:34:15.991Z</time></trkpt><trkpt lat="43.675738260939994" lon="11.13139394081759"><ele>82.0</ele><time>2026-04-16T17:34:17.991Z</time></trkpt><trkpt lat="43.67582289736001" lon="11.131335794040304"><ele>82.0</ele><time>2026-04-16T17:34:19.991Z</time></trkpt><trkpt lat="43.67590447856142" lon="11.131261733378157"><ele>82.0</ele><time>2026-04-16T17:34:21.991Z</time></trkpt><trkpt lat="43.67598538663151" lon="11.131206533742438"><ele>82.0</ele><time>2026-04-16T17:34:23.991Z</time></trkpt><trkpt lat="43.67606489270166" lon="11.131132074515703"><ele>82.0</ele><time>2026-04-16T17:34:25.991Z</time></trkpt><trkpt lat="43.676136119955395" lon="11.131054553193687"><ele>82.0</ele><time>2026-04-16T17:34:27.991Z</time></trkpt><trkpt lat="43.67620271736392" lon="11.13100357257615"><ele>81.83333333333333</ele><time>2026-04-16T17:34:29.991Z</time></trkpt><trkpt lat="43.67627685592756" lon="11.130945579757118"><ele>81.66666666666666</ele><time>2026-04-16T17:34:31.991Z</time></trkpt><trkpt lat="43.67635643574133" lon="11.130898027739256"><ele>81.5</ele><time>2026-04-16T17:34:33.991Z</time></trkpt><trkpt lat="43.67641882314866" lon="11.130822148912435"><ele>81.33333333333333</ele><time>2026-04-16T17:34:35.991Z</time></trkpt><trkpt lat="43.67650058289784" lon="11.130765130059913"><ele>81.16666666666667</ele><time>2026-04-16T17:34:37.991Z</time></trkpt><trkpt lat="43.67658912386177" lon="11.130708660309589"><ele>81.0</ele><time>2026-04-16T17:34:39.991Z</time></trkpt><trkpt lat="43.67668199091859" lon="11.130643399672786"><ele>81.33333333333333</ele><time>2026-04-16T17:34:41.991Z</time></trkpt><trkpt lat="43.6767617747708" lon="11.130588661863491"><ele>81.66666666666667</ele><time>2026-04-16T17:34:43.991Z</time></trkpt><trkpt lat="43.676843208654766" lon="11.13052634772071"><ele>82.0</ele><time>2026-04-16T17:34:45.991Z</time></trkpt><trkpt lat="43.67692290943998" lon="11.130470041113709"><ele>82.33333333333334</ele><time>2026-04-16T17:34:47.991Z</time></trkpt><trkpt lat="43.67699433992408" lon="11.130415741391486"><ele>82.66666666666667</ele><time>2026-04-16T17:34:49.991Z</time></trkpt><trkpt lat="43.67707156709493" lon="11.1303489658219"><ele>83.0</ele><time>2026-04-16T17:34:51.991Z</time></trkpt><trkpt lat="43.677138607738115" lon="11.130285630428682"><ele>83.16666666666667</ele><time>2026-04-16T17:34:53.991Z</time></trkpt><trkpt lat="43.67722262915809" lon="11.130236776462356"><ele>83.33333333333334</ele><time>2026-04-16T17:34:55.991Z</time></trkpt><trkpt lat="43.67730614755247" lon="11.13015338518359"><ele>83.5</ele><time>2026-04-16T17:34:57.991Z</time></trkpt><trkpt lat="43.67739169688357" lon="11.130119523830563"><ele>83.66666666666667</ele><time>2026-04-16T17:34:59.991Z</time></trkpt><trkpt lat="43.677457440377054" lon="11.1300891292051"><ele>83.83333333333333</ele><time>2026-04-16T17:35:02.991Z</time></trkpt><trkpt lat="43.67753573378745" lon="11.130045635777478"><ele>84.0</ele><time>2026-04-16T17:35:08.991Z</time></trkpt><trkpt lat="43.67760183242419" lon="11.130012650473185"><ele>84.0</ele><time>2026-04-16T17:36:08.991Z</time></trkpt><trkpt lat="43.67766824322886" lon="11.12997369609569"><ele>84.0</ele><time>2026-04-16T17:36:13.991Z</time></trkpt><trkpt lat="43.67774627949144" lon="11.129935801506127"><ele>84.0</ele><time>2026-04-16T17:36:16.991Z</time></trkpt><trkpt lat="43.677835331186685" lon="11.129908521029916"><ele>84.0</ele><time>2026-04-16T17:36:19.991Z</time></trkpt><trkpt lat="43.67789862008456" lon="11.12989166576283"><ele>84.0</ele><time>2026-04-16T17:36:21.991Z</time></trkpt><trkpt lat="43.67796195537942" lon="11.129880537727237"><ele>84.0</ele><time>2026-04-16T17:36:23.991Z</time></trkpt><trkpt lat="43.678036110217754" lon="11.129856190477119"><ele>83.80000000000001</ele><time>2026-04-16T17:36:25.991Z</time></trkpt><trkpt lat="43.67812712419642" lon="11.129846655555607"><ele>83.60000000000001</ele><time>2026-04-16T17:36:27.991Z</time></trkpt><trkpt lat="43.67822033289756" lon="11.129823255200128"><ele>83.4</ele><time>2026-04-16T17:36:29.991Z</time></trkpt><trkpt lat="43.67830824795724" lon="11.129784395611152"><ele>83.2</ele><time>2026-04-16T17:36:31.991Z</time></trkpt><trkpt lat="43.678385055384" lon="11.129747640528697"><ele>83.0</ele><time>2026-04-16T17:36:33.991Z</time></trkpt><trkpt lat="43.678469679695084" lon="11.129699549818858"><ele>83.0</ele><time>2026-04-16T17:36:35.991Z</time></trkpt><trkpt lat="43.67854441497197" lon="11.129646544064201"><ele>83.0</ele><time>2026-04-16T17:36:37.991Z</time></trkpt><trkpt lat="43.67863666602625" lon="11.12958359427311"><ele>83.0</ele><time>2026-04-16T17:36:39.991Z</time></trkpt><trkpt lat="43.67873918677087" lon="11.129527315317663"><ele>83.0</ele><time>2026-04-16T17:36:41.991Z</time></trkpt><trkpt lat="43.678831564040486" lon="11.129456858336093"><ele>83.0</ele><time>2026-04-16T17:36:43.991Z</time></trkpt><trkpt lat="43.67891458035284" lon="11.129371515967179"><ele>82.60000000000001</ele><time>2026-04-16T17:36:45.991Z</time></trkpt><trkpt lat="43.67901713703115" lon="11.129318491519474"><ele>82.2</ele><time>2026-04-16T17:36:47.991Z</time></trkpt><trkpt lat="43.67911359566546" lon="11.129272681227569"><ele>81.8</ele><time>2026-04-16T17:36:49.991Z</time></trkpt><trkpt lat="43.67919497537918" lon="11.129230650694268"><ele>81.4</ele><time>2026-04-16T17:36:51.991Z</time></trkpt><trkpt lat="43.67927178733942" lon="11.129190005900838"><ele>81.0</ele><time>2026-04-16T17:36:53.991Z</time></trkpt><trkpt lat="43.67936626996973" lon="11.129151914726014"><ele>81.0</ele><time>2026-04-16T17:36:55.991Z</time></trkpt><trkpt lat="43.67945615175364" lon="11.129117483455818"><ele>81.0</ele><time>2026-04-16T17:36:57.991Z</time></trkpt><trkpt lat="43.67953179535823" lon="11.129080182708636"><ele>81.0</ele><time>2026-04-16T17:36:59.991Z</time></trkpt><trkpt lat="43.67963492350247" lon="11.129036798211214"><ele>81.0</ele><time>2026-04-16T17:37:01.991Z</time></trkpt><trkpt lat="43.67974085439159" lon="11.128994309372514"><ele>81.0</ele><time>2026-04-16T17:37:03.991Z</time></trkpt><trkpt lat="43.6798224961375" lon="11.128966136907048"><ele>81.0</ele><time>2026-04-16T17:37:05.991Z</time></trkpt><trkpt lat="43.679896975565214" lon="11.128933127870908"><ele>81.0</ele><time>2026-04-16T17:37:07.991Z</time></trkpt><trkpt lat="43.679978062648516" lon="11.128887262906428"><ele>81.0</ele><time>2026-04-16T17:37:10.991Z</time></trkpt><trkpt lat="43.680036973894474" lon="11.128832396198346"><ele>81.0</ele><time>2026-04-16T17:37:13.991Z</time></trkpt><trkpt lat="43.68009187807158" lon="11.128786302664091"><ele>81.0</ele><time>2026-04-16T17:37:16.991Z</time></trkpt><trkpt lat="43.680159695456446" lon="11.128719743502502"><ele>81.0</ele><time>2026-04-16T17:37:19.991Z</time></trkpt><trkpt lat="43.68022573784533" lon="11.128651029329324"><ele>80.83333333333333</ele><time>2026-04-16T17:37:22.991Z</time></trkpt><trkpt lat="43.68029154354629" lon="11.128580606812557"><ele>80.66666666666667</ele><time>2026-04-16T17:37:25.991Z</time></trkpt><trkpt lat="43.680367981259415" lon="11.128529037373358"><ele>80.5</ele><time>2026-04-16T17:37:28.991Z</time></trkpt><trkpt lat="43.68042899301848" lon="11.128494918324632"><ele>80.33333333333334</ele><time>2026-04-16T17:37:30.991Z</time></trkpt><trkpt lat="43.680488830592445" lon="11.12843402687276"><ele>80.16666666666667</ele><time>2026-04-16T17:37:33.991Z</time></trkpt><trkpt lat="43.680557313482204" lon="11.1283761317714"><ele>80.0</ele><time>2026-04-16T17:37:36.991Z</time></trkpt><trkpt lat="43.68062837894124" lon="11.12830427658215"><ele>80.0</ele><time>2026-04-16T17:37:39.991Z</time></trkpt><trkpt lat="43.6806972171147" lon="11.128266624026528"><ele>80.0</ele><time>2026-04-16T17:37:42.991Z</time></trkpt><trkpt lat="43.680776321863036" lon="11.128217299482344"><ele>80.0</ele><time>2026-04-16T17:37:45.991Z</time></trkpt><trkpt lat="43.68083170999598" lon="11.128169742824042"><ele>80.0</ele><time>2026-04-16T17:37:47.991Z</time></trkpt><trkpt lat="43.68090799637352" lon="11.128096129295091"><ele>80.0</ele><time>2026-04-16T17:37:50.991Z</time></trkpt><trkpt lat="43.68097093339849" lon="11.128053433569267"><ele>80.0</ele><time>2026-04-16T17:37:52.991Z</time></trkpt><trkpt lat="43.68105860880549" lon="11.128017811405874"><ele>79.66666666666667</ele><time>2026-04-16T17:37:55.991Z</time></trkpt><trkpt lat="43.681128499300605" lon="11.127957473002214"><ele>79.33333333333334</ele><time>2026-04-16T17:37:58.991Z</time></trkpt><trkpt lat="43.68119175034685" lon="11.127920486068147"><ele>79.0</ele><time>2026-04-16T17:38:00.991Z</time></trkpt><trkpt lat="43.68127868912256" lon="11.127878850267328"><ele>78.66666666666667</ele><time>2026-04-16T17:38:03.991Z</time></trkpt><trkpt lat="43.68134602786375" lon="11.127833756761392"><ele>78.33333333333333</ele><time>2026-04-16T17:38:05.991Z</time></trkpt><trkpt lat="43.68142140836844" lon="11.127780206898683"><ele>78.0</ele><time>2026-04-16T17:38:08.991Z</time></trkpt><trkpt lat="43.68149368930054" lon="11.12774604385373"><ele>78.0</ele><time>2026-04-16T17:38:10.991Z</time></trkpt><trkpt lat="43.68155280816767" lon="11.127704174210958"><ele>78.0</ele><time>2026-04-16T17:38:12.991Z</time></trkpt><trkpt lat="43.681614986322366" lon="11.127676275899256"><ele>78.0</ele><time>2026-04-16T17:38:14.991Z</time></trkpt><trkpt lat="43.681706240314654" lon="11.12760897133537"><ele>78.0</ele><time>2026-04-16T17:38:17.991Z</time></trkpt><trkpt lat="43.68177303548425" lon="11.127582976573105"><ele>78.0</ele><time>2026-04-16T17:38:19.991Z</time></trkpt><trkpt lat="43.68185539818163" lon="11.127546958913664"><ele>78.0</ele><time>2026-04-16T17:38:21.991Z</time></trkpt><trkpt lat="43.68193875018995" lon="11.127565207503883"><ele>78.14285714285715</ele><time>2026-04-16T17:38:23.991Z</time></trkpt><trkpt lat="43.68199306652168" lon="11.127657347952978"><ele>78.28571428571428</ele><time>2026-04-16T17:38:26.991Z</time></trkpt><trkpt lat="43.682024155369874" lon="11.127737849670513"><ele>78.42857142857143</ele><time>2026-04-16T17:38:29.991Z</time></trkpt><trkpt lat="43.68206071436525" lon="11.127817723166144"><ele>78.57142857142858</ele><time>2026-04-16T17:38:32.991Z</time></trkpt><trkpt lat="43.6821017462002" lon="11.127888415821285"><ele>78.71428571428572</ele><time>2026-04-16T17:38:35.991Z</time></trkpt><trkpt lat="43.6821400273884" lon="11.127961718063162"><ele>78.85714285714286</ele><time>2026-04-16T17:38:38.991Z</time></trkpt><trkpt lat="43.682185858472636" lon="11.128036356330629"><ele>79.0</ele><time>2026-04-16T17:38:41.991Z</time></trkpt><trkpt lat="43.68224467922809" lon="11.128109032134224"><ele>79.0</ele><time>2026-04-16T17:38:44.991Z</time></trkpt><trkpt lat="43.68230009285521" lon="11.128197930369625"><ele>79.0</ele><time>2026-04-16T17:38:47.991Z</time></trkpt><trkpt lat="43.68233301979664" lon="11.128297966111775"><ele>79.0</ele><time>2026-04-16T17:38:50.991Z</time></trkpt><trkpt lat="43.68238754603924" lon="11.128397733868997"><ele>79.0</ele><time>2026-04-16T17:38:53.991Z</time></trkpt><trkpt lat="43.68243988859065" lon="11.128502106733539"><ele>79.0</ele><time>2026-04-16T17:38:56.991Z</time></trkpt><trkpt lat="43.6824872781666" lon="11.128611795124352"><ele>79.0</ele><time>2026-04-16T17:38:59.991Z</time></trkpt><trkpt lat="43.68254340695718" lon="11.128707731283924"><ele>78.66666666666666</ele><time>2026-04-16T17:39:02.991Z</time></trkpt><trkpt lat="43.68257746501756" lon="11.128787585021856"><ele>78.33333333333333</ele><time>2026-04-16T17:39:04.991Z</time></trkpt><trkpt lat="43.682644483930176" lon="11.128884388513402"><ele>78.0</ele><time>2026-04-16T17:39:07.991Z</time></trkpt><trkpt lat="43.682692179479446" lon="11.128951568945638"><ele>77.66666666666667</ele><time>2026-04-16T17:39:09.991Z</time></trkpt><trkpt lat="43.682762733440555" lon="11.129040805744054"><ele>77.33333333333334</ele><time>2026-04-16T17:39:12.991Z</time></trkpt><trkpt lat="43.682818353263364" lon="11.129115509095387"><ele>77.0</ele><time>2026-04-16T17:39:15.991Z</time></trkpt><trkpt lat="43.682861895162645" lon="11.129187339977943"><ele>77.71428571428571</ele><time>2026-04-16T17:39:18.991Z</time></trkpt><trkpt lat="43.68290402220876" lon="11.12925750437094"><ele>78.42857142857143</ele><time>2026-04-16T17:39:21.991Z</time></trkpt><trkpt lat="43.68293908135568" lon="11.129346423519475"><ele>79.14285714285714</ele><time>2026-04-16T17:39:24.991Z</time></trkpt><trkpt lat="43.68297260061668" lon="11.129427949866644"><ele>79.85714285714286</ele><time>2026-04-16T17:39:27.991Z</time></trkpt><trkpt lat="43.68301355169687" lon="11.129506886906478"><ele>80.57142857142857</ele><time>2026-04-16T17:39:30.991Z</time></trkpt><trkpt lat="43.6830775413967" lon="11.129560981791666"><ele>81.28571428571428</ele><time>2026-04-16T17:39:35.991Z</time></trkpt><trkpt lat="43.68314665751281" lon="11.129547435893535"><ele>82.0</ele><time>2026-04-16T17:39:38.991Z</time></trkpt><trkpt lat="43.68322972784688" lon="11.129507739226064"><ele>82.0</ele><time>2026-04-16T17:39:41.991Z</time></trkpt><trkpt lat="43.683306071693465" lon="11.129440942345399"><ele>82.0</ele><time>2026-04-16T17:39:44.991Z</time></trkpt><trkpt lat="43.683373882854426" lon="11.129388383049877"><ele>82.0</ele><time>2026-04-16T17:39:47.991Z</time></trkpt><trkpt lat="43.68344003706329" lon="11.129335092078522"><ele>82.0</ele><time>2026-04-16T17:39:50.991Z</time></trkpt><trkpt lat="43.683502984780496" lon="11.129279532233104"><ele>82.0</ele><time>2026-04-16T17:39:53.99Z</time></trkpt><trkpt lat="43.68357540335033" lon="11.12920240983281"><ele>82.0</ele><time>2026-04-16T17:39:56.991Z</time></trkpt><trkpt lat="43.68363546787437" lon="11.129160449418857"><ele>82.0</ele><time>2026-04-16T17:39:58.99Z</time></trkpt><trkpt lat="43.68371235610873" lon="11.129091283539285"><ele>82.0</ele><time>2026-04-16T17:40:01.99Z</time></trkpt><trkpt lat="43.683781252942175" lon="11.129029545735863"><ele>82.0</ele><time>2026-04-16T17:40:03.991Z</time></trkpt><trkpt lat="43.68384138798569" lon="11.128976207418802"><ele>82.0</ele><time>2026-04-16T17:40:05.991Z</time></trkpt><trkpt lat="43.68390335765706" lon="11.128929064675846"><ele>82.0</ele><time>2026-04-16T17:40:07.99Z</time></trkpt><trkpt lat="43.68397076629854" lon="11.12887350656956"><ele>82.0</ele><time>2026-04-16T17:40:10.99Z</time></trkpt><trkpt lat="43.68404246499003" lon="11.12880119566393"><ele>82.0</ele><time>2026-04-16T17:40:13.99Z</time></trkpt><trkpt lat="43.684093928793864" lon="11.128736105690427"><ele>82.0</ele><time>2026-04-16T17:40:18.99Z</time></trkpt><trkpt lat="43.68416224057297" lon="11.128775012280808"><ele>82.0</ele><time>2026-04-16T17:40:21.99Z</time></trkpt><trkpt lat="43.68422092698182" lon="11.128818966461663"><ele>82.0</ele><time>2026-04-16T17:40:23.99Z</time></trkpt><trkpt lat="43.68427724067751" lon="11.128909126175238"><ele>82.0</ele><time>2026-04-16T17:40:26.99Z</time></trkpt><trkpt lat="43.68433780298019" lon="11.12901703870666"><ele>82.0</ele><time>2026-04-16T17:40:29.99Z</time></trkpt><trkpt lat="43.684365184364005" lon="11.129126831970932"><ele>82.0</ele><time>2026-04-16T17:40:31.99Z</time></trkpt><trkpt lat="43.684402453534" lon="11.129216617970103"><ele>82.0</ele><time>2026-04-16T17:40:33.99Z</time></trkpt><trkpt lat="43.68442782397104" lon="11.129319693565666"><ele>82.0</ele><time>2026-04-16T17:40:35.99Z</time></trkpt><trkpt lat="43.68447078648856" lon="11.129414806917449"><ele>82.0</ele><time>2026-04-16T17:40:37.99Z</time></trkpt><trkpt lat="43.68449533815715" lon="11.129518457454374"><ele>82.0</ele><time>2026-04-16T17:40:39.99Z</time></trkpt><trkpt lat="43.68453388362885" lon="11.129617153599149"><ele>82.0</ele><time>2026-04-16T17:40:41.99Z</time></trkpt><trkpt lat="43.68456269294837" lon="11.129713931033145"><ele>82.33333333333333</ele><time>2026-04-16T17:40:43.99Z</time></trkpt><trkpt lat="43.68460042886763" lon="11.129805910038922"><ele>82.66666666666666</ele><time>2026-04-16T17:40:45.99Z</time></trkpt><trkpt lat="43.68464578293792" lon="11.129898179499394"><ele>83.0</ele><time>2026-04-16T17:40:47.99Z</time></trkpt><trkpt lat="43.68467945753867" lon="11.129988519034072"><ele>83.33333333333333</ele><time>2026-04-16T17:40:49.99Z</time></trkpt><trkpt lat="43.684723519298885" lon="11.130065150990823"><ele>83.66666666666667</ele><time>2026-04-16T17:40:51.99Z</time></trkpt><trkpt lat="43.684743663429664" lon="11.13017032675337"><ele>84.0</ele><time>2026-04-16T17:40:53.99Z</time></trkpt><trkpt lat="43.68477291513157" lon="11.13026051738582"><ele>84.0</ele><time>2026-04-16T17:40:55.99Z</time></trkpt><trkpt lat="43.68480375644144" lon="11.130356663667987"><ele>84.0</ele><time>2026-04-16T17:40:57.99Z</time></trkpt><trkpt lat="43.68483719530249" lon="11.130436886488251"><ele>84.0</ele><time>2026-04-16T17:40:59.99Z</time></trkpt><trkpt lat="43.68486532995374" lon="11.130531338340539"><ele>84.0</ele><time>2026-04-16T17:41:01.99Z</time></trkpt><trkpt lat="43.684889427464405" lon="11.1306284385534"><ele>84.0</ele><time>2026-04-16T17:41:03.99Z</time></trkpt><trkpt lat="43.684917235934094" lon="11.130723387947214"><ele>84.0</ele><time>2026-04-16T17:41:05.99Z</time></trkpt><trkpt lat="43.68495065581653" lon="11.130814088093926"><ele>84.0</ele><time>2026-04-16T17:41:07.99Z</time></trkpt><trkpt lat="43.68497953664692" lon="11.130902104590163"><ele>84.0</ele><time>2026-04-16T17:41:09.99Z</time></trkpt><trkpt lat="43.68501463431188" lon="11.130977275901836"><ele>84.0</ele><time>2026-04-16T17:41:11.99Z</time></trkpt><trkpt lat="43.68505283727703" lon="11.13109559954223"><ele>84.0</ele><time>2026-04-16T17:41:14.99Z</time></trkpt><trkpt lat="43.68510042321451" lon="11.131200818535433"><ele>84.0</ele><time>2026-04-16T17:41:17.99Z</time></trkpt><trkpt lat="43.68511572940516" lon="11.131321021248695"><ele>84.0</ele><time>2026-04-16T17:41:20.99Z</time></trkpt><trkpt lat="43.685121728770476" lon="11.131425353570751"><ele>84.0</ele><time>2026-04-16T17:41:23.99Z</time></trkpt><trkpt lat="43.685125294392016" lon="11.131551863158146"><ele>84.0</ele><time>2026-04-16T17:41:26.99Z</time></trkpt><trkpt lat="43.685138308152354" lon="11.131646514697028"><ele>84.0</ele><time>2026-04-16T17:41:28.99Z</time></trkpt><trkpt lat="43.685173763086304" lon="11.13172203221403"><ele>84.0</ele><time>2026-04-16T17:41:30.99Z</time></trkpt><trkpt lat="43.68523434056536" lon="11.1318180875791"><ele>84.0</ele><time>2026-04-16T17:41:33.99Z</time></trkpt><trkpt lat="43.68527525628421" lon="11.131884249544687"><ele>84.0</ele><time>2026-04-16T17:41:35.99Z</time></trkpt><trkpt lat="43.685326732998725" lon="11.131937786987022"><ele>84.0</ele><time>2026-04-16T17:41:37.99Z</time></trkpt><trkpt lat="43.685369804983644" lon="11.132005852759333"><ele>84.0</ele><time>2026-04-16T17:41:39.99Z</time></trkpt><trkpt lat="43.68541179905404" lon="11.132075605684932"><ele>84.57142857142857</ele><time>2026-04-16T17:41:41.99Z</time></trkpt><trkpt lat="43.68545170346552" lon="11.132147238060197"><ele>85.14285714285714</ele><time>2026-04-16T17:41:43.99Z</time></trkpt><trkpt lat="43.685516822332474" lon="11.132250340277444"><ele>85.71428571428572</ele><time>2026-04-16T17:41:46.99Z</time></trkpt><trkpt lat="43.685563449003475" lon="11.132323892793"><ele>86.28571428571428</ele><time>2026-04-16T17:41:48.99Z</time></trkpt><trkpt lat="43.68559602813659" lon="11.132409093654374"><ele>86.85714285714286</ele><time>2026-04-16T17:41:50.99Z</time></trkpt><trkpt lat="43.685631640275055" lon="11.132489131055774"><ele>87.42857142857143</ele><time>2026-04-16T17:41:52.99Z</time></trkpt><trkpt lat="43.68565440948334" lon="11.132574024771264"><ele>88.0</ele><time>2026-04-16T17:41:54.99Z</time></trkpt><trkpt lat="43.68568509296656" lon="11.132658874867884"><ele>88.0</ele><time>2026-04-16T17:41:56.99Z</time></trkpt><trkpt lat="43.68570209428937" lon="11.132748790707168"><ele>88.0</ele><time>2026-04-16T17:41:58.99Z</time></trkpt><trkpt lat="43.685731396600396" lon="11.13283313064724"><ele>88.0</ele><time>2026-04-16T17:42:00.99Z</time></trkpt><trkpt lat="43.68575885409137" lon="11.132916853697367"><ele>88.0</ele><time>2026-04-16T17:42:02.991Z</time></trkpt><trkpt lat="43.685781486016" lon="11.13299902548304"><ele>88.0</ele><time>2026-04-16T17:42:04.99Z</time></trkpt><trkpt lat="43.685804557397375" lon="11.133086503988691"><ele>88.0</ele><time>2026-04-16T17:42:06.99Z</time></trkpt><trkpt lat="43.68583089330078" lon="11.133170201191485"><ele>88.0</ele><time>2026-04-16T17:42:08.99Z</time></trkpt><trkpt lat="43.68586205559127" lon="11.133249179310491"><ele>87.83333333333333</ele><time>2026-04-16T17:42:10.99Z</time></trkpt><trkpt lat="43.685898744376146" lon="11.133368878006006"><ele>87.66666666666666</ele><time>2026-04-16T17:42:13.99Z</time></trkpt><trkpt lat="43.685925750155675" lon="11.1334497017174"><ele>87.5</ele><time>2026-04-16T17:42:15.99Z</time></trkpt><trkpt lat="43.68597241269502" lon="11.133552505045797"><ele>87.33333333333333</ele><time>2026-04-16T17:42:18.99Z</time></trkpt><trkpt lat="43.68603514329061" lon="11.133624802300725"><ele>87.16666666666667</ele><time>2026-04-16T17:42:21.99Z</time></trkpt><trkpt lat="43.686101360654455" lon="11.133681529761484"><ele>87.0</ele><time>2026-04-16T17:42:24.99Z</time></trkpt><trkpt lat="43.6861632284488" lon="11.133747824315675"><ele>87.71428571428571</ele><time>2026-04-16T17:42:27.99Z</time></trkpt><trkpt lat="43.686220930571324" lon="11.133789504309318"><ele>88.42857142857143</ele><time>2026-04-16T17:42:30.99Z</time></trkpt><trkpt lat="43.68627425399707" lon="11.133847930972182"><ele>89.14285714285714</ele><time>2026-04-16T17:42:33.99Z</time></trkpt><trkpt lat="43.68633903269031" lon="11.133813127361291"><ele>89.85714285714286</ele><time>2026-04-16T17:42:36.99Z</time></trkpt><trkpt lat="43.686396056327744" lon="11.13376640538526"><ele>90.57142857142857</ele><time>2026-04-16T17:42:39.99Z</time></trkpt><trkpt lat="43.68647145450933" lon="11.133733948158088"><ele>91.28571428571429</ele><time>2026-04-16T17:42:42.99Z</time></trkpt><trkpt lat="43.686546814581206" lon="11.133703956614157"><ele>92.0</ele><time>2026-04-16T17:42:45.99Z</time></trkpt><trkpt lat="43.686645198043905" lon="11.13366303308433"><ele>92.0</ele><time>2026-04-16T17:42:48.99Z</time></trkpt><trkpt lat="43.68671259745352" lon="11.133622355695277"><ele>92.0</ele><time>2026-04-16T17:42:50.99Z</time></trkpt><trkpt lat="43.68677147373019" lon="11.133584583729851"><ele>92.0</ele><time>2026-04-16T17:42:52.99Z</time></trkpt><trkpt lat="43.68685177585997" lon="11.133529382374597"><ele>92.0</ele><time>2026-04-16T17:42:55.99Z</time></trkpt><trkpt lat="43.68690362768855" lon="11.133471798832481"><ele>92.0</ele><time>2026-04-16T17:42:59.99Z</time></trkpt><trkpt lat="43.68684973249668" lon="11.133416917944405"><ele>92.0</ele><time>2026-04-16T17:43:04.99Z</time></trkpt><trkpt lat="43.68676926582774" lon="11.13349481678427"><ele>92.0</ele><time>2026-04-16T17:43:09.99Z</time></trkpt><trkpt lat="43.68669169695718" lon="11.133515157339305"><ele>92.0</ele><time>2026-04-16T17:43:13.99Z</time></trkpt><trkpt lat="43.686664064955096" lon="11.133415922829771"><ele>92.0</ele><time>2026-04-16T17:43:17.99Z</time></trkpt></trkseg></trk></gpx>